<?xml version="1.0" encoding="UTF-8"?>
<gpx version="1.1" creator="2bulu-scraper" xmlns="http://www.topografix.com/GPX/1/1">
  <metadata><name>刘沟~覃山村~芹菜坪~三峨环线~扇子山~裕民村~易漕~楠坡~刘沟</name><desc>source: 2bulu.com trackId=76831928; exported 2026-09-01T16:02:46.158Z</desc>
    <bounds minlat="29.301792" minlon="103.4960504" maxlat="29.3319662" maxlon="103.5335789"/>
    <link href="https://www.2bulu.com/track/t-FrRjcVQ5x4np%252FR2KBg5Tzw%253D%253D.htm"><text>2bulu 源页面</text></link>
  </metadata>
  <wpt lat="29.3018247" lon="103.5152806"><ele>580</ele><name>
        </name></wpt>
  <wpt lat="29.3027834" lon="103.5154147"><ele>575</ele><name>
        </name></wpt>
  <wpt lat="29.3026965" lon="103.513363"><ele>676</ele><name>
        </name></wpt>
  <wpt lat="29.3029312" lon="103.5123166"><ele>714</ele><name>
        </name></wpt>
  <wpt lat="29.3026659" lon="103.5117989"><ele>734</ele><name>
        </name></wpt>
  <wpt lat="29.3027066" lon="103.5109987"><ele>761</ele><name>
        </name></wpt>
  <wpt lat="29.3040865" lon="103.5060233"><ele>1026</ele><name>
        </name></wpt>
  <wpt lat="29.30592" lon="103.5073027"><ele>1074</ele><name>
        </name></wpt>
  <wpt lat="29.3066731" lon="103.5048895"><ele>1096</ele><name>
        </name></wpt>
  <wpt lat="29.30922" lon="103.4990573"><ele>1147</ele><name>
        </name></wpt>
  <wpt lat="29.3140196" lon="103.4983222"><ele>1247</ele><name>往左上
        </name></wpt>
  <wpt lat="29.3141727" lon="103.4979431"><ele>1271</ele><name>
        </name></wpt>
  <wpt lat="29.3142635" lon="103.4973249"><ele>1302</ele><name>
        </name></wpt>
  <wpt lat="29.3148322" lon="103.4973887"><ele>1345</ele><name>
        </name></wpt>
  <wpt lat="29.3152165" lon="103.4970788"><ele>1370</ele><name>
        </name></wpt>
  <wpt lat="29.3175987" lon="103.4962047"><ele>1507</ele><name>
        </name></wpt>
  <wpt lat="29.319233" lon="103.4963672"><ele>1628</ele><name>
        </name></wpt>
  <wpt lat="29.3195799" lon="103.4963741"><ele>1636</ele><name>
        </name></wpt>
  <wpt lat="29.321419" lon="103.4972313"><ele>1676</ele><name>
        </name></wpt>
  <wpt lat="29.326331" lon="103.4999456"><ele>1505</ele><name>
        </name></wpt>
  <wpt lat="29.326899" lon="103.5002575"><ele>1509</ele><name>
        </name></wpt>
  <wpt lat="29.3264795" lon="103.5025895"><ele>1548</ele><name>
        </name></wpt>
  <wpt lat="29.3257803" lon="103.5039372"><ele>1577</ele><name>
        </name></wpt>
  <wpt lat="29.3306642" lon="103.5076251"><ele>1495</ele><name>
        </name></wpt>
  <wpt lat="29.3314803" lon="103.5145769"><ele>1451</ele><name>
        </name></wpt>
  <wpt lat="29.3304502" lon="103.5255328"><ele>1321</ele><name>
        </name></wpt>
  <wpt lat="29.3143017" lon="103.5296149"><ele>804</ele><name>
        </name></wpt>
  <wpt lat="29.3057629" lon="103.5203093"><ele>784</ele><name>
        </name></wpt>
  <wpt lat="29.3018642" lon="103.5152861"><ele>565</ele><name>
        </name></wpt>
  <trk><name>刘沟~覃山村~芹菜坪~三峨环线~扇子山~裕民村~易漕~楠坡~刘沟</name>
      <trkseg>
        <trkpt lat="29.3018247" lon="103.5152806"><ele>580.38</ele><time>2025-12-27T15:53:13.000Z</time></trkpt>
        <trkpt lat="29.3018253" lon="103.5151726"><ele>580.38</ele><time>2025-12-27T15:54:26.000Z</time></trkpt>
        <trkpt lat="29.301792" lon="103.5150681"><ele>576.66</ele><time>2025-12-27T15:54:40.000Z</time></trkpt>
        <trkpt lat="29.3018759" lon="103.515072"><ele>573.84</ele><time>2025-12-27T15:54:52.000Z</time></trkpt>
        <trkpt lat="29.3019283" lon="103.5151646"><ele>571.42</ele><time>2025-12-27T15:55:02.000Z</time></trkpt>
        <trkpt lat="29.3020013" lon="103.5152425"><ele>568.56</ele><time>2025-12-27T15:55:08.000Z</time></trkpt>
        <trkpt lat="29.3020991" lon="103.5152505"><ele>566.9</ele><time>2025-12-27T15:55:20.000Z</time></trkpt>
        <trkpt lat="29.3021771" lon="103.5153326"><ele>563.73</ele><time>2025-12-27T15:55:28.000Z</time></trkpt>
        <trkpt lat="29.3022391" lon="103.5154339"><ele>562.45</ele><time>2025-12-27T15:55:36.000Z</time></trkpt>
        <trkpt lat="29.302294" lon="103.5155451"><ele>563.05</ele><time>2025-12-27T15:55:44.000Z</time></trkpt>
        <trkpt lat="29.3023475" lon="103.5156481"><ele>564.59</ele><time>2025-12-27T15:55:54.000Z</time></trkpt>
        <trkpt lat="29.302427" lon="103.5156512"><ele>565.32</ele><time>2025-12-27T15:56:02.000Z</time></trkpt>
        <trkpt lat="29.3025064" lon="103.5156829"><ele>566.07</ele><time>2025-12-27T15:56:10.000Z</time></trkpt>
        <trkpt lat="29.3025755" lon="103.5156115"><ele>567.07</ele><time>2025-12-27T15:56:20.000Z</time></trkpt>
        <trkpt lat="29.3026456" lon="103.5155261"><ele>567.9</ele><time>2025-12-27T15:56:28.000Z</time></trkpt>
        <trkpt lat="29.3027014" lon="103.5154401"><ele>568.7</ele><time>2025-12-27T15:56:40.000Z</time></trkpt>
        <trkpt lat="29.3027834" lon="103.5154147"><ele>569.88</ele><time>2025-12-27T15:57:14.000Z</time></trkpt>
        <trkpt lat="29.302786" lon="103.5153302"><ele>572.06</ele><time>2025-12-27T15:58:00.000Z</time></trkpt>
        <trkpt lat="29.3027907" lon="103.5152231"><ele>573.31</ele><time>2025-12-27T15:58:18.000Z</time></trkpt>
        <trkpt lat="29.3028132" lon="103.5151152"><ele>577.27</ele><time>2025-12-27T15:58:42.000Z</time></trkpt>
        <trkpt lat="29.3027401" lon="103.5150673"><ele>580.31</ele><time>2025-12-27T15:58:52.000Z</time></trkpt>
        <trkpt lat="29.3026356" lon="103.5150363"><ele>582.61</ele><time>2025-12-27T15:59:00.000Z</time></trkpt>
        <trkpt lat="29.3025967" lon="103.5150292"><ele>583.87</ele><time>2025-12-27T15:59:04.000Z</time></trkpt>
        <trkpt lat="29.3025232" lon="103.5149979"><ele>584.4</ele><time>2025-12-27T15:59:22.000Z</time></trkpt>
        <trkpt lat="29.3024351" lon="103.5149469"><ele>584.68</ele><time>2025-12-27T15:59:32.000Z</time></trkpt>
        <trkpt lat="29.3024618" lon="103.5148741"><ele>585.59</ele><time>2025-12-27T15:59:52.000Z</time></trkpt>
        <trkpt lat="29.302555" lon="103.5148414"><ele>586.54</ele><time>2025-12-27T16:00:06.000Z</time></trkpt>
        <trkpt lat="29.3026509" lon="103.5147853"><ele>588.26</ele><time>2025-12-27T16:00:20.000Z</time></trkpt>
        <trkpt lat="29.3027519" lon="103.5147566"><ele>590.65</ele><time>2025-12-27T16:01:06.000Z</time></trkpt>
        <trkpt lat="29.3028393" lon="103.5146991"><ele>594.56</ele><time>2025-12-27T16:01:14.000Z</time></trkpt>
        <trkpt lat="29.3028242" lon="103.5146156"><ele>595.77</ele><time>2025-12-27T16:01:28.000Z</time></trkpt>
        <trkpt lat="29.302732" lon="103.5146003"><ele>597.59</ele><time>2025-12-27T16:01:40.000Z</time></trkpt>
        <trkpt lat="29.3026884" lon="103.5145859"><ele>601.84</ele><time>2025-12-27T16:01:44.000Z</time></trkpt>
        <trkpt lat="29.3026088" lon="103.5145487"><ele>604.06</ele><time>2025-12-27T16:01:58.000Z</time></trkpt>
        <trkpt lat="29.3025143" lon="103.5145136"><ele>606.88</ele><time>2025-12-27T16:02:10.000Z</time></trkpt>
        <trkpt lat="29.3024101" lon="103.5145207"><ele>610.03</ele><time>2025-12-27T16:02:22.000Z</time></trkpt>
        <trkpt lat="29.302326" lon="103.5144763"><ele>614.32</ele><time>2025-12-27T16:02:44.000Z</time></trkpt>
        <trkpt lat="29.30237" lon="103.5144337"><ele>618.59</ele><time>2025-12-27T16:02:56.000Z</time></trkpt>
        <trkpt lat="29.3024519" lon="103.5143709"><ele>620.04</ele><time>2025-12-27T16:03:08.000Z</time></trkpt>
        <trkpt lat="29.3025624" lon="103.5143431"><ele>621.21</ele><time>2025-12-27T16:03:24.000Z</time></trkpt>
        <trkpt lat="29.3026727" lon="103.5143363"><ele>624.31</ele><time>2025-12-27T16:03:36.000Z</time></trkpt>
        <trkpt lat="29.3027768" lon="103.5143108"><ele>625.74</ele><time>2025-12-27T16:03:48.000Z</time></trkpt>
        <trkpt lat="29.3028413" lon="103.5142344"><ele>628.5</ele><time>2025-12-27T16:04:00.000Z</time></trkpt>
        <trkpt lat="29.3028464" lon="103.5141222"><ele>631.69</ele><time>2025-12-27T16:04:12.000Z</time></trkpt>
        <trkpt lat="29.3027885" lon="103.5140334"><ele>635.35</ele><time>2025-12-27T16:04:30.000Z</time></trkpt>
        <trkpt lat="29.3027007" lon="103.5140621"><ele>637.94</ele><time>2025-12-27T16:04:46.000Z</time></trkpt>
        <trkpt lat="29.3025925" lon="103.5140746"><ele>639.4</ele><time>2025-12-27T16:05:00.000Z</time></trkpt>
        <trkpt lat="29.3024968" lon="103.5140427"><ele>640.76</ele><time>2025-12-27T16:05:12.000Z</time></trkpt>
        <trkpt lat="29.3024094" lon="103.5139854"><ele>641.94</ele><time>2025-12-27T16:05:24.000Z</time></trkpt>
        <trkpt lat="29.3023201" lon="103.5139425"><ele>643.4</ele><time>2025-12-27T16:05:36.000Z</time></trkpt>
        <trkpt lat="29.3022334" lon="103.5138977"><ele>646.24</ele><time>2025-12-27T16:05:46.000Z</time></trkpt>
        <trkpt lat="29.3021789" lon="103.5138113"><ele>649.37</ele><time>2025-12-27T16:05:58.000Z</time></trkpt>
        <trkpt lat="29.3021558" lon="103.5137022"><ele>652.99</ele><time>2025-12-27T16:06:10.000Z</time></trkpt>
        <trkpt lat="29.3021788" lon="103.5135939"><ele>656.78</ele><time>2025-12-27T16:06:44.000Z</time></trkpt>
        <trkpt lat="29.3022611" lon="103.5135751"><ele>659.63</ele><time>2025-12-27T16:07:26.000Z</time></trkpt>
        <trkpt lat="29.3023621" lon="103.5135786"><ele>661.03</ele><time>2025-12-27T16:07:36.000Z</time></trkpt>
        <trkpt lat="29.3024593" lon="103.5135498"><ele>663.05</ele><time>2025-12-27T16:07:48.000Z</time></trkpt>
        <trkpt lat="29.302555" lon="103.5135148"><ele>665.82</ele><time>2025-12-27T16:08:02.000Z</time></trkpt>
        <trkpt lat="29.302637" lon="103.5134476"><ele>670.22</ele><time>2025-12-27T16:08:16.000Z</time></trkpt>
        <trkpt lat="29.3026965" lon="103.513363"><ele>673.7</ele><time>2025-12-27T16:08:38.000Z</time></trkpt>
        <trkpt lat="29.3027756" lon="103.5132773"><ele>674.9</ele><time>2025-12-27T16:10:18.000Z</time></trkpt>
        <trkpt lat="29.3028537" lon="103.5132127"><ele>674.9</ele><time>2025-12-27T16:10:28.000Z</time></trkpt>
        <trkpt lat="29.3029347" lon="103.5131622"><ele>676.51</ele><time>2025-12-27T16:10:40.000Z</time></trkpt>
        <trkpt lat="29.3030273" lon="103.5131218"><ele>678.93</ele><time>2025-12-27T16:11:00.000Z</time></trkpt>
        <trkpt lat="29.3030898" lon="103.5130452"><ele>682.73</ele><time>2025-12-27T16:11:12.000Z</time></trkpt>
        <trkpt lat="29.3030801" lon="103.512941"><ele>686.62</ele><time>2025-12-27T16:11:22.000Z</time></trkpt>
        <trkpt lat="29.3030317" lon="103.5128319"><ele>689.96</ele><time>2025-12-27T16:11:36.000Z</time></trkpt>
        <trkpt lat="29.3030166" lon="103.5127214"><ele>694.01</ele><time>2025-12-27T16:11:48.000Z</time></trkpt>
        <trkpt lat="29.3030016" lon="103.5126092"><ele>697.46</ele><time>2025-12-27T16:11:58.000Z</time></trkpt>
        <trkpt lat="29.3030029" lon="103.5124903"><ele>701.62</ele><time>2025-12-27T16:12:10.000Z</time></trkpt>
        <trkpt lat="29.3030545" lon="103.5123943"><ele>703.7</ele><time>2025-12-27T16:12:22.000Z</time></trkpt>
        <trkpt lat="29.3031479" lon="103.5123374"><ele>704.34</ele><time>2025-12-27T16:12:34.000Z</time></trkpt>
        <trkpt lat="29.3032293" lon="103.5122736"><ele>705.48</ele><time>2025-12-27T16:12:44.000Z</time></trkpt>
        <trkpt lat="29.3031865" lon="103.5122334"><ele>707.13</ele><time>2025-12-27T16:12:58.000Z</time></trkpt>
        <trkpt lat="29.303098" lon="103.5122479"><ele>709.1</ele><time>2025-12-27T16:13:10.000Z</time></trkpt>
        <trkpt lat="29.3030574" lon="103.5122563"><ele>710.45</ele><time>2025-12-27T16:13:14.000Z</time></trkpt>
        <trkpt lat="29.3029746" lon="103.5122966"><ele>711.32</ele><time>2025-12-27T16:14:10.000Z</time></trkpt>
        <trkpt lat="29.3029312" lon="103.5123166"><ele>712.3</ele><time>2025-12-27T16:14:14.000Z</time></trkpt>
        <trkpt lat="29.3028601" lon="103.5122787"><ele>713.13</ele><time>2025-12-27T16:14:36.000Z</time></trkpt>
        <trkpt lat="29.3028094" lon="103.5121866"><ele>713.81</ele><time>2025-12-27T16:14:50.000Z</time></trkpt>
        <trkpt lat="29.3028162" lon="103.512069"><ele>716.15</ele><time>2025-12-27T16:15:02.000Z</time></trkpt>
        <trkpt lat="29.3028049" lon="103.511952"><ele>719.23</ele><time>2025-12-27T16:15:16.000Z</time></trkpt>
        <trkpt lat="29.3027492" lon="103.5118613"><ele>722.83</ele><time>2025-12-27T16:15:34.000Z</time></trkpt>
        <trkpt lat="29.3026659" lon="103.5117989"><ele>726.25</ele><time>2025-12-27T16:15:46.000Z</time></trkpt>
        <trkpt lat="29.3026391" lon="103.5117057"><ele>729.38</ele><time>2025-12-27T16:16:12.000Z</time></trkpt>
        <trkpt lat="29.3026375" lon="103.5116027"><ele>733.6</ele><time>2025-12-27T16:16:24.000Z</time></trkpt>
        <trkpt lat="29.3026319" lon="103.5114948"><ele>737.11</ele><time>2025-12-27T16:16:46.000Z</time></trkpt>
        <trkpt lat="29.3026372" lon="103.5113885"><ele>740.76</ele><time>2025-12-27T16:17:00.000Z</time></trkpt>
        <trkpt lat="29.3026711" lon="103.5112913"><ele>744.55</ele><time>2025-12-27T16:17:22.000Z</time></trkpt>
        <trkpt lat="29.3027163" lon="103.5111991"><ele>748.32</ele><time>2025-12-27T16:17:38.000Z</time></trkpt>
        <trkpt lat="29.3027237" lon="103.5110991"><ele>750.14</ele><time>2025-12-27T16:17:54.000Z</time></trkpt>
        <trkpt lat="29.3027066" lon="103.5109987"><ele>752.85</ele><time>2025-12-27T16:18:12.000Z</time></trkpt>
        <trkpt lat="29.302671" lon="103.5109004"><ele>756.45</ele><time>2025-12-27T16:18:46.000Z</time></trkpt>
        <trkpt lat="29.3026479" lon="103.5107987"><ele>760.78</ele><time>2025-12-27T16:18:56.000Z</time></trkpt>
        <trkpt lat="29.302603" lon="103.510693"><ele>765.21</ele><time>2025-12-27T16:19:08.000Z</time></trkpt>
        <trkpt lat="29.3025465" lon="103.5105944"><ele>768.67</ele><time>2025-12-27T16:19:22.000Z</time></trkpt>
        <trkpt lat="29.3025449" lon="103.510491"><ele>771.47</ele><time>2025-12-27T16:19:40.000Z</time></trkpt>
        <trkpt lat="29.3025682" lon="103.5103895"><ele>774.13</ele><time>2025-12-27T16:19:52.000Z</time></trkpt>
        <trkpt lat="29.3025681" lon="103.5102859"><ele>776.16</ele><time>2025-12-27T16:20:14.000Z</time></trkpt>
        <trkpt lat="29.3025875" lon="103.5101845"><ele>778.57</ele><time>2025-12-27T16:21:00.000Z</time></trkpt>
        <trkpt lat="29.3026587" lon="103.5101976"><ele>782.41</ele><time>2025-12-27T16:21:38.000Z</time></trkpt>
        <trkpt lat="29.3026955" lon="103.5101286"><ele>788.5</ele><time>2025-12-27T16:21:46.000Z</time></trkpt>
        <trkpt lat="29.3027502" lon="103.5100422"><ele>792.37</ele><time>2025-12-27T16:22:38.000Z</time></trkpt>
        <trkpt lat="29.3027757" lon="103.5099405"><ele>796.81</ele><time>2025-12-27T16:22:50.000Z</time></trkpt>
        <trkpt lat="29.3028035" lon="103.509836"><ele>802.12</ele><time>2025-12-27T16:23:30.000Z</time></trkpt>
        <trkpt lat="29.3028262" lon="103.5097209"><ele>807.45</ele><time>2025-12-27T16:24:32.000Z</time></trkpt>
        <trkpt lat="29.3028509" lon="103.5096139"><ele>811.44</ele><time>2025-12-27T16:25:38.000Z</time></trkpt>
        <trkpt lat="29.3028334" lon="103.5095865"><ele>816.38</ele><time>2025-12-27T16:25:44.000Z</time></trkpt>
        <trkpt lat="29.3028885" lon="103.5095187"><ele>820.15</ele><time>2025-12-27T16:26:02.000Z</time></trkpt>
        <trkpt lat="29.3029031" lon="103.5094032"><ele>823.96</ele><time>2025-12-27T16:28:54.000Z</time></trkpt>
        <trkpt lat="29.3029589" lon="103.509319"><ele>830.83</ele><time>2025-12-27T16:36:32.000Z</time></trkpt>
        <trkpt lat="29.302978" lon="103.5092132"><ele>834.91</ele><time>2025-12-27T16:36:44.000Z</time></trkpt>
        <trkpt lat="29.303053" lon="103.50916"><ele>837.46</ele><time>2025-12-27T16:36:58.000Z</time></trkpt>
        <trkpt lat="29.303114" lon="103.5090781"><ele>839.48</ele><time>2025-12-27T16:37:34.000Z</time></trkpt>
        <trkpt lat="29.3031022" lon="103.5089799"><ele>843.58</ele><time>2025-12-27T16:38:12.000Z</time></trkpt>
        <trkpt lat="29.3031243" lon="103.5088841"><ele>850.45</ele><time>2025-12-27T16:38:58.000Z</time></trkpt>
        <trkpt lat="29.3031497" lon="103.5087837"><ele>855.81</ele><time>2025-12-27T16:39:12.000Z</time></trkpt>
        <trkpt lat="29.3031959" lon="103.5086916"><ele>860.4</ele><time>2025-12-27T16:39:34.000Z</time></trkpt>
        <trkpt lat="29.3032013" lon="103.5085902"><ele>864.26</ele><time>2025-12-27T16:39:56.000Z</time></trkpt>
        <trkpt lat="29.3031713" lon="103.5084932"><ele>868.88</ele><time>2025-12-27T16:40:32.000Z</time></trkpt>
        <trkpt lat="29.3031007" lon="103.5084239"><ele>872.55</ele><time>2025-12-27T16:41:00.000Z</time></trkpt>
        <trkpt lat="29.3030211" lon="103.5083613"><ele>876.46</ele><time>2025-12-27T16:41:24.000Z</time></trkpt>
        <trkpt lat="29.3029442" lon="103.5082918"><ele>880.32</ele><time>2025-12-27T16:41:50.000Z</time></trkpt>
        <trkpt lat="29.3029778" lon="103.5082125"><ele>884.24</ele><time>2025-12-27T16:42:44.000Z</time></trkpt>
        <trkpt lat="29.3030644" lon="103.5081515"><ele>886.76</ele><time>2025-12-27T16:43:08.000Z</time></trkpt>
        <trkpt lat="29.3031412" lon="103.5080732"><ele>889.4</ele><time>2025-12-27T16:43:40.000Z</time></trkpt>
        <trkpt lat="29.3032082" lon="103.5079843"><ele>893.68</ele><time>2025-12-27T16:44:58.000Z</time></trkpt>
        <trkpt lat="29.3032723" lon="103.5079072"><ele>900.3</ele><time>2025-12-27T16:45:24.000Z</time></trkpt>
        <trkpt lat="29.3033359" lon="103.5078265"><ele>906.3</ele><time>2025-12-27T16:45:48.000Z</time></trkpt>
        <trkpt lat="29.3033734" lon="103.5077318"><ele>909.89</ele><time>2025-12-27T16:46:18.000Z</time></trkpt>
        <trkpt lat="29.3034086" lon="103.5076354"><ele>913.33</ele><time>2025-12-27T16:46:44.000Z</time></trkpt>
        <trkpt lat="29.3033521" lon="103.507576"><ele>919.19</ele><time>2025-12-27T16:47:32.000Z</time></trkpt>
        <trkpt lat="29.3032913" lon="103.5074869"><ele>929.18</ele><time>2025-12-27T16:48:38.000Z</time></trkpt>
        <trkpt lat="29.3032946" lon="103.5075021"><ele>934.89</ele><time>2025-12-27T16:48:42.000Z</time></trkpt>
        <trkpt lat="29.3033826" lon="103.5074549"><ele>937.69</ele><time>2025-12-27T16:53:18.000Z</time></trkpt>
        <trkpt lat="29.303373" lon="103.5074278"><ele>940.24</ele><time>2025-12-27T16:53:26.000Z</time></trkpt>
        <trkpt lat="29.3034032" lon="103.5073394"><ele>941.16</ele><time>2025-12-27T16:53:42.000Z</time></trkpt>
        <trkpt lat="29.3033908" lon="103.507241"><ele>942.96</ele><time>2025-12-27T16:53:56.000Z</time></trkpt>
        <trkpt lat="29.303422" lon="103.5071406"><ele>945.65</ele><time>2025-12-27T16:54:08.000Z</time></trkpt>
        <trkpt lat="29.3034641" lon="103.5070421"><ele>949.44</ele><time>2025-12-27T16:54:22.000Z</time></trkpt>
        <trkpt lat="29.3035043" lon="103.5069306"><ele>953.39</ele><time>2025-12-27T16:54:38.000Z</time></trkpt>
        <trkpt lat="29.3035236" lon="103.5069027"><ele>955.98</ele><time>2025-12-27T16:54:44.000Z</time></trkpt>
        <trkpt lat="29.3035732" lon="103.5068422"><ele>959.05</ele><time>2025-12-27T16:54:58.000Z</time></trkpt>
        <trkpt lat="29.3036507" lon="103.5067874"><ele>962.11</ele><time>2025-12-27T16:55:10.000Z</time></trkpt>
        <trkpt lat="29.3037281" lon="103.5067207"><ele>963.61</ele><time>2025-12-27T16:55:24.000Z</time></trkpt>
        <trkpt lat="29.3037465" lon="103.506621"><ele>965.97</ele><time>2025-12-27T16:55:44.000Z</time></trkpt>
        <trkpt lat="29.3038177" lon="103.50658"><ele>969.11</ele><time>2025-12-27T16:56:22.000Z</time></trkpt>
        <trkpt lat="29.3038359" lon="103.5064959"><ele>974.02</ele><time>2025-12-27T16:56:56.000Z</time></trkpt>
        <trkpt lat="29.3038237" lon="103.5063957"><ele>979.71</ele><time>2025-12-27T16:57:12.000Z</time></trkpt>
        <trkpt lat="29.3037988" lon="103.5062905"><ele>987.18</ele><time>2025-12-27T16:57:30.000Z</time></trkpt>
        <trkpt lat="29.3037675" lon="103.5061868"><ele>994.43</ele><time>2025-12-27T16:57:50.000Z</time></trkpt>
        <trkpt lat="29.3038144" lon="103.5061102"><ele>999.54</ele><time>2025-12-27T16:58:14.000Z</time></trkpt>
        <trkpt lat="29.3038926" lon="103.5060526"><ele>1005.08</ele><time>2025-12-27T16:58:32.000Z</time></trkpt>
        <trkpt lat="29.3039873" lon="103.506034"><ele>1010.44</ele><time>2025-12-27T16:58:48.000Z</time></trkpt>
        <trkpt lat="29.3040865" lon="103.5060233"><ele>1015.26</ele><time>2025-12-27T16:59:24.000Z</time></trkpt>
        <trkpt lat="29.3041531" lon="103.5060904"><ele>1019.99</ele><time>2025-12-27T17:00:00.000Z</time></trkpt>
        <trkpt lat="29.3041775" lon="103.5061954"><ele>1023.55</ele><time>2025-12-27T17:00:16.000Z</time></trkpt>
        <trkpt lat="29.30415" lon="103.5063033"><ele>1029.05</ele><time>2025-12-27T17:00:28.000Z</time></trkpt>
        <trkpt lat="29.3041638" lon="103.5064122"><ele>1035.64</ele><time>2025-12-27T17:00:40.000Z</time></trkpt>
        <trkpt lat="29.3041756" lon="103.5065207"><ele>1040.85</ele><time>2025-12-27T17:00:58.000Z</time></trkpt>
        <trkpt lat="29.3042034" lon="103.5066288"><ele>1046.28</ele><time>2025-12-27T17:01:18.000Z</time></trkpt>
        <trkpt lat="29.3042603" lon="103.5067124"><ele>1051.88</ele><time>2025-12-27T17:01:32.000Z</time></trkpt>
        <trkpt lat="29.3043386" lon="103.5067882"><ele>1054.24</ele><time>2025-12-27T17:01:44.000Z</time></trkpt>
        <trkpt lat="29.3043716" lon="103.5068899"><ele>1055.14</ele><time>2025-12-27T17:01:58.000Z</time></trkpt>
        <trkpt lat="29.3043922" lon="103.5069965"><ele>1057.23</ele><time>2025-12-27T17:02:10.000Z</time></trkpt>
        <trkpt lat="29.3044193" lon="103.5071108"><ele>1059.7</ele><time>2025-12-27T17:02:22.000Z</time></trkpt>
        <trkpt lat="29.3045035" lon="103.5071646"><ele>1063.22</ele><time>2025-12-27T17:02:32.000Z</time></trkpt>
        <trkpt lat="29.3046124" lon="103.5071693"><ele>1065.46</ele><time>2025-12-27T17:02:42.000Z</time></trkpt>
        <trkpt lat="29.3047113" lon="103.5071359"><ele>1066.82</ele><time>2025-12-27T17:02:50.000Z</time></trkpt>
        <trkpt lat="29.3048176" lon="103.5071497"><ele>1067.77</ele><time>2025-12-27T17:03:00.000Z</time></trkpt>
        <trkpt lat="29.3048795" lon="103.507228"><ele>1069.4</ele><time>2025-12-27T17:03:08.000Z</time></trkpt>
        <trkpt lat="29.3049117" lon="103.5073402"><ele>1071.37</ele><time>2025-12-27T17:03:18.000Z</time></trkpt>
        <trkpt lat="29.3049768" lon="103.5074318"><ele>1074.79</ele><time>2025-12-27T17:03:30.000Z</time></trkpt>
        <trkpt lat="29.3050708" lon="103.5074588"><ele>1077.49</ele><time>2025-12-27T17:03:40.000Z</time></trkpt>
        <trkpt lat="29.3051647" lon="103.5074754"><ele>1078.79</ele><time>2025-12-27T17:03:48.000Z</time></trkpt>
        <trkpt lat="29.3052579" lon="103.5074829"><ele>1079.55</ele><time>2025-12-27T17:03:56.000Z</time></trkpt>
        <trkpt lat="29.3053488" lon="103.5074585"><ele>1079.43</ele><time>2025-12-27T17:04:04.000Z</time></trkpt>
        <trkpt lat="29.3054352" lon="103.5074115"><ele>1079.25</ele><time>2025-12-27T17:04:12.000Z</time></trkpt>
        <trkpt lat="29.3055248" lon="103.5073957"><ele>1078.33</ele><time>2025-12-27T17:04:20.000Z</time></trkpt>
        <trkpt lat="29.3056276" lon="103.5073765"><ele>1077.34</ele><time>2025-12-27T17:04:30.000Z</time></trkpt>
        <trkpt lat="29.3057315" lon="103.5073449"><ele>1077.83</ele><time>2025-12-27T17:04:40.000Z</time></trkpt>
        <trkpt lat="29.3058261" lon="103.5073227"><ele>1078.17</ele><time>2025-12-27T17:04:48.000Z</time></trkpt>
        <trkpt lat="29.30592" lon="103.5073027"><ele>1077.72</ele><time>2025-12-27T17:04:58.000Z</time></trkpt>
        <trkpt lat="29.3060151" lon="103.5072784"><ele>1076.27</ele><time>2025-12-27T17:05:18.000Z</time></trkpt>
        <trkpt lat="29.3060776" lon="103.5072035"><ele>1074.24</ele><time>2025-12-27T17:05:26.000Z</time></trkpt>
        <trkpt lat="29.3061621" lon="103.5071569"><ele>1073.48</ele><time>2025-12-27T17:05:36.000Z</time></trkpt>
        <trkpt lat="29.3062524" lon="103.5071451"><ele>1073.34</ele><time>2025-12-27T17:05:44.000Z</time></trkpt>
        <trkpt lat="29.3063579" lon="103.5071281"><ele>1073.45</ele><time>2025-12-27T17:05:52.000Z</time></trkpt>
        <trkpt lat="29.3064457" lon="103.5070681"><ele>1072.38</ele><time>2025-12-27T17:06:00.000Z</time></trkpt>
        <trkpt lat="29.3065108" lon="103.5069735"><ele>1069.72</ele><time>2025-12-27T17:06:08.000Z</time></trkpt>
        <trkpt lat="29.3065667" lon="103.5068696"><ele>1068.66</ele><time>2025-12-27T17:06:16.000Z</time></trkpt>
        <trkpt lat="29.3066208" lon="103.5067723"><ele>1069.42</ele><time>2025-12-27T17:06:24.000Z</time></trkpt>
        <trkpt lat="29.3066659" lon="103.5066702"><ele>1070.86</ele><time>2025-12-27T17:06:32.000Z</time></trkpt>
        <trkpt lat="29.3067134" lon="103.5065699"><ele>1072.6</ele><time>2025-12-27T17:06:42.000Z</time></trkpt>
        <trkpt lat="29.3067597" lon="103.5064745"><ele>1073.49</ele><time>2025-12-27T17:06:50.000Z</time></trkpt>
        <trkpt lat="29.3068092" lon="103.5063809"><ele>1074.4</ele><time>2025-12-27T17:06:58.000Z</time></trkpt>
        <trkpt lat="29.306854" lon="103.5062842"><ele>1075.39</ele><time>2025-12-27T17:07:06.000Z</time></trkpt>
        <trkpt lat="29.3068836" lon="103.506181"><ele>1076.86</ele><time>2025-12-27T17:07:14.000Z</time></trkpt>
        <trkpt lat="29.3068909" lon="103.5060606"><ele>1077.81</ele><time>2025-12-27T17:07:24.000Z</time></trkpt>
        <trkpt lat="29.3068705" lon="103.5059487"><ele>1079.43</ele><time>2025-12-27T17:07:32.000Z</time></trkpt>
        <trkpt lat="29.3068564" lon="103.5058407"><ele>1081.22</ele><time>2025-12-27T17:07:40.000Z</time></trkpt>
        <trkpt lat="29.3068548" lon="103.5057309"><ele>1082.63</ele><time>2025-12-27T17:07:48.000Z</time></trkpt>
        <trkpt lat="29.3068657" lon="103.5056198"><ele>1084.28</ele><time>2025-12-27T17:07:56.000Z</time></trkpt>
        <trkpt lat="29.3068677" lon="103.505513"><ele>1086.26</ele><time>2025-12-27T17:08:04.000Z</time></trkpt>
        <trkpt lat="29.3068497" lon="103.50541"><ele>1087.84</ele><time>2025-12-27T17:08:12.000Z</time></trkpt>
        <trkpt lat="29.3068309" lon="103.5053031"><ele>1088.06</ele><time>2025-12-27T17:08:20.000Z</time></trkpt>
        <trkpt lat="29.3068182" lon="103.5051954"><ele>1089.21</ele><time>2025-12-27T17:08:28.000Z</time></trkpt>
        <trkpt lat="29.3068141" lon="103.5050845"><ele>1090.68</ele><time>2025-12-27T17:08:36.000Z</time></trkpt>
        <trkpt lat="29.3067821" lon="103.5049784"><ele>1092.48</ele><time>2025-12-27T17:08:44.000Z</time></trkpt>
        <trkpt lat="29.3067113" lon="103.5049117"><ele>1093.5</ele><time>2025-12-27T17:08:52.000Z</time></trkpt>
        <trkpt lat="29.3066731" lon="103.5048895"><ele>1094.18</ele><time>2025-12-27T17:08:56.000Z</time></trkpt>
        <trkpt lat="29.3066462" lon="103.5048122"><ele>1094.78</ele><time>2025-12-27T17:09:11.000Z</time></trkpt>
        <trkpt lat="29.3065931" lon="103.504714"><ele>1095.85</ele><time>2025-12-27T17:09:21.000Z</time></trkpt>
        <trkpt lat="29.3065892" lon="103.5045978"><ele>1097.38</ele><time>2025-12-27T17:09:29.000Z</time></trkpt>
        <trkpt lat="29.3066474" lon="103.5045097"><ele>1098.16</ele><time>2025-12-27T17:09:39.000Z</time></trkpt>
        <trkpt lat="29.3067347" lon="103.5045258"><ele>1098.87</ele><time>2025-12-27T17:09:49.000Z</time></trkpt>
        <trkpt lat="29.3068089" lon="103.5045566"><ele>1099.36</ele><time>2025-12-27T17:09:57.000Z</time></trkpt>
        <trkpt lat="29.3069" lon="103.5046013"><ele>1100.48</ele><time>2025-12-27T17:10:09.000Z</time></trkpt>
        <trkpt lat="29.3069962" lon="103.5046435"><ele>1101.65</ele><time>2025-12-27T17:10:19.000Z</time></trkpt>
        <trkpt lat="29.3070916" lon="103.5046581"><ele>1102.53</ele><time>2025-12-27T17:10:27.000Z</time></trkpt>
        <trkpt lat="29.3071964" lon="103.5046458"><ele>1103.01</ele><time>2025-12-27T17:10:37.000Z</time></trkpt>
        <trkpt lat="29.3072966" lon="103.5046025"><ele>1103.89</ele><time>2025-12-27T17:10:47.000Z</time></trkpt>
        <trkpt lat="29.307376" lon="103.5045138"><ele>1103.38</ele><time>2025-12-27T17:10:57.000Z</time></trkpt>
        <trkpt lat="29.3074112" lon="103.5044845"><ele>1103.23</ele><time>2025-12-27T17:11:01.000Z</time></trkpt>
        <trkpt lat="29.3074699" lon="103.504416"><ele>1103.02</ele><time>2025-12-27T17:11:27.000Z</time></trkpt>
        <trkpt lat="29.307485" lon="103.5043986"><ele>1102.77</ele><time>2025-12-27T17:11:31.000Z</time></trkpt>
        <trkpt lat="29.3075548" lon="103.5043828"><ele>1103.39</ele><time>2025-12-27T17:11:47.000Z</time></trkpt>
        <trkpt lat="29.3076317" lon="103.5043289"><ele>1103.72</ele><time>2025-12-27T17:11:57.000Z</time></trkpt>
        <trkpt lat="29.3077234" lon="103.5042738"><ele>1104.57</ele><time>2025-12-27T17:12:35.000Z</time></trkpt>
        <trkpt lat="29.3078036" lon="103.5042072"><ele>1104.87</ele><time>2025-12-27T17:12:43.000Z</time></trkpt>
        <trkpt lat="29.307879" lon="103.5041384"><ele>1104.71</ele><time>2025-12-27T17:12:51.000Z</time></trkpt>
        <trkpt lat="29.3079511" lon="103.5040678"><ele>1104.38</ele><time>2025-12-27T17:12:59.000Z</time></trkpt>
        <trkpt lat="29.3079899" lon="103.5040388"><ele>1105.08</ele><time>2025-12-27T17:13:03.000Z</time></trkpt>
        <trkpt lat="29.3080435" lon="103.5039786"><ele>1105.41</ele><time>2025-12-27T17:13:15.000Z</time></trkpt>
        <trkpt lat="29.3080712" lon="103.5039502"><ele>1105.38</ele><time>2025-12-27T17:13:19.000Z</time></trkpt>
        <trkpt lat="29.3081088" lon="103.503873"><ele>1105.62</ele><time>2025-12-27T17:13:47.000Z</time></trkpt>
        <trkpt lat="29.3081457" lon="103.503766"><ele>1105.95</ele><time>2025-12-27T17:14:01.000Z</time></trkpt>
        <trkpt lat="29.308188" lon="103.5036525"><ele>1107.12</ele><time>2025-12-27T17:14:11.000Z</time></trkpt>
        <trkpt lat="29.3082389" lon="103.5035577"><ele>1107.33</ele><time>2025-12-27T17:14:21.000Z</time></trkpt>
        <trkpt lat="29.3082558" lon="103.5034542"><ele>1108.61</ele><time>2025-12-27T17:14:31.000Z</time></trkpt>
        <trkpt lat="29.3083056" lon="103.5033471"><ele>1109.65</ele><time>2025-12-27T17:14:49.000Z</time></trkpt>
        <trkpt lat="29.3083352" lon="103.5032419"><ele>1110.87</ele><time>2025-12-27T17:15:01.000Z</time></trkpt>
        <trkpt lat="29.3083759" lon="103.5031395"><ele>1112.26</ele><time>2025-12-27T17:15:15.000Z</time></trkpt>
        <trkpt lat="29.3084372" lon="103.5030582"><ele>1114.33</ele><time>2025-12-27T17:15:39.000Z</time></trkpt>
        <trkpt lat="29.3085161" lon="103.5029763"><ele>1115.01</ele><time>2025-12-27T17:15:49.000Z</time></trkpt>
        <trkpt lat="29.3085934" lon="103.5029021"><ele>1115.36</ele><time>2025-12-27T17:15:57.000Z</time></trkpt>
        <trkpt lat="29.3086665" lon="103.5028339"><ele>1115.86</ele><time>2025-12-27T17:16:05.000Z</time></trkpt>
        <trkpt lat="29.3087288" lon="103.5027504"><ele>1115.37</ele><time>2025-12-27T17:16:13.000Z</time></trkpt>
        <trkpt lat="29.3087728" lon="103.5026434"><ele>1116.99</ele><time>2025-12-27T17:16:23.000Z</time></trkpt>
        <trkpt lat="29.3088202" lon="103.5025307"><ele>1118.08</ele><time>2025-12-27T17:16:33.000Z</time></trkpt>
        <trkpt lat="29.30884" lon="103.5024117"><ele>1118.66</ele><time>2025-12-27T17:16:43.000Z</time></trkpt>
        <trkpt lat="29.3088369" lon="103.5022979"><ele>1118.31</ele><time>2025-12-27T17:16:53.000Z</time></trkpt>
        <trkpt lat="29.3087975" lon="103.5021959"><ele>1118.58</ele><time>2025-12-27T17:17:05.000Z</time></trkpt>
        <trkpt lat="29.3087201" lon="103.5021238"><ele>1119.7</ele><time>2025-12-27T17:17:19.000Z</time></trkpt>
        <trkpt lat="29.308647" lon="103.5020396"><ele>1120.76</ele><time>2025-12-27T17:17:29.000Z</time></trkpt>
        <trkpt lat="29.3086085" lon="103.5019867"><ele>1122.57</ele><time>2025-12-27T17:17:35.000Z</time></trkpt>
        <trkpt lat="29.3085553" lon="103.5019189"><ele>1124.07</ele><time>2025-12-27T17:17:58.000Z</time></trkpt>
        <trkpt lat="29.3085815" lon="103.5018344"><ele>1123.38</ele><time>2025-12-27T17:18:06.000Z</time></trkpt>
        <trkpt lat="29.3086339" lon="103.5017278"><ele>1124.64</ele><time>2025-12-27T17:18:16.000Z</time></trkpt>
        <trkpt lat="29.3087011" lon="103.5016235"><ele>1126.32</ele><time>2025-12-27T17:18:26.000Z</time></trkpt>
        <trkpt lat="29.3087558" lon="103.5015223"><ele>1126.87</ele><time>2025-12-27T17:18:34.000Z</time></trkpt>
        <trkpt lat="29.3087974" lon="103.5014245"><ele>1128.51</ele><time>2025-12-27T17:18:42.000Z</time></trkpt>
        <trkpt lat="29.3088404" lon="103.5013264"><ele>1130.31</ele><time>2025-12-27T17:18:52.000Z</time></trkpt>
        <trkpt lat="29.3088728" lon="103.5012249"><ele>1132</ele><time>2025-12-27T17:19:02.000Z</time></trkpt>
        <trkpt lat="29.3088722" lon="103.5011168"><ele>1132.5</ele><time>2025-12-27T17:19:12.000Z</time></trkpt>
        <trkpt lat="29.3088287" lon="103.5010129"><ele>1132.96</ele><time>2025-12-27T17:19:22.000Z</time></trkpt>
        <trkpt lat="29.3087699" lon="103.5009138"><ele>1132.74</ele><time>2025-12-27T17:19:32.000Z</time></trkpt>
        <trkpt lat="29.3087129" lon="103.5008049"><ele>1131.55</ele><time>2025-12-27T17:19:42.000Z</time></trkpt>
        <trkpt lat="29.3087013" lon="103.500687"><ele>1130.94</ele><time>2025-12-27T17:19:52.000Z</time></trkpt>
        <trkpt lat="29.3087723" lon="103.5006466"><ele>1130.21</ele><time>2025-12-27T17:20:04.000Z</time></trkpt>
        <trkpt lat="29.308863" lon="103.5006775"><ele>1130.56</ele><time>2025-12-27T17:20:12.000Z</time></trkpt>
        <trkpt lat="29.3089698" lon="103.500728"><ele>1131.63</ele><time>2025-12-27T17:20:22.000Z</time></trkpt>
        <trkpt lat="29.3090413" lon="103.5007149"><ele>1132.94</ele><time>2025-12-27T17:20:30.000Z</time></trkpt>
        <trkpt lat="29.3090322" lon="103.5006271"><ele>1133.83</ele><time>2025-12-27T17:21:02.000Z</time></trkpt>
        <trkpt lat="29.3089586" lon="103.500529"><ele>1134.9</ele><time>2025-12-27T17:21:12.000Z</time></trkpt>
        <trkpt lat="29.3088945" lon="103.5004141"><ele>1136.11</ele><time>2025-12-27T17:21:22.000Z</time></trkpt>
        <trkpt lat="29.3088537" lon="103.5002883"><ele>1135.55</ele><time>2025-12-27T17:21:32.000Z</time></trkpt>
        <trkpt lat="29.308837" lon="103.5002216"><ele>1136.1</ele><time>2025-12-27T17:21:38.000Z</time></trkpt>
        <trkpt lat="29.3088435" lon="103.5001248"><ele>1136.65</ele><time>2025-12-27T17:21:54.000Z</time></trkpt>
        <trkpt lat="29.3088865" lon="103.5000273"><ele>1137.38</ele><time>2025-12-27T17:22:04.000Z</time></trkpt>
        <trkpt lat="29.3089294" lon="103.4999212"><ele>1138.49</ele><time>2025-12-27T17:22:14.000Z</time></trkpt>
        <trkpt lat="29.3089843" lon="103.4998268"><ele>1141.49</ele><time>2025-12-27T17:22:24.000Z</time></trkpt>
        <trkpt lat="29.309002" lon="103.4998273"><ele>1144.57</ele><time>2025-12-27T17:22:34.000Z</time></trkpt>
        <trkpt lat="29.3090322" lon="103.4997533"><ele>1145.99</ele><time>2025-12-27T17:22:56.000Z</time></trkpt>
        <trkpt lat="29.3090936" lon="103.4996628"><ele>1145.63</ele><time>2025-12-27T17:23:06.000Z</time></trkpt>
        <trkpt lat="29.3091742" lon="103.499573"><ele>1145.48</ele><time>2025-12-27T17:23:16.000Z</time></trkpt>
        <trkpt lat="29.3092302" lon="103.4994719"><ele>1144.89</ele><time>2025-12-27T17:23:26.000Z</time></trkpt>
        <trkpt lat="29.3092655" lon="103.4993639"><ele>1144.56</ele><time>2025-12-27T17:23:36.000Z</time></trkpt>
        <trkpt lat="29.3091822" lon="103.4992876"><ele>1145.2</ele><time>2025-12-27T17:24:38.000Z</time></trkpt>
        <trkpt lat="29.309176" lon="103.4991813"><ele>1144.41</ele><time>2025-12-27T17:24:50.000Z</time></trkpt>
        <trkpt lat="29.3092055" lon="103.4990803"><ele>1143.72</ele><time>2025-12-27T17:24:58.000Z</time></trkpt>
        <trkpt lat="29.30922" lon="103.4990573"><ele>1143.81</ele><time>2025-12-27T17:25:02.000Z</time></trkpt>
        <trkpt lat="29.3092738" lon="103.499176"><ele>1145.08</ele><time>2025-12-27T17:28:32.000Z</time></trkpt>
        <trkpt lat="29.309303" lon="103.4990604"><ele>1144.56</ele><time>2025-12-27T17:29:12.000Z</time></trkpt>
        <trkpt lat="29.3093167" lon="103.4990469"><ele>1144.09</ele><time>2025-12-27T17:29:22.000Z</time></trkpt>
        <trkpt lat="29.3093827" lon="103.4990812"><ele>1144.56</ele><time>2025-12-27T17:29:32.000Z</time></trkpt>
        <trkpt lat="29.3094585" lon="103.4991579"><ele>1144.5</ele><time>2025-12-27T17:29:42.000Z</time></trkpt>
        <trkpt lat="29.309557" lon="103.4992059"><ele>1144.12</ele><time>2025-12-27T17:29:54.000Z</time></trkpt>
        <trkpt lat="29.3096599" lon="103.4992132"><ele>1144.53</ele><time>2025-12-27T17:30:06.000Z</time></trkpt>
        <trkpt lat="29.309752" lon="103.4991806"><ele>1145.94</ele><time>2025-12-27T17:30:44.000Z</time></trkpt>
        <trkpt lat="29.3098179" lon="103.4991049"><ele>1145.26</ele><time>2025-12-27T17:30:54.000Z</time></trkpt>
        <trkpt lat="29.3099074" lon="103.4990682"><ele>1144.4</ele><time>2025-12-27T17:31:18.000Z</time></trkpt>
        <trkpt lat="29.3099755" lon="103.4989907"><ele>1145.64</ele><time>2025-12-27T17:31:32.000Z</time></trkpt>
        <trkpt lat="29.3100598" lon="103.4989844"><ele>1147.05</ele><time>2025-12-27T17:31:44.000Z</time></trkpt>
        <trkpt lat="29.3101455" lon="103.4990409"><ele>1148.11</ele><time>2025-12-27T17:32:02.000Z</time></trkpt>
        <trkpt lat="29.3102131" lon="103.4991265"><ele>1151.69</ele><time>2025-12-27T17:32:16.000Z</time></trkpt>
        <trkpt lat="29.3102901" lon="103.4992003"><ele>1156.98</ele><time>2025-12-27T17:32:36.000Z</time></trkpt>
        <trkpt lat="29.3103708" lon="103.4992733"><ele>1162.55</ele><time>2025-12-27T17:32:58.000Z</time></trkpt>
        <trkpt lat="29.3104596" lon="103.4993119"><ele>1168.04</ele><time>2025-12-27T17:33:16.000Z</time></trkpt>
        <trkpt lat="29.3105535" lon="103.4993185"><ele>1172.56</ele><time>2025-12-27T17:33:48.000Z</time></trkpt>
        <trkpt lat="29.3106468" lon="103.4992811"><ele>1176.73</ele><time>2025-12-27T17:34:02.000Z</time></trkpt>
        <trkpt lat="29.3107406" lon="103.4992412"><ele>1180.35</ele><time>2025-12-27T17:34:12.000Z</time></trkpt>
        <trkpt lat="29.310827" lon="103.499187"><ele>1182.48</ele><time>2025-12-27T17:34:24.000Z</time></trkpt>
        <trkpt lat="29.3109239" lon="103.4991619"><ele>1186.96</ele><time>2025-12-27T17:34:38.000Z</time></trkpt>
        <trkpt lat="29.3110178" lon="103.4991083"><ele>1189.39</ele><time>2025-12-27T17:34:48.000Z</time></trkpt>
        <trkpt lat="29.3110902" lon="103.4990486"><ele>1190.41</ele><time>2025-12-27T17:34:58.000Z</time></trkpt>
        <trkpt lat="29.3111606" lon="103.4989708"><ele>1189.89</ele><time>2025-12-27T17:35:16.000Z</time></trkpt>
        <trkpt lat="29.3112024" lon="103.4988718"><ele>1188.77</ele><time>2025-12-27T17:35:26.000Z</time></trkpt>
        <trkpt lat="29.311244" lon="103.4987595"><ele>1188.78</ele><time>2025-12-27T17:35:36.000Z</time></trkpt>
        <trkpt lat="29.3112797" lon="103.4986561"><ele>1189.27</ele><time>2025-12-27T17:35:44.000Z</time></trkpt>
        <trkpt lat="29.3113018" lon="103.4986226"><ele>1190.43</ele><time>2025-12-27T17:35:50.000Z</time></trkpt>
        <trkpt lat="29.3113647" lon="103.4985725"><ele>1192.41</ele><time>2025-12-27T17:36:28.000Z</time></trkpt>
        <trkpt lat="29.3114563" lon="103.4985402"><ele>1193.06</ele><time>2025-12-27T17:36:42.000Z</time></trkpt>
        <trkpt lat="29.3115591" lon="103.4985403"><ele>1193.99</ele><time>2025-12-27T17:36:56.000Z</time></trkpt>
        <trkpt lat="29.3116519" lon="103.4985873"><ele>1196.64</ele><time>2025-12-27T17:37:24.000Z</time></trkpt>
        <trkpt lat="29.3117489" lon="103.4986403"><ele>1197.62</ele><time>2025-12-27T17:37:44.000Z</time></trkpt>
        <trkpt lat="29.3118422" lon="103.4986967"><ele>1198.27</ele><time>2025-12-27T17:37:56.000Z</time></trkpt>
        <trkpt lat="29.3119359" lon="103.4987417"><ele>1198.87</ele><time>2025-12-27T17:38:06.000Z</time></trkpt>
        <trkpt lat="29.3120294" lon="103.4987183"><ele>1201.04</ele><time>2025-12-27T17:38:16.000Z</time></trkpt>
        <trkpt lat="29.312071" lon="103.4986915"><ele>1201.23</ele><time>2025-12-27T17:38:22.000Z</time></trkpt>
        <trkpt lat="29.3121448" lon="103.4986573"><ele>1201.31</ele><time>2025-12-27T17:38:40.000Z</time></trkpt>
        <trkpt lat="29.3122405" lon="103.4986285"><ele>1201.68</ele><time>2025-12-27T17:38:54.000Z</time></trkpt>
        <trkpt lat="29.3123313" lon="103.4985963"><ele>1202.26</ele><time>2025-12-27T17:39:04.000Z</time></trkpt>
        <trkpt lat="29.3123954" lon="103.4985224"><ele>1203.18</ele><time>2025-12-27T17:39:16.000Z</time></trkpt>
        <trkpt lat="29.3124849" lon="103.4985095"><ele>1202.92</ele><time>2025-12-27T17:39:50.000Z</time></trkpt>
        <trkpt lat="29.312523" lon="103.4985102"><ele>1203.55</ele><time>2025-12-27T17:39:56.000Z</time></trkpt>
        <trkpt lat="29.3125599" lon="103.4985894"><ele>1202.76</ele><time>2025-12-27T17:40:18.000Z</time></trkpt>
        <trkpt lat="29.3126452" lon="103.4986153"><ele>1204.77</ele><time>2025-12-27T17:40:54.000Z</time></trkpt>
        <trkpt lat="29.3127439" lon="103.4986425"><ele>1204.31</ele><time>2025-12-27T17:41:04.000Z</time></trkpt>
        <trkpt lat="29.3128406" lon="103.4986452"><ele>1204.82</ele><time>2025-12-27T17:41:46.000Z</time></trkpt>
        <trkpt lat="29.3129349" lon="103.4986682"><ele>1206.17</ele><time>2025-12-27T17:41:58.000Z</time></trkpt>
        <trkpt lat="29.3130156" lon="103.4986298"><ele>1203.22</ele><time>2025-12-27T17:42:12.000Z</time></trkpt>
        <trkpt lat="29.3131078" lon="103.4986196"><ele>1203.99</ele><time>2025-12-27T17:42:28.000Z</time></trkpt>
        <trkpt lat="29.3131733" lon="103.4985547"><ele>1206.2</ele><time>2025-12-27T17:42:46.000Z</time></trkpt>
        <trkpt lat="29.3132601" lon="103.4985315"><ele>1208.57</ele><time>2025-12-27T17:42:56.000Z</time></trkpt>
        <trkpt lat="29.3133534" lon="103.4985171"><ele>1210.8</ele><time>2025-12-27T17:44:40.000Z</time></trkpt>
        <trkpt lat="29.3134346" lon="103.4984715"><ele>1213.01</ele><time>2025-12-27T17:44:48.000Z</time></trkpt>
        <trkpt lat="29.3135018" lon="103.4985281"><ele>1214.35</ele><time>2025-12-27T17:44:58.000Z</time></trkpt>
        <trkpt lat="29.3135922" lon="103.4985248"><ele>1215.08</ele><time>2025-12-27T17:45:14.000Z</time></trkpt>
        <trkpt lat="29.3136819" lon="103.4984796"><ele>1217.88</ele><time>2025-12-27T17:45:38.000Z</time></trkpt>
        <trkpt lat="29.3137433" lon="103.4983796"><ele>1219.33</ele><time>2025-12-27T17:48:12.000Z</time></trkpt>
        <trkpt lat="29.3138305" lon="103.4983381"><ele>1223.72</ele><time>2025-12-27T17:48:30.000Z</time></trkpt>
        <trkpt lat="29.3139213" lon="103.4983402"><ele>1227.08</ele><time>2025-12-27T17:48:56.000Z</time></trkpt>
        <trkpt lat="29.3140196" lon="103.4983222"><ele>1233.22</ele><time>2025-12-27T17:49:14.000Z</time></trkpt>
        <trkpt lat="29.3140815" lon="103.4982387"><ele>1239.26</ele><time>2025-12-27T17:50:18.000Z</time></trkpt>
        <trkpt lat="29.3141368" lon="103.4981517"><ele>1242.59</ele><time>2025-12-27T17:52:04.000Z</time></trkpt>
        <trkpt lat="29.3141594" lon="103.4980491"><ele>1251.25</ele><time>2025-12-27T17:52:22.000Z</time></trkpt>
        <trkpt lat="29.3141727" lon="103.4979431"><ele>1257.62</ele><time>2025-12-27T17:52:48.000Z</time></trkpt>
        <trkpt lat="29.3142583" lon="103.4979134"><ele>1263.54</ele><time>2025-12-27T17:53:56.000Z</time></trkpt>
        <trkpt lat="29.3142631" lon="103.497805"><ele>1268.12</ele><time>2025-12-27T17:55:38.000Z</time></trkpt>
        <trkpt lat="29.314246" lon="103.4977003"><ele>1273.83</ele><time>2025-12-27T17:56:00.000Z</time></trkpt>
        <trkpt lat="29.3141893" lon="103.4976188"><ele>1279.32</ele><time>2025-12-27T17:56:26.000Z</time></trkpt>
        <trkpt lat="29.3141548" lon="103.4975237"><ele>1285.06</ele><time>2025-12-27T17:56:48.000Z</time></trkpt>
        <trkpt lat="29.3141968" lon="103.4974441"><ele>1290.05</ele><time>2025-12-27T17:57:20.000Z</time></trkpt>
        <trkpt lat="29.3142468" lon="103.497353"><ele>1294.65</ele><time>2025-12-27T17:57:56.000Z</time></trkpt>
        <trkpt lat="29.3142635" lon="103.4973249"><ele>1296.32</ele><time>2025-12-27T17:58:02.000Z</time></trkpt>
        <trkpt lat="29.3143379" lon="103.4972899"><ele>1298.82</ele><time>2025-12-27T17:59:18.000Z</time></trkpt>
        <trkpt lat="29.3144293" lon="103.4973057"><ele>1304.1</ele><time>2025-12-27T17:59:40.000Z</time></trkpt>
        <trkpt lat="29.3145281" lon="103.4973276"><ele>1310.29</ele><time>2025-12-27T18:00:00.000Z</time></trkpt>
        <trkpt lat="29.3145594" lon="103.4973365"><ele>1315.14</ele><time>2025-12-27T18:00:04.000Z</time></trkpt>
        <trkpt lat="29.3146287" lon="103.4973572"><ele>1317.72</ele><time>2025-12-27T18:00:28.000Z</time></trkpt>
        <trkpt lat="29.3147145" lon="103.4973435"><ele>1321.59</ele><time>2025-12-27T18:01:18.000Z</time></trkpt>
        <trkpt lat="29.3147897" lon="103.4973889"><ele>1326.22</ele><time>2025-12-27T18:01:46.000Z</time></trkpt>
        <trkpt lat="29.3148449" lon="103.4973102"><ele>1329.96</ele><time>2025-12-27T18:05:40.000Z</time></trkpt>
        <trkpt lat="29.3149262" lon="103.4972605"><ele>1335.83</ele><time>2025-12-27T18:07:10.000Z</time></trkpt>
        <trkpt lat="29.3150055" lon="103.4971996"><ele>1340.68</ele><time>2025-12-27T18:08:38.000Z</time></trkpt>
        <trkpt lat="29.3150869" lon="103.4972632"><ele>1346.58</ele><time>2025-12-27T18:08:58.000Z</time></trkpt>
        <trkpt lat="29.3151085" lon="103.4971784"><ele>1349.34</ele><time>2025-12-27T18:09:14.000Z</time></trkpt>
        <trkpt lat="29.3151533" lon="103.497049"><ele>1350.24</ele><time>2025-12-27T18:10:30.000Z</time></trkpt>
        <trkpt lat="29.3151404" lon="103.4970631"><ele>1353.25</ele><time>2025-12-27T18:10:34.000Z</time></trkpt>
        <trkpt lat="29.3152132" lon="103.4970877"><ele>1355.18</ele><time>2025-12-27T18:11:14.000Z</time></trkpt>
        <trkpt lat="29.3152165" lon="103.4970788"><ele>1358.93</ele><time>2025-12-27T18:11:24.000Z</time></trkpt>
        <trkpt lat="29.3152852" lon="103.4970468"><ele>1363.54</ele><time>2025-12-27T18:12:10.000Z</time></trkpt>
        <trkpt lat="29.3153752" lon="103.4970589"><ele>1364.89</ele><time>2025-12-27T18:13:08.000Z</time></trkpt>
        <trkpt lat="29.3154658" lon="103.4970047"><ele>1368.48</ele><time>2025-12-27T18:14:36.000Z</time></trkpt>
        <trkpt lat="29.3154675" lon="103.4970031"><ele>1369.29</ele><time>2025-12-27T18:14:38.000Z</time></trkpt>
        <trkpt lat="29.3155739" lon="103.4969869"><ele>1369.92</ele><time>2025-12-27T18:16:34.000Z</time></trkpt>
        <trkpt lat="29.315577" lon="103.4969354"><ele>1372.35</ele><time>2025-12-27T18:16:42.000Z</time></trkpt>
        <trkpt lat="29.3156282" lon="103.4968371"><ele>1375.19</ele><time>2025-12-27T18:18:24.000Z</time></trkpt>
        <trkpt lat="29.3156323" lon="103.4968327"><ele>1380.92</ele><time>2025-12-27T18:18:28.000Z</time></trkpt>
        <trkpt lat="29.315674" lon="103.4969129"><ele>1384.93</ele><time>2025-12-27T18:19:28.000Z</time></trkpt>
        <trkpt lat="29.3157673" lon="103.4969508"><ele>1387.51</ele><time>2025-12-27T18:20:08.000Z</time></trkpt>
        <trkpt lat="29.3157917" lon="103.4969549"><ele>1389.39</ele><time>2025-12-27T18:20:10.000Z</time></trkpt>
        <trkpt lat="29.3158629" lon="103.4969304"><ele>1390.45</ele><time>2025-12-27T18:20:26.000Z</time></trkpt>
        <trkpt lat="29.3158819" lon="103.4969185"><ele>1391.28</ele><time>2025-12-27T18:20:28.000Z</time></trkpt>
        <trkpt lat="29.3159493" lon="103.4968522"><ele>1391.81</ele><time>2025-12-27T18:21:58.000Z</time></trkpt>
        <trkpt lat="29.3160346" lon="103.4968069"><ele>1395.7</ele><time>2025-12-27T18:22:10.000Z</time></trkpt>
        <trkpt lat="29.3161241" lon="103.4968467"><ele>1399.12</ele><time>2025-12-27T18:22:20.000Z</time></trkpt>
        <trkpt lat="29.3162156" lon="103.4968973"><ele>1399.1</ele><time>2025-12-27T18:22:42.000Z</time></trkpt>
        <trkpt lat="29.3162302" lon="103.4969162"><ele>1399.6</ele><time>2025-12-27T18:22:44.000Z</time></trkpt>
        <trkpt lat="29.3162278" lon="103.4968416"><ele>1399.81</ele><time>2025-12-27T18:23:32.000Z</time></trkpt>
        <trkpt lat="29.3162905" lon="103.496799"><ele>1402.18</ele><time>2025-12-27T18:24:26.000Z</time></trkpt>
        <trkpt lat="29.3163355" lon="103.4966915"><ele>1404.14</ele><time>2025-12-27T18:25:44.000Z</time></trkpt>
        <trkpt lat="29.3163982" lon="103.4966137"><ele>1409.02</ele><time>2025-12-27T18:26:12.000Z</time></trkpt>
        <trkpt lat="29.316486" lon="103.4965859"><ele>1410.85</ele><time>2025-12-27T18:26:54.000Z</time></trkpt>
        <trkpt lat="29.3165712" lon="103.4966244"><ele>1413.39</ele><time>2025-12-27T18:27:44.000Z</time></trkpt>
        <trkpt lat="29.3166672" lon="103.4966439"><ele>1416.38</ele><time>2025-12-27T18:30:06.000Z</time></trkpt>
        <trkpt lat="29.3166997" lon="103.4965457"><ele>1419.73</ele><time>2025-12-27T18:31:54.000Z</time></trkpt>
        <trkpt lat="29.3167418" lon="103.4964504"><ele>1426.34</ele><time>2025-12-27T18:33:18.000Z</time></trkpt>
        <trkpt lat="29.3168326" lon="103.4964104"><ele>1434.49</ele><time>2025-12-27T18:34:36.000Z</time></trkpt>
        <trkpt lat="29.3168241" lon="103.4963022"><ele>1441.72</ele><time>2025-12-27T18:35:46.000Z</time></trkpt>
        <trkpt lat="29.3169159" lon="103.4962939"><ele>1448.37</ele><time>2025-12-27T18:37:04.000Z</time></trkpt>
        <trkpt lat="29.3169277" lon="103.4961909"><ele>1455.79</ele><time>2025-12-27T18:38:08.000Z</time></trkpt>
        <trkpt lat="29.3169514" lon="103.4962011"><ele>1465.53</ele><time>2025-12-27T18:38:12.000Z</time></trkpt>
        <trkpt lat="29.3169821" lon="103.4962995"><ele>1470.69</ele><time>2025-12-27T18:39:38.000Z</time></trkpt>
        <trkpt lat="29.3170734" lon="103.4962638"><ele>1477.19</ele><time>2025-12-27T18:41:16.000Z</time></trkpt>
        <trkpt lat="29.3171719" lon="103.4962811"><ele>1481.82</ele><time>2025-12-27T18:42:16.000Z</time></trkpt>
        <trkpt lat="29.3172547" lon="103.4963337"><ele>1484.37</ele><time>2025-12-27T18:44:56.000Z</time></trkpt>
        <trkpt lat="29.3172743" lon="103.4963426"><ele>1488.76</ele><time>2025-12-27T18:45:20.000Z</time></trkpt>
        <trkpt lat="29.3173177" lon="103.496266"><ele>1497.36</ele><time>2025-12-27T18:45:42.000Z</time></trkpt>
        <trkpt lat="29.3173996" lon="103.4962424"><ele>1499.59</ele><time>2025-12-27T18:46:32.000Z</time></trkpt>
        <trkpt lat="29.3174732" lon="103.4961684"><ele>1503.58</ele><time>2025-12-27T18:49:50.000Z</time></trkpt>
        <trkpt lat="29.317552" lon="103.4961158"><ele>1505.24</ele><time>2025-12-27T18:53:10.000Z</time></trkpt>
        <trkpt lat="29.3175987" lon="103.4962047"><ele>1505.36</ele><time>2025-12-27T18:53:20.000Z</time></trkpt>
        <trkpt lat="29.3176466" lon="103.4960998"><ele>1506.02</ele><time>2025-12-27T18:55:36.000Z</time></trkpt>
        <trkpt lat="29.3176938" lon="103.4961378"><ele>1511.4</ele><time>2025-12-27T18:55:42.000Z</time></trkpt>
        <trkpt lat="29.3177492" lon="103.4960504"><ele>1515.08</ele><time>2025-12-27T18:57:38.000Z</time></trkpt>
        <trkpt lat="29.3178357" lon="103.4960838"><ele>1523.14</ele><time>2025-12-27T18:58:42.000Z</time></trkpt>
        <trkpt lat="29.3179086" lon="103.4961558"><ele>1531.4</ele><time>2025-12-27T18:59:56.000Z</time></trkpt>
        <trkpt lat="29.3179926" lon="103.4961168"><ele>1538.08</ele><time>2025-12-27T19:00:38.000Z</time></trkpt>
        <trkpt lat="29.3180808" lon="103.4961437"><ele>1540.55</ele><time>2025-12-27T19:02:42.000Z</time></trkpt>
        <trkpt lat="29.3181775" lon="103.4961635"><ele>1544.86</ele><time>2025-12-27T19:04:06.000Z</time></trkpt>
        <trkpt lat="29.3181795" lon="103.4961654"><ele>1551.8</ele><time>2025-12-27T19:04:08.000Z</time></trkpt>
        <trkpt lat="29.3182371" lon="103.4960748"><ele>1555.71</ele><time>2025-12-27T19:05:38.000Z</time></trkpt>
        <trkpt lat="29.318311" lon="103.4961529"><ele>1559.57</ele><time>2025-12-27T19:06:22.000Z</time></trkpt>
        <trkpt lat="29.3183889" lon="103.4960944"><ele>1563.21</ele><time>2025-12-27T19:08:22.000Z</time></trkpt>
        <trkpt lat="29.3184081" lon="103.4961996"><ele>1567.35</ele><time>2025-12-27T19:08:44.000Z</time></trkpt>
        <trkpt lat="29.3184649" lon="103.4961526"><ele>1573.32</ele><time>2025-12-27T19:09:06.000Z</time></trkpt>
        <trkpt lat="29.3185296" lon="103.4961936"><ele>1575.44</ele><time>2025-12-27T19:10:02.000Z</time></trkpt>
        <trkpt lat="29.3186399" lon="103.4962143"><ele>1579.59</ele><time>2025-12-27T19:14:14.000Z</time></trkpt>
        <trkpt lat="29.3186577" lon="103.496194"><ele>1582.97</ele><time>2025-12-27T19:14:18.000Z</time></trkpt>
        <trkpt lat="29.3187502" lon="103.4962134"><ele>1584.06</ele><time>2025-12-27T19:16:30.000Z</time></trkpt>
        <trkpt lat="29.3188373" lon="103.4962766"><ele>1589.84</ele><time>2025-12-27T19:17:38.000Z</time></trkpt>
        <trkpt lat="29.3187934" lon="103.4962802"><ele>1595.94</ele><time>2025-12-27T19:17:46.000Z</time></trkpt>
        <trkpt lat="29.3188559" lon="103.496237"><ele>1601.88</ele><time>2025-12-27T19:18:30.000Z</time></trkpt>
        <trkpt lat="29.3189471" lon="103.496242"><ele>1605.15</ele><time>2025-12-27T19:19:28.000Z</time></trkpt>
        <trkpt lat="29.319043" lon="103.4962765"><ele>1606.86</ele><time>2025-12-27T19:20:22.000Z</time></trkpt>
        <trkpt lat="29.3190875" lon="103.4962732"><ele>1612.08</ele><time>2025-12-27T19:20:26.000Z</time></trkpt>
        <trkpt lat="29.3191489" lon="103.4962231"><ele>1614.51</ele><time>2025-12-27T19:20:58.000Z</time></trkpt>
        <trkpt lat="29.3192121" lon="103.4962632"><ele>1615.28</ele><time>2025-12-27T19:21:44.000Z</time></trkpt>
        <trkpt lat="29.319233" lon="103.4963672"><ele>1616.79</ele><time>2025-12-27T19:22:44.000Z</time></trkpt>
        <trkpt lat="29.3193148" lon="103.4963589"><ele>1621.44</ele><time>2025-12-27T19:23:54.000Z</time></trkpt>
        <trkpt lat="29.319403" lon="103.4963996"><ele>1625.6</ele><time>2025-12-27T19:24:06.000Z</time></trkpt>
        <trkpt lat="29.3194864" lon="103.4963648"><ele>1628.7</ele><time>2025-12-27T19:24:30.000Z</time></trkpt>
        <trkpt lat="29.3195799" lon="103.4963741"><ele>1630.59</ele><time>2025-12-27T19:24:50.000Z</time></trkpt>
        <trkpt lat="29.3196721" lon="103.496388"><ele>1632.72</ele><time>2025-12-27T19:25:20.000Z</time></trkpt>
        <trkpt lat="29.3197624" lon="103.4964356"><ele>1634.6</ele><time>2025-12-27T19:25:38.000Z</time></trkpt>
        <trkpt lat="29.3198472" lon="103.4964171"><ele>1637.11</ele><time>2025-12-27T19:25:48.000Z</time></trkpt>
        <trkpt lat="29.3198598" lon="103.496408"><ele>1638.53</ele><time>2025-12-27T19:25:50.000Z</time></trkpt>
        <trkpt lat="29.3199151" lon="103.4963608"><ele>1639.24</ele><time>2025-12-27T19:26:12.000Z</time></trkpt>
        <trkpt lat="29.3199969" lon="103.4963608"><ele>1638.59</ele><time>2025-12-27T19:26:34.000Z</time></trkpt>
        <trkpt lat="29.3200842" lon="103.4964033"><ele>1638.72</ele><time>2025-12-27T19:26:48.000Z</time></trkpt>
        <trkpt lat="29.3201815" lon="103.4964466"><ele>1637.24</ele><time>2025-12-27T19:27:00.000Z</time></trkpt>
        <trkpt lat="29.320282" lon="103.496461"><ele>1636.53</ele><time>2025-12-27T19:27:10.000Z</time></trkpt>
        <trkpt lat="29.3203725" lon="103.4964928"><ele>1635.64</ele><time>2025-12-27T19:27:22.000Z</time></trkpt>
        <trkpt lat="29.3204674" lon="103.4965256"><ele>1634.69</ele><time>2025-12-27T19:27:34.000Z</time></trkpt>
        <trkpt lat="29.3205427" lon="103.4965914"><ele>1636.65</ele><time>2025-12-27T19:27:46.000Z</time></trkpt>
        <trkpt lat="29.3206151" lon="103.4966644"><ele>1637.68</ele><time>2025-12-27T19:28:02.000Z</time></trkpt>
        <trkpt lat="29.3206924" lon="103.4967221"><ele>1639.36</ele><time>2025-12-27T19:28:36.000Z</time></trkpt>
        <trkpt lat="29.3207857" lon="103.4967431"><ele>1641.2</ele><time>2025-12-27T19:28:54.000Z</time></trkpt>
        <trkpt lat="29.3208419" lon="103.4968029"><ele>1642.57</ele><time>2025-12-27T19:29:12.000Z</time></trkpt>
        <trkpt lat="29.3209188" lon="103.4968522"><ele>1645.63</ele><time>2025-12-27T19:29:56.000Z</time></trkpt>
        <trkpt lat="29.320964" lon="103.4969392"><ele>1648.96</ele><time>2025-12-27T19:30:32.000Z</time></trkpt>
        <trkpt lat="29.3210143" lon="103.4970394"><ele>1650.35</ele><time>2025-12-27T19:30:58.000Z</time></trkpt>
        <trkpt lat="29.3210737" lon="103.4971345"><ele>1651.4</ele><time>2025-12-27T19:31:18.000Z</time></trkpt>
        <trkpt lat="29.3211563" lon="103.4971735"><ele>1652.72</ele><time>2025-12-27T19:31:58.000Z</time></trkpt>
        <trkpt lat="29.3212298" lon="103.4972301"><ele>1657.15</ele><time>2025-12-27T19:33:16.000Z</time></trkpt>
        <trkpt lat="29.3213255" lon="103.4972391"><ele>1662.14</ele><time>2025-12-27T19:33:40.000Z</time></trkpt>
        <trkpt lat="29.321419" lon="103.4972313"><ele>1665.7</ele><time>2025-12-27T19:34:00.000Z</time></trkpt>
        <trkpt lat="29.3215115" lon="103.4972384"><ele>1670.07</ele><time>2025-12-27T19:34:50.000Z</time></trkpt>
        <trkpt lat="29.3216037" lon="103.4972415"><ele>1674.52</ele><time>2025-12-27T19:35:02.000Z</time></trkpt>
        <trkpt lat="29.3217009" lon="103.4972184"><ele>1675.05</ele><time>2025-12-27T19:35:36.000Z</time></trkpt>
        <trkpt lat="29.3217983" lon="103.4971989"><ele>1672.24</ele><time>2025-12-27T19:35:50.000Z</time></trkpt>
        <trkpt lat="29.3218888" lon="103.4972142"><ele>1668.45</ele><time>2025-12-27T19:36:00.000Z</time></trkpt>
        <trkpt lat="29.321945" lon="103.4972049"><ele>1666.45</ele><time>2025-12-27T19:36:08.000Z</time></trkpt>
        <trkpt lat="29.3220195" lon="103.4972403"><ele>1665.57</ele><time>2025-12-27T19:36:30.000Z</time></trkpt>
        <trkpt lat="29.3221002" lon="103.4972894"><ele>1664.13</ele><time>2025-12-27T19:36:50.000Z</time></trkpt>
        <trkpt lat="29.32216" lon="103.49737"><ele>1663.41</ele><time>2025-12-27T19:37:04.000Z</time></trkpt>
        <trkpt lat="29.3222179" lon="103.4974587"><ele>1661.92</ele><time>2025-12-27T19:37:24.000Z</time></trkpt>
        <trkpt lat="29.3222988" lon="103.4975251"><ele>1660.5</ele><time>2025-12-27T19:37:46.000Z</time></trkpt>
        <trkpt lat="29.3223463" lon="103.4976296"><ele>1658.47</ele><time>2025-12-27T19:38:20.000Z</time></trkpt>
        <trkpt lat="29.3223954" lon="103.4977253"><ele>1653.97</ele><time>2025-12-27T19:38:50.000Z</time></trkpt>
        <trkpt lat="29.3224597" lon="103.4978058"><ele>1650.75</ele><time>2025-12-27T19:40:00.000Z</time></trkpt>
        <trkpt lat="29.322539" lon="103.4977542"><ele>1648.24</ele><time>2025-12-27T19:40:26.000Z</time></trkpt>
        <trkpt lat="29.3226294" lon="103.4977356"><ele>1645.46</ele><time>2025-12-27T19:40:44.000Z</time></trkpt>
        <trkpt lat="29.3226866" lon="103.4978069"><ele>1642.95</ele><time>2025-12-27T19:41:02.000Z</time></trkpt>
        <trkpt lat="29.322769" lon="103.4978449"><ele>1641.33</ele><time>2025-12-27T19:41:24.000Z</time></trkpt>
        <trkpt lat="29.3228658" lon="103.4978831"><ele>1637.92</ele><time>2025-12-27T19:41:44.000Z</time></trkpt>
        <trkpt lat="29.3229567" lon="103.4979227"><ele>1634.23</ele><time>2025-12-27T19:42:04.000Z</time></trkpt>
        <trkpt lat="29.3230492" lon="103.4979284"><ele>1631.63</ele><time>2025-12-27T19:42:26.000Z</time></trkpt>
        <trkpt lat="29.3231416" lon="103.497947"><ele>1628.02</ele><time>2025-12-27T19:42:42.000Z</time></trkpt>
        <trkpt lat="29.3232394" lon="103.4979712"><ele>1624.74</ele><time>2025-12-27T19:43:04.000Z</time></trkpt>
        <trkpt lat="29.3233344" lon="103.4980065"><ele>1620.83</ele><time>2025-12-27T19:43:30.000Z</time></trkpt>
        <trkpt lat="29.3234257" lon="103.4980503"><ele>1617.36</ele><time>2025-12-27T19:43:46.000Z</time></trkpt>
        <trkpt lat="29.3235059" lon="103.4981053"><ele>1613.66</ele><time>2025-12-27T19:44:04.000Z</time></trkpt>
        <trkpt lat="29.3235664" lon="103.498101"><ele>1610.51</ele><time>2025-12-27T19:44:16.000Z</time></trkpt>
        <trkpt lat="29.3236436" lon="103.4981158"><ele>1609.2</ele><time>2025-12-27T19:44:38.000Z</time></trkpt>
        <trkpt lat="29.3236545" lon="103.4981386"><ele>1607.09</ele><time>2025-12-27T19:44:50.000Z</time></trkpt>
        <trkpt lat="29.3237207" lon="103.4981419"><ele>1604.57</ele><time>2025-12-27T19:45:18.000Z</time></trkpt>
        <trkpt lat="29.3237889" lon="103.498196"><ele>1601.6</ele><time>2025-12-27T19:45:38.000Z</time></trkpt>
        <trkpt lat="29.3238792" lon="103.4982271"><ele>1598.19</ele><time>2025-12-27T19:45:56.000Z</time></trkpt>
        <trkpt lat="29.3239482" lon="103.4982292"><ele>1595.1</ele><time>2025-12-27T19:46:10.000Z</time></trkpt>
        <trkpt lat="29.3240312" lon="103.4982088"><ele>1591.18</ele><time>2025-12-27T19:46:26.000Z</time></trkpt>
        <trkpt lat="29.3241037" lon="103.4982512"><ele>1588.48</ele><time>2025-12-27T19:46:48.000Z</time></trkpt>
        <trkpt lat="29.3241784" lon="103.4983092"><ele>1587.6</ele><time>2025-12-27T19:47:10.000Z</time></trkpt>
        <trkpt lat="29.3242375" lon="103.4983911"><ele>1585.99</ele><time>2025-12-27T19:47:26.000Z</time></trkpt>
        <trkpt lat="29.3242668" lon="103.4984938"><ele>1585.2</ele><time>2025-12-27T19:47:54.000Z</time></trkpt>
        <trkpt lat="29.3243046" lon="103.4985921"><ele>1586.39</ele><time>2025-12-27T19:48:24.000Z</time></trkpt>
        <trkpt lat="29.3243678" lon="103.4986711"><ele>1584.5</ele><time>2025-12-27T19:48:52.000Z</time></trkpt>
        <trkpt lat="29.3244094" lon="103.4987664"><ele>1580.86</ele><time>2025-12-27T19:49:10.000Z</time></trkpt>
        <trkpt lat="29.324439" lon="103.4988876"><ele>1577.92</ele><time>2025-12-27T19:50:10.000Z</time></trkpt>
        <trkpt lat="29.3244661" lon="103.4989585"><ele>1573.76</ele><time>2025-12-27T19:50:22.000Z</time></trkpt>
        <trkpt lat="29.3245082" lon="103.499049"><ele>1571.4</ele><time>2025-12-27T19:50:52.000Z</time></trkpt>
        <trkpt lat="29.3245028" lon="103.4991495"><ele>1570.25</ele><time>2025-12-27T19:51:40.000Z</time></trkpt>
        <trkpt lat="29.3245473" lon="103.4992041"><ele>1569.17</ele><time>2025-12-27T19:52:08.000Z</time></trkpt>
        <trkpt lat="29.3246283" lon="103.49924"><ele>1566.41</ele><time>2025-12-27T19:52:30.000Z</time></trkpt>
        <trkpt lat="29.3246935" lon="103.4993088"><ele>1563.51</ele><time>2025-12-27T19:52:50.000Z</time></trkpt>
        <trkpt lat="29.3247871" lon="103.4993328"><ele>1561.02</ele><time>2025-12-27T19:53:06.000Z</time></trkpt>
        <trkpt lat="29.3248367" lon="103.4993123"><ele>1557.32</ele><time>2025-12-27T19:53:14.000Z</time></trkpt>
        <trkpt lat="29.3249148" lon="103.4993125"><ele>1555.12</ele><time>2025-12-27T19:53:44.000Z</time></trkpt>
        <trkpt lat="29.3250045" lon="103.4993439"><ele>1552.22</ele><time>2025-12-27T19:54:08.000Z</time></trkpt>
        <trkpt lat="29.3250852" lon="103.4994096"><ele>1549.27</ele><time>2025-12-27T19:54:22.000Z</time></trkpt>
        <trkpt lat="29.3251591" lon="103.4994898"><ele>1545.93</ele><time>2025-12-27T19:54:40.000Z</time></trkpt>
        <trkpt lat="29.3252349" lon="103.4995549"><ele>1543.12</ele><time>2025-12-27T19:54:54.000Z</time></trkpt>
        <trkpt lat="29.325296" lon="103.4996437"><ele>1540.37</ele><time>2025-12-27T19:55:06.000Z</time></trkpt>
        <trkpt lat="29.3253416" lon="103.4997009"><ele>1537.6</ele><time>2025-12-27T19:55:20.000Z</time></trkpt>
        <trkpt lat="29.3254298" lon="103.4997141"><ele>1535.46</ele><time>2025-12-27T19:55:58.000Z</time></trkpt>
        <trkpt lat="29.3255142" lon="103.4997564"><ele>1532.32</ele><time>2025-12-27T19:56:16.000Z</time></trkpt>
        <trkpt lat="29.3256067" lon="103.4997871"><ele>1527.63</ele><time>2025-12-27T19:56:28.000Z</time></trkpt>
        <trkpt lat="29.3256973" lon="103.4998181"><ele>1524.33</ele><time>2025-12-27T19:56:40.000Z</time></trkpt>
        <trkpt lat="29.3257821" lon="103.4998726"><ele>1520.78</ele><time>2025-12-27T19:56:56.000Z</time></trkpt>
        <trkpt lat="29.3258709" lon="103.4998951"><ele>1518.56</ele><time>2025-12-27T19:57:12.000Z</time></trkpt>
        <trkpt lat="29.3259728" lon="103.4998756"><ele>1515.67</ele><time>2025-12-27T19:57:52.000Z</time></trkpt>
        <trkpt lat="29.3260166" lon="103.4998548"><ele>1514.48</ele><time>2025-12-27T19:58:00.000Z</time></trkpt>
        <trkpt lat="29.3260823" lon="103.4998041"><ele>1512.93</ele><time>2025-12-27T19:58:26.000Z</time></trkpt>
        <trkpt lat="29.3261102" lon="103.4997824"><ele>1510.92</ele><time>2025-12-27T19:58:30.000Z</time></trkpt>
        <trkpt lat="29.3261821" lon="103.4997624"><ele>1509.15</ele><time>2025-12-27T19:58:48.000Z</time></trkpt>
        <trkpt lat="29.3262486" lon="103.4998166"><ele>1507.69</ele><time>2025-12-27T19:59:08.000Z</time></trkpt>
        <trkpt lat="29.3263127" lon="103.4999136"><ele>1506.3</ele><time>2025-12-27T19:59:58.000Z</time></trkpt>
        <trkpt lat="29.326331" lon="103.4999456"><ele>1505.78</ele><time>2025-12-27T20:00:00.000Z</time></trkpt>
        <trkpt lat="29.3264047" lon="103.4999997"><ele>1505.49</ele><time>2025-12-27T20:02:20.000Z</time></trkpt>
        <trkpt lat="29.3264573" lon="103.5000917"><ele>1504.82</ele><time>2025-12-27T20:03:28.000Z</time></trkpt>
        <trkpt lat="29.326545" lon="103.5000594"><ele>1504.58</ele><time>2025-12-27T20:03:54.000Z</time></trkpt>
        <trkpt lat="29.3266372" lon="103.5000583"><ele>1506.24</ele><time>2025-12-27T20:04:12.000Z</time></trkpt>
        <trkpt lat="29.3267324" lon="103.5000569"><ele>1507.24</ele><time>2025-12-27T20:04:26.000Z</time></trkpt>
        <trkpt lat="29.3268142" lon="103.5001235"><ele>1508.01</ele><time>2025-12-27T20:05:52.000Z</time></trkpt>
        <trkpt lat="29.3268838" lon="103.5001947"><ele>1508.6</ele><time>2025-12-27T20:08:24.000Z</time></trkpt>
        <trkpt lat="29.3268272" lon="103.5002926"><ele>1508.38</ele><time>2025-12-27T20:15:56.000Z</time></trkpt>
        <trkpt lat="29.3267843" lon="103.5003856"><ele>1508.55</ele><time>2025-12-27T20:16:18.000Z</time></trkpt>
        <trkpt lat="29.3267483" lon="103.5004875"><ele>1508.4</ele><time>2025-12-27T20:16:28.000Z</time></trkpt>
        <trkpt lat="29.3267467" lon="103.5005919"><ele>1510.84</ele><time>2025-12-27T20:16:40.000Z</time></trkpt>
        <trkpt lat="29.3267432" lon="103.5006975"><ele>1513.27</ele><time>2025-12-27T20:16:56.000Z</time></trkpt>
        <trkpt lat="29.3267117" lon="103.5008025"><ele>1515.93</ele><time>2025-12-27T20:17:12.000Z</time></trkpt>
        <trkpt lat="29.3266955" lon="103.5008336"><ele>1519.3</ele><time>2025-12-27T20:17:14.000Z</time></trkpt>
        <trkpt lat="29.3266982" lon="103.5009131"><ele>1521.58</ele><time>2025-12-27T20:17:48.000Z</time></trkpt>
        <trkpt lat="29.3267385" lon="103.5009999"><ele>1524.09</ele><time>2025-12-27T20:18:02.000Z</time></trkpt>
        <trkpt lat="29.3267949" lon="103.5010872"><ele>1525.42</ele><time>2025-12-27T20:18:24.000Z</time></trkpt>
        <trkpt lat="29.3268263" lon="103.501206"><ele>1524.59</ele><time>2025-12-27T20:18:42.000Z</time></trkpt>
        <trkpt lat="29.3267847" lon="103.5012817"><ele>1525.36</ele><time>2025-12-27T20:18:52.000Z</time></trkpt>
        <trkpt lat="29.3267197" lon="103.5013758"><ele>1525.85</ele><time>2025-12-27T20:19:10.000Z</time></trkpt>
        <trkpt lat="29.3266707" lon="103.5014766"><ele>1526.69</ele><time>2025-12-27T20:19:22.000Z</time></trkpt>
        <trkpt lat="29.3266082" lon="103.5015636"><ele>1530.26</ele><time>2025-12-27T20:19:34.000Z</time></trkpt>
        <trkpt lat="29.3265316" lon="103.5016086"><ele>1532.56</ele><time>2025-12-27T20:19:44.000Z</time></trkpt>
        <trkpt lat="29.3264433" lon="103.5016411"><ele>1532.47</ele><time>2025-12-27T20:20:10.000Z</time></trkpt>
        <trkpt lat="29.3263795" lon="103.5017083"><ele>1532.91</ele><time>2025-12-27T20:20:40.000Z</time></trkpt>
        <trkpt lat="29.3263956" lon="103.5018096"><ele>1535.86</ele><time>2025-12-27T20:21:04.000Z</time></trkpt>
        <trkpt lat="29.3264488" lon="103.5019037"><ele>1538.36</ele><time>2025-12-27T20:21:16.000Z</time></trkpt>
        <trkpt lat="29.3264711" lon="103.5020178"><ele>1541.27</ele><time>2025-12-27T20:21:26.000Z</time></trkpt>
        <trkpt lat="29.3264319" lon="103.50211"><ele>1544.15</ele><time>2025-12-27T20:21:40.000Z</time></trkpt>
        <trkpt lat="29.3264154" lon="103.5022129"><ele>1549.22</ele><time>2025-12-27T20:21:56.000Z</time></trkpt>
        <trkpt lat="29.3263716" lon="103.5023121"><ele>1550.9</ele><time>2025-12-27T20:22:16.000Z</time></trkpt>
        <trkpt lat="29.3263889" lon="103.5024095"><ele>1551.46</ele><time>2025-12-27T20:22:38.000Z</time></trkpt>
        <trkpt lat="29.3264104" lon="103.5025175"><ele>1551.09</ele><time>2025-12-27T20:24:04.000Z</time></trkpt>
        <trkpt lat="29.3264795" lon="103.5025895"><ele>1551.82</ele><time>2025-12-27T20:24:16.000Z</time></trkpt>
        <trkpt lat="29.3265092" lon="103.5026919"><ele>1550.24</ele><time>2025-12-27T20:53:08.000Z</time></trkpt>
        <trkpt lat="29.3265165" lon="103.5028094"><ele>1553.6</ele><time>2025-12-27T20:53:24.000Z</time></trkpt>
        <trkpt lat="29.3265096" lon="103.5029279"><ele>1555.41</ele><time>2025-12-27T20:53:36.000Z</time></trkpt>
        <trkpt lat="29.3265137" lon="103.5030373"><ele>1558.94</ele><time>2025-12-27T20:54:14.000Z</time></trkpt>
        <trkpt lat="29.3264688" lon="103.5031214"><ele>1562.71</ele><time>2025-12-27T20:54:24.000Z</time></trkpt>
        <trkpt lat="29.3263975" lon="103.5031954"><ele>1565.5</ele><time>2025-12-27T20:54:42.000Z</time></trkpt>
        <trkpt lat="29.3263645" lon="103.5032888"><ele>1566.71</ele><time>2025-12-27T20:55:06.000Z</time></trkpt>
        <trkpt lat="29.3263365" lon="103.5033955"><ele>1564.48</ele><time>2025-12-27T20:55:32.000Z</time></trkpt>
        <trkpt lat="29.326261" lon="103.5034631"><ele>1566.02</ele><time>2025-12-27T20:55:44.000Z</time></trkpt>
        <trkpt lat="29.3261736" lon="103.5035156"><ele>1568.87</ele><time>2025-12-27T20:56:04.000Z</time></trkpt>
        <trkpt lat="29.3260758" lon="103.5035545"><ele>1569.52</ele><time>2025-12-27T20:56:14.000Z</time></trkpt>
        <trkpt lat="29.3259895" lon="103.5036046"><ele>1570.02</ele><time>2025-12-27T20:56:22.000Z</time></trkpt>
        <trkpt lat="29.3259255" lon="103.5036814"><ele>1570.21</ele><time>2025-12-27T20:56:34.000Z</time></trkpt>
        <trkpt lat="29.3258486" lon="103.5037382"><ele>1571.02</ele><time>2025-12-27T20:56:44.000Z</time></trkpt>
        <trkpt lat="29.3257847" lon="103.5038263"><ele>1573.05</ele><time>2025-12-27T20:57:02.000Z</time></trkpt>
        <trkpt lat="29.3257803" lon="103.5039372"><ele>1576.24</ele><time>2025-12-27T20:57:14.000Z</time></trkpt>
        <trkpt lat="29.3257201" lon="103.5040181"><ele>1576.7</ele><time>2025-12-27T20:57:42.000Z</time></trkpt>
        <trkpt lat="29.3257218" lon="103.504131"><ele>1572.9</ele><time>2025-12-27T20:57:56.000Z</time></trkpt>
        <trkpt lat="29.3257947" lon="103.5041938"><ele>1569.16</ele><time>2025-12-27T20:58:04.000Z</time></trkpt>
        <trkpt lat="29.3258344" lon="103.5042964"><ele>1565.67</ele><time>2025-12-27T20:58:18.000Z</time></trkpt>
        <trkpt lat="29.3259087" lon="103.5043653"><ele>1563.86</ele><time>2025-12-27T20:58:36.000Z</time></trkpt>
        <trkpt lat="29.326" lon="103.5043417"><ele>1560.6</ele><time>2025-12-27T20:58:48.000Z</time></trkpt>
        <trkpt lat="29.3260318" lon="103.5043789"><ele>1556.12</ele><time>2025-12-27T20:58:58.000Z</time></trkpt>
        <trkpt lat="29.3261103" lon="103.5044286"><ele>1554.86</ele><time>2025-12-27T20:59:30.000Z</time></trkpt>
        <trkpt lat="29.3261897" lon="103.5045091"><ele>1554.37</ele><time>2025-12-27T20:59:40.000Z</time></trkpt>
        <trkpt lat="29.3262807" lon="103.5045157"><ele>1552.48</ele><time>2025-12-27T20:59:52.000Z</time></trkpt>
        <trkpt lat="29.3263163" lon="103.5044903"><ele>1549.8</ele><time>2025-12-27T21:00:00.000Z</time></trkpt>
        <trkpt lat="29.3263874" lon="103.5045103"><ele>1546.64</ele><time>2025-12-27T21:00:20.000Z</time></trkpt>
        <trkpt lat="29.3264445" lon="103.5046002"><ele>1543.86</ele><time>2025-12-27T21:00:32.000Z</time></trkpt>
        <trkpt lat="29.3264868" lon="103.5047082"><ele>1543.06</ele><time>2025-12-27T21:00:46.000Z</time></trkpt>
        <trkpt lat="29.3265068" lon="103.5048315"><ele>1544.29</ele><time>2025-12-27T21:01:00.000Z</time></trkpt>
        <trkpt lat="29.326573" lon="103.5049081"><ele>1545.83</ele><time>2025-12-27T21:01:16.000Z</time></trkpt>
        <trkpt lat="29.3266655" lon="103.50493"><ele>1544.55</ele><time>2025-12-27T21:01:32.000Z</time></trkpt>
        <trkpt lat="29.3267718" lon="103.5049233"><ele>1541.95</ele><time>2025-12-27T21:02:26.000Z</time></trkpt>
        <trkpt lat="29.326864" lon="103.5049627"><ele>1539.39</ele><time>2025-12-27T21:02:48.000Z</time></trkpt>
        <trkpt lat="29.3269366" lon="103.5050281"><ele>1537.44</ele><time>2025-12-27T21:03:00.000Z</time></trkpt>
        <trkpt lat="29.326985" lon="103.505122"><ele>1537.79</ele><time>2025-12-27T21:03:10.000Z</time></trkpt>
        <trkpt lat="29.3270535" lon="103.5051988"><ele>1538.1</ele><time>2025-12-27T21:03:20.000Z</time></trkpt>
        <trkpt lat="29.3271194" lon="103.5052854"><ele>1537.28</ele><time>2025-12-27T21:03:30.000Z</time></trkpt>
        <trkpt lat="29.3271583" lon="103.5053876"><ele>1537.72</ele><time>2025-12-27T21:03:42.000Z</time></trkpt>
        <trkpt lat="29.3272352" lon="103.5054228"><ele>1537.61</ele><time>2025-12-27T21:03:52.000Z</time></trkpt>
        <trkpt lat="29.3273314" lon="103.5054316"><ele>1535.8</ele><time>2025-12-27T21:04:06.000Z</time></trkpt>
        <trkpt lat="29.3274263" lon="103.5054529"><ele>1534.39</ele><time>2025-12-27T21:04:18.000Z</time></trkpt>
        <trkpt lat="29.3275143" lon="103.5054995"><ele>1532.91</ele><time>2025-12-27T21:04:30.000Z</time></trkpt>
        <trkpt lat="29.327613" lon="103.5055279"><ele>1532.57</ele><time>2025-12-27T21:04:44.000Z</time></trkpt>
        <trkpt lat="29.3277112" lon="103.5055547"><ele>1532.46</ele><time>2025-12-27T21:04:56.000Z</time></trkpt>
        <trkpt lat="29.3277746" lon="103.5056316"><ele>1532.76</ele><time>2025-12-27T21:05:06.000Z</time></trkpt>
        <trkpt lat="29.3278549" lon="103.5056847"><ele>1532.8</ele><time>2025-12-27T21:05:16.000Z</time></trkpt>
        <trkpt lat="29.3279401" lon="103.5057401"><ele>1532.91</ele><time>2025-12-27T21:05:28.000Z</time></trkpt>
        <trkpt lat="29.3280424" lon="103.5057539"><ele>1531.33</ele><time>2025-12-27T21:05:40.000Z</time></trkpt>
        <trkpt lat="29.3281417" lon="103.5057517"><ele>1531.34</ele><time>2025-12-27T21:05:50.000Z</time></trkpt>
        <trkpt lat="29.3282337" lon="103.5057769"><ele>1529.88</ele><time>2025-12-27T21:05:58.000Z</time></trkpt>
        <trkpt lat="29.3283344" lon="103.5057949"><ele>1529.69</ele><time>2025-12-27T21:06:08.000Z</time></trkpt>
        <trkpt lat="29.3284435" lon="103.5057852"><ele>1529.73</ele><time>2025-12-27T21:06:18.000Z</time></trkpt>
        <trkpt lat="29.3285402" lon="103.5058187"><ele>1529.64</ele><time>2025-12-27T21:06:28.000Z</time></trkpt>
        <trkpt lat="29.3286384" lon="103.5058808"><ele>1530.11</ele><time>2025-12-27T21:06:36.000Z</time></trkpt>
        <trkpt lat="29.3287174" lon="103.5059496"><ele>1530.72</ele><time>2025-12-27T21:06:44.000Z</time></trkpt>
        <trkpt lat="29.3287753" lon="103.5060366"><ele>1533.13</ele><time>2025-12-27T21:06:54.000Z</time></trkpt>
        <trkpt lat="29.3288574" lon="103.5061027"><ele>1534.72</ele><time>2025-12-27T21:07:06.000Z</time></trkpt>
        <trkpt lat="29.3289449" lon="103.5061508"><ele>1534.34</ele><time>2025-12-27T21:07:18.000Z</time></trkpt>
        <trkpt lat="29.3290346" lon="103.5062087"><ele>1533.18</ele><time>2025-12-27T21:07:28.000Z</time></trkpt>
        <trkpt lat="29.3291222" lon="103.5062784"><ele>1532.29</ele><time>2025-12-27T21:07:38.000Z</time></trkpt>
        <trkpt lat="29.3291599" lon="103.5063868"><ele>1532.08</ele><time>2025-12-27T21:07:48.000Z</time></trkpt>
        <trkpt lat="29.3291985" lon="103.5065014"><ele>1531.5</ele><time>2025-12-27T21:08:00.000Z</time></trkpt>
        <trkpt lat="29.3292744" lon="103.5065676"><ele>1530.19</ele><time>2025-12-27T21:08:12.000Z</time></trkpt>
        <trkpt lat="29.3293662" lon="103.5065983"><ele>1529.28</ele><time>2025-12-27T21:08:24.000Z</time></trkpt>
        <trkpt lat="29.329421" lon="103.5066818"><ele>1528.33</ele><time>2025-12-27T21:08:38.000Z</time></trkpt>
        <trkpt lat="29.3294555" lon="103.5067895"><ele>1526</ele><time>2025-12-27T21:08:50.000Z</time></trkpt>
        <trkpt lat="29.3295278" lon="103.5068301"><ele>1523.64</ele><time>2025-12-27T21:09:04.000Z</time></trkpt>
        <trkpt lat="29.3296046" lon="103.5068886"><ele>1519.09</ele><time>2025-12-27T21:09:12.000Z</time></trkpt>
        <trkpt lat="29.3297009" lon="103.506912"><ele>1515.42</ele><time>2025-12-27T21:09:22.000Z</time></trkpt>
        <trkpt lat="29.3298034" lon="103.5069428"><ele>1512.88</ele><time>2025-12-27T21:09:38.000Z</time></trkpt>
        <trkpt lat="29.3298946" lon="103.5070077"><ele>1510.18</ele><time>2025-12-27T21:09:48.000Z</time></trkpt>
        <trkpt lat="29.32997" lon="103.5070618"><ele>1509.1</ele><time>2025-12-27T21:09:58.000Z</time></trkpt>
        <trkpt lat="29.3300575" lon="103.5070984"><ele>1509.27</ele><time>2025-12-27T21:10:12.000Z</time></trkpt>
        <trkpt lat="29.3301317" lon="103.5071629"><ele>1509.13</ele><time>2025-12-27T21:10:22.000Z</time></trkpt>
        <trkpt lat="29.3301671" lon="103.5072634"><ele>1507.72</ele><time>2025-12-27T21:10:32.000Z</time></trkpt>
        <trkpt lat="29.330239" lon="103.5073469"><ele>1507.27</ele><time>2025-12-27T21:10:50.000Z</time></trkpt>
        <trkpt lat="29.3303278" lon="103.5073699"><ele>1504.79</ele><time>2025-12-27T21:10:58.000Z</time></trkpt>
        <trkpt lat="29.3304277" lon="103.5073796"><ele>1502.84</ele><time>2025-12-27T21:11:08.000Z</time></trkpt>
        <trkpt lat="29.3305046" lon="103.5074367"><ele>1501.5</ele><time>2025-12-27T21:11:22.000Z</time></trkpt>
        <trkpt lat="29.3305569" lon="103.5074662"><ele>1502.27</ele><time>2025-12-27T21:11:34.000Z</time></trkpt>
        <trkpt lat="29.3306061" lon="103.5075406"><ele>1501.99</ele><time>2025-12-27T21:12:06.000Z</time></trkpt>
        <trkpt lat="29.3306104" lon="103.5075687"><ele>1499.58</ele><time>2025-12-27T21:12:10.000Z</time></trkpt>
        <trkpt lat="29.3306473" lon="103.5076469"><ele>1498.3</ele><time>2025-12-27T21:17:44.000Z</time></trkpt>
        <trkpt lat="29.3306642" lon="103.5076251"><ele>1497.08</ele><time>2025-12-27T21:17:50.000Z</time></trkpt>
        <trkpt lat="29.330704" lon="103.5077383"><ele>1496.36</ele><time>2025-12-27T21:24:11.000Z</time></trkpt>
        <trkpt lat="29.3307124" lon="103.5078612"><ele>1494.03</ele><time>2025-12-27T21:24:21.000Z</time></trkpt>
        <trkpt lat="29.3307651" lon="103.5079484"><ele>1494.56</ele><time>2025-12-27T21:24:29.000Z</time></trkpt>
        <trkpt lat="29.3308293" lon="103.5080259"><ele>1496.37</ele><time>2025-12-27T21:24:37.000Z</time></trkpt>
        <trkpt lat="29.3308592" lon="103.508127"><ele>1497.15</ele><time>2025-12-27T21:24:47.000Z</time></trkpt>
        <trkpt lat="29.330892" lon="103.5082333"><ele>1499</ele><time>2025-12-27T21:24:57.000Z</time></trkpt>
        <trkpt lat="29.3309428" lon="103.5083244"><ele>1500.03</ele><time>2025-12-27T21:25:05.000Z</time></trkpt>
        <trkpt lat="29.3310026" lon="103.5084272"><ele>1500.85</ele><time>2025-12-27T21:25:13.000Z</time></trkpt>
        <trkpt lat="29.3310527" lon="103.5085328"><ele>1501.76</ele><time>2025-12-27T21:25:21.000Z</time></trkpt>
        <trkpt lat="29.3310576" lon="103.5086444"><ele>1501.47</ele><time>2025-12-27T21:25:29.000Z</time></trkpt>
        <trkpt lat="29.3310844" lon="103.5087509"><ele>1501.76</ele><time>2025-12-27T21:25:37.000Z</time></trkpt>
        <trkpt lat="29.3311323" lon="103.5088443"><ele>1502.05</ele><time>2025-12-27T21:25:45.000Z</time></trkpt>
        <trkpt lat="29.3311889" lon="103.5089512"><ele>1502.05</ele><time>2025-12-27T21:25:53.000Z</time></trkpt>
        <trkpt lat="29.3312736" lon="103.5090266"><ele>1502.25</ele><time>2025-12-27T21:26:01.000Z</time></trkpt>
        <trkpt lat="29.3313662" lon="103.5090849"><ele>1500.97</ele><time>2025-12-27T21:26:09.000Z</time></trkpt>
        <trkpt lat="29.3313807" lon="103.5091927"><ele>1499.94</ele><time>2025-12-27T21:26:19.000Z</time></trkpt>
        <trkpt lat="29.3313715" lon="103.5093073"><ele>1500.03</ele><time>2025-12-27T21:26:27.000Z</time></trkpt>
        <trkpt lat="29.331385" lon="103.5094226"><ele>1499.13</ele><time>2025-12-27T21:26:35.000Z</time></trkpt>
        <trkpt lat="29.3314505" lon="103.5094833"><ele>1496.85</ele><time>2025-12-27T21:26:43.000Z</time></trkpt>
        <trkpt lat="29.3315245" lon="103.5095515"><ele>1494.19</ele><time>2025-12-27T21:26:51.000Z</time></trkpt>
        <trkpt lat="29.3316223" lon="103.50961"><ele>1493.51</ele><time>2025-12-27T21:27:01.000Z</time></trkpt>
        <trkpt lat="29.3316883" lon="103.5097037"><ele>1490.64</ele><time>2025-12-27T21:27:11.000Z</time></trkpt>
        <trkpt lat="29.3317211" lon="103.5098053"><ele>1487.5</ele><time>2025-12-27T21:27:19.000Z</time></trkpt>
        <trkpt lat="29.3317648" lon="103.5099059"><ele>1485.66</ele><time>2025-12-27T21:27:27.000Z</time></trkpt>
        <trkpt lat="29.3317696" lon="103.5100226"><ele>1482.7</ele><time>2025-12-27T21:27:39.000Z</time></trkpt>
        <trkpt lat="29.3317543" lon="103.510089"><ele>1480.62</ele><time>2025-12-27T21:27:45.000Z</time></trkpt>
        <trkpt lat="29.3316983" lon="103.5101829"><ele>1479.48</ele><time>2025-12-27T21:28:07.000Z</time></trkpt>
        <trkpt lat="29.3316994" lon="103.5102814"><ele>1475.09</ele><time>2025-12-27T21:28:21.000Z</time></trkpt>
        <trkpt lat="29.331649" lon="103.5103664"><ele>1472.02</ele><time>2025-12-27T21:28:43.000Z</time></trkpt>
        <trkpt lat="29.3315617" lon="103.5104286"><ele>1468.99</ele><time>2025-12-27T21:29:03.000Z</time></trkpt>
        <trkpt lat="29.3314737" lon="103.5105135"><ele>1466.4</ele><time>2025-12-27T21:29:19.000Z</time></trkpt>
        <trkpt lat="29.3313745" lon="103.5105815"><ele>1460.99</ele><time>2025-12-27T21:29:27.000Z</time></trkpt>
        <trkpt lat="29.3313335" lon="103.510685"><ele>1457.88</ele><time>2025-12-27T21:29:35.000Z</time></trkpt>
        <trkpt lat="29.3313378" lon="103.5108037"><ele>1454.84</ele><time>2025-12-27T21:29:43.000Z</time></trkpt>
        <trkpt lat="29.3313703" lon="103.5109279"><ele>1452.63</ele><time>2025-12-27T21:29:51.000Z</time></trkpt>
        <trkpt lat="29.3313869" lon="103.5110567"><ele>1452.53</ele><time>2025-12-27T21:29:59.000Z</time></trkpt>
        <trkpt lat="29.3314011" lon="103.5111867"><ele>1451.66</ele><time>2025-12-27T21:30:07.000Z</time></trkpt>
        <trkpt lat="29.3314025" lon="103.5113109"><ele>1449.5</ele><time>2025-12-27T21:30:15.000Z</time></trkpt>
        <trkpt lat="29.3314043" lon="103.5114367"><ele>1447.94</ele><time>2025-12-27T21:30:23.000Z</time></trkpt>
        <trkpt lat="29.3314016" lon="103.5115487"><ele>1446.96</ele><time>2025-12-27T21:30:31.000Z</time></trkpt>
        <trkpt lat="29.3314292" lon="103.5116516"><ele>1446.24</ele><time>2025-12-27T21:30:39.000Z</time></trkpt>
        <trkpt lat="29.3314606" lon="103.5117565"><ele>1445</ele><time>2025-12-27T21:30:45.000Z</time></trkpt>
        <trkpt lat="29.3314823" lon="103.511867"><ele>1442.88</ele><time>2025-12-27T21:30:53.000Z</time></trkpt>
        <trkpt lat="29.3315075" lon="103.5119743"><ele>1440.43</ele><time>2025-12-27T21:31:01.000Z</time></trkpt>
        <trkpt lat="29.3315808" lon="103.5120156"><ele>1438.01</ele><time>2025-12-27T21:31:09.000Z</time></trkpt>
        <trkpt lat="29.3316779" lon="103.5120341"><ele>1436.48</ele><time>2025-12-27T21:31:21.000Z</time></trkpt>
        <trkpt lat="29.3317509" lon="103.5120982"><ele>1434.45</ele><time>2025-12-27T21:31:29.000Z</time></trkpt>
        <trkpt lat="29.3317696" lon="103.512196"><ele>1431.7</ele><time>2025-12-27T21:31:37.000Z</time></trkpt>
        <trkpt lat="29.3317423" lon="103.5123123"><ele>1431.83</ele><time>2025-12-27T21:31:45.000Z</time></trkpt>
        <trkpt lat="29.3317081" lon="103.5124252"><ele>1431.87</ele><time>2025-12-27T21:31:53.000Z</time></trkpt>
        <trkpt lat="29.3316928" lon="103.5125349"><ele>1431.62</ele><time>2025-12-27T21:32:03.000Z</time></trkpt>
        <trkpt lat="29.3317316" lon="103.5126284"><ele>1431.77</ele><time>2025-12-27T21:32:19.000Z</time></trkpt>
        <trkpt lat="29.331819" lon="103.5126765"><ele>1430.48</ele><time>2025-12-27T21:32:41.000Z</time></trkpt>
        <trkpt lat="29.3319126" lon="103.5127264"><ele>1429.85</ele><time>2025-12-27T21:32:51.000Z</time></trkpt>
        <trkpt lat="29.33194" lon="103.5128214"><ele>1429.84</ele><time>2025-12-27T21:32:59.000Z</time></trkpt>
        <trkpt lat="29.3319662" lon="103.5129258"><ele>1428.9</ele><time>2025-12-27T21:33:09.000Z</time></trkpt>
        <trkpt lat="29.3319493" lon="103.5130374"><ele>1428.79</ele><time>2025-12-27T21:33:19.000Z</time></trkpt>
        <trkpt lat="29.3318818" lon="103.5131417"><ele>1428.92</ele><time>2025-12-27T21:33:29.000Z</time></trkpt>
        <trkpt lat="29.3317993" lon="103.5132312"><ele>1429.75</ele><time>2025-12-27T21:33:37.000Z</time></trkpt>
        <trkpt lat="29.3317225" lon="103.5133156"><ele>1428.49</ele><time>2025-12-27T21:33:45.000Z</time></trkpt>
        <trkpt lat="29.331702" lon="103.513425"><ele>1427.63</ele><time>2025-12-27T21:33:55.000Z</time></trkpt>
        <trkpt lat="29.3316664" lon="103.5135237"><ele>1427.46</ele><time>2025-12-27T21:34:03.000Z</time></trkpt>
        <trkpt lat="29.3316583" lon="103.5135738"><ele>1428.91</ele><time>2025-12-27T21:34:09.000Z</time></trkpt>
        <trkpt lat="29.331651" lon="103.5136666"><ele>1429.6</ele><time>2025-12-27T21:34:29.000Z</time></trkpt>
        <trkpt lat="29.3316372" lon="103.5137309"><ele>1430.78</ele><time>2025-12-27T21:34:47.000Z</time></trkpt>
        <trkpt lat="29.3315854" lon="103.5138279"><ele>1433.5</ele><time>2025-12-27T21:36:15.000Z</time></trkpt>
        <trkpt lat="29.3315112" lon="103.5138896"><ele>1434.93</ele><time>2025-12-27T21:36:23.000Z</time></trkpt>
        <trkpt lat="29.3314841" lon="103.5139106"><ele>1437.52</ele><time>2025-12-27T21:36:37.000Z</time></trkpt>
        <trkpt lat="29.3314675" lon="103.513995"><ele>1437.46</ele><time>2025-12-27T21:37:27.000Z</time></trkpt>
        <trkpt lat="29.3314651" lon="103.5140237"><ele>1437.29</ele><time>2025-12-27T21:37:29.000Z</time></trkpt>
        <trkpt lat="29.3314985" lon="103.5141039"><ele>1437.24</ele><time>2025-12-27T21:38:01.000Z</time></trkpt>
        <trkpt lat="29.3314981" lon="103.5142199"><ele>1438.12</ele><time>2025-12-27T21:38:11.000Z</time></trkpt>
        <trkpt lat="29.3315159" lon="103.5143408"><ele>1438.99</ele><time>2025-12-27T21:38:23.000Z</time></trkpt>
        <trkpt lat="29.3315078" lon="103.5144641"><ele>1440.1</ele><time>2025-12-27T21:38:33.000Z</time></trkpt>
        <trkpt lat="29.3314803" lon="103.5145769"><ele>1441.43</ele><time>2025-12-27T21:38:45.000Z</time></trkpt>
        <trkpt lat="29.3314061" lon="103.5146573"><ele>1445.35</ele><time>2025-12-27T21:40:03.000Z</time></trkpt>
        <trkpt lat="29.3313283" lon="103.5147353"><ele>1447.06</ele><time>2025-12-27T21:40:13.000Z</time></trkpt>
        <trkpt lat="29.331257" lon="103.5148044"><ele>1448.87</ele><time>2025-12-27T21:40:23.000Z</time></trkpt>
        <trkpt lat="29.3311974" lon="103.5148937"><ele>1450.53</ele><time>2025-12-27T21:40:43.000Z</time></trkpt>
        <trkpt lat="29.3311589" lon="103.5150081"><ele>1450.86</ele><time>2025-12-27T21:45:13.000Z</time></trkpt>
        <trkpt lat="29.3311444" lon="103.515121"><ele>1451.77</ele><time>2025-12-27T21:45:21.000Z</time></trkpt>
        <trkpt lat="29.3310952" lon="103.515214"><ele>1450.65</ele><time>2025-12-27T21:45:31.000Z</time></trkpt>
        <trkpt lat="29.3310192" lon="103.5152925"><ele>1449.67</ele><time>2025-12-27T21:45:41.000Z</time></trkpt>
        <trkpt lat="29.3309327" lon="103.5153567"><ele>1448.85</ele><time>2025-12-27T21:45:51.000Z</time></trkpt>
        <trkpt lat="29.3308355" lon="103.5154061"><ele>1449</ele><time>2025-12-27T21:46:03.000Z</time></trkpt>
        <trkpt lat="29.3307434" lon="103.5154393"><ele>1448.72</ele><time>2025-12-27T21:46:13.000Z</time></trkpt>
        <trkpt lat="29.3306486" lon="103.5154685"><ele>1448.57</ele><time>2025-12-27T21:46:27.000Z</time></trkpt>
        <trkpt lat="29.330578" lon="103.5155027"><ele>1447.1</ele><time>2025-12-27T21:46:43.000Z</time></trkpt>
        <trkpt lat="29.3305249" lon="103.5155768"><ele>1445.17</ele><time>2025-12-27T21:47:01.000Z</time></trkpt>
        <trkpt lat="29.3304452" lon="103.5156275"><ele>1443.43</ele><time>2025-12-27T21:47:13.000Z</time></trkpt>
        <trkpt lat="29.3303532" lon="103.5156279"><ele>1443.09</ele><time>2025-12-27T21:47:27.000Z</time></trkpt>
        <trkpt lat="29.3302559" lon="103.5156148"><ele>1443.13</ele><time>2025-12-27T21:47:39.000Z</time></trkpt>
        <trkpt lat="29.3301631" lon="103.5155854"><ele>1443.11</ele><time>2025-12-27T21:48:37.000Z</time></trkpt>
        <trkpt lat="29.3300687" lon="103.5155549"><ele>1441.27</ele><time>2025-12-27T21:48:53.000Z</time></trkpt>
        <trkpt lat="29.3299828" lon="103.5155129"><ele>1439.34</ele><time>2025-12-27T21:49:07.000Z</time></trkpt>
        <trkpt lat="29.3299121" lon="103.5154361"><ele>1435.15</ele><time>2025-12-27T21:49:21.000Z</time></trkpt>
        <trkpt lat="29.3298231" lon="103.5154072"><ele>1434.3</ele><time>2025-12-27T21:49:35.000Z</time></trkpt>
        <trkpt lat="29.3297344" lon="103.5153557"><ele>1431.15</ele><time>2025-12-27T21:49:47.000Z</time></trkpt>
        <trkpt lat="29.3296387" lon="103.5153163"><ele>1427.98</ele><time>2025-12-27T21:49:59.000Z</time></trkpt>
        <trkpt lat="29.3295551" lon="103.5152472"><ele>1422.55</ele><time>2025-12-27T21:50:09.000Z</time></trkpt>
        <trkpt lat="29.3294697" lon="103.5152043"><ele>1418.28</ele><time>2025-12-27T21:50:19.000Z</time></trkpt>
        <trkpt lat="29.3293903" lon="103.5151552"><ele>1415.96</ele><time>2025-12-27T21:50:31.000Z</time></trkpt>
        <trkpt lat="29.3293002" lon="103.5151614"><ele>1415.76</ele><time>2025-12-27T21:50:47.000Z</time></trkpt>
        <trkpt lat="29.3292134" lon="103.5151193"><ele>1413.91</ele><time>2025-12-27T21:51:01.000Z</time></trkpt>
        <trkpt lat="29.3291184" lon="103.5151038"><ele>1413.7</ele><time>2025-12-27T21:51:13.000Z</time></trkpt>
        <trkpt lat="29.3290152" lon="103.5150941"><ele>1413.71</ele><time>2025-12-27T21:51:23.000Z</time></trkpt>
        <trkpt lat="29.3289307" lon="103.5151349"><ele>1412.62</ele><time>2025-12-27T21:51:49.000Z</time></trkpt>
        <trkpt lat="29.3289159" lon="103.5151863"><ele>1413.41</ele><time>2025-12-27T21:51:59.000Z</time></trkpt>
        <trkpt lat="29.3288948" lon="103.5152854"><ele>1413.3</ele><time>2025-12-27T21:52:13.000Z</time></trkpt>
        <trkpt lat="29.3288916" lon="103.5153234"><ele>1414.79</ele><time>2025-12-27T21:52:15.000Z</time></trkpt>
        <trkpt lat="29.3288164" lon="103.5153367"><ele>1415.74</ele><time>2025-12-27T21:52:49.000Z</time></trkpt>
        <trkpt lat="29.3287435" lon="103.5154261"><ele>1414.4</ele><time>2025-12-27T21:52:59.000Z</time></trkpt>
        <trkpt lat="29.3287272" lon="103.515535"><ele>1414.84</ele><time>2025-12-27T21:53:07.000Z</time></trkpt>
        <trkpt lat="29.3287366" lon="103.5156551"><ele>1414.08</ele><time>2025-12-27T21:53:15.000Z</time></trkpt>
        <trkpt lat="29.3287022" lon="103.5157582"><ele>1414.79</ele><time>2025-12-27T21:53:27.000Z</time></trkpt>
        <trkpt lat="29.3286339" lon="103.5158393"><ele>1416.95</ele><time>2025-12-27T21:53:41.000Z</time></trkpt>
        <trkpt lat="29.3285426" lon="103.515838"><ele>1417.28</ele><time>2025-12-27T21:53:57.000Z</time></trkpt>
        <trkpt lat="29.3284566" lon="103.5158682"><ele>1418.13</ele><time>2025-12-27T21:54:07.000Z</time></trkpt>
        <trkpt lat="29.3283875" lon="103.5158857"><ele>1417.26</ele><time>2025-12-27T21:54:23.000Z</time></trkpt>
        <trkpt lat="29.3283269" lon="103.5159527"><ele>1415.44</ele><time>2025-12-27T21:54:57.000Z</time></trkpt>
        <trkpt lat="29.3282662" lon="103.5160537"><ele>1414.61</ele><time>2025-12-27T21:55:07.000Z</time></trkpt>
        <trkpt lat="29.3281881" lon="103.5161291"><ele>1414.03</ele><time>2025-12-27T21:55:17.000Z</time></trkpt>
        <trkpt lat="29.3280974" lon="103.5161834"><ele>1412.52</ele><time>2025-12-27T21:55:29.000Z</time></trkpt>
        <trkpt lat="29.3280251" lon="103.516267"><ele>1410.55</ele><time>2025-12-27T21:55:39.000Z</time></trkpt>
        <trkpt lat="29.3279514" lon="103.5163539"><ele>1408.39</ele><time>2025-12-27T21:55:53.000Z</time></trkpt>
        <trkpt lat="29.3279095" lon="103.516454"><ele>1403.7</ele><time>2025-12-27T21:56:15.000Z</time></trkpt>
        <trkpt lat="29.3279683" lon="103.5165142"><ele>1397.71</ele><time>2025-12-27T21:56:53.000Z</time></trkpt>
        <trkpt lat="29.3280675" lon="103.5165055"><ele>1392.99</ele><time>2025-12-27T21:57:03.000Z</time></trkpt>
        <trkpt lat="29.3281744" lon="103.5165025"><ele>1388.72</ele><time>2025-12-27T21:57:11.000Z</time></trkpt>
        <trkpt lat="29.3282836" lon="103.516527"><ele>1387.44</ele><time>2025-12-27T21:57:21.000Z</time></trkpt>
        <trkpt lat="29.3283775" lon="103.5164968"><ele>1387.19</ele><time>2025-12-27T21:57:31.000Z</time></trkpt>
        <trkpt lat="29.3284653" lon="103.5165424"><ele>1383.13</ele><time>2025-12-27T21:57:41.000Z</time></trkpt>
        <trkpt lat="29.328551" lon="103.5166043"><ele>1380.44</ele><time>2025-12-27T21:57:53.000Z</time></trkpt>
        <trkpt lat="29.3285841" lon="103.5167098"><ele>1376.96</ele><time>2025-12-27T21:58:01.000Z</time></trkpt>
        <trkpt lat="29.3285986" lon="103.5168121"><ele>1376.23</ele><time>2025-12-27T21:58:11.000Z</time></trkpt>
        <trkpt lat="29.3286695" lon="103.5168235"><ele>1374.87</ele><time>2025-12-27T21:58:23.000Z</time></trkpt>
        <trkpt lat="29.3287632" lon="103.5168331"><ele>1371.89</ele><time>2025-12-27T21:58:35.000Z</time></trkpt>
        <trkpt lat="29.3288321" lon="103.5167584"><ele>1369.35</ele><time>2025-12-27T21:58:49.000Z</time></trkpt>
        <trkpt lat="29.3288776" lon="103.5166532"><ele>1366.82</ele><time>2025-12-27T21:58:59.000Z</time></trkpt>
        <trkpt lat="29.3289253" lon="103.5165405"><ele>1364.91</ele><time>2025-12-27T21:59:09.000Z</time></trkpt>
        <trkpt lat="29.3289947" lon="103.5164658"><ele>1363.13</ele><time>2025-12-27T21:59:21.000Z</time></trkpt>
        <trkpt lat="29.3290766" lon="103.5165047"><ele>1361.98</ele><time>2025-12-27T21:59:33.000Z</time></trkpt>
        <trkpt lat="29.3291107" lon="103.5166085"><ele>1362.05</ele><time>2025-12-27T21:59:43.000Z</time></trkpt>
        <trkpt lat="29.3291707" lon="103.5166847"><ele>1362.44</ele><time>2025-12-27T21:59:57.000Z</time></trkpt>
        <trkpt lat="29.3292513" lon="103.5166598"><ele>1362.8</ele><time>2025-12-27T22:00:37.000Z</time></trkpt>
        <trkpt lat="29.3293081" lon="103.516639"><ele>1362.91</ele><time>2025-12-27T22:00:49.000Z</time></trkpt>
        <trkpt lat="29.3293915" lon="103.5166653"><ele>1363.8</ele><time>2025-12-27T22:01:09.000Z</time></trkpt>
        <trkpt lat="29.3294196" lon="103.516776"><ele>1361.42</ele><time>2025-12-27T22:01:13.000Z</time></trkpt>
        <trkpt lat="29.329448" lon="103.5169044"><ele>1360.82</ele><time>2025-12-27T22:01:19.000Z</time></trkpt>
        <trkpt lat="29.3295171" lon="103.5169838"><ele>1361.54</ele><time>2025-12-27T22:01:35.000Z</time></trkpt>
        <trkpt lat="29.32956" lon="103.5170842"><ele>1359.85</ele><time>2025-12-27T22:01:43.000Z</time></trkpt>
        <trkpt lat="29.329578" lon="103.5172064"><ele>1360.46</ele><time>2025-12-27T22:01:51.000Z</time></trkpt>
        <trkpt lat="29.3296489" lon="103.5172664"><ele>1363.16</ele><time>2025-12-27T22:02:01.000Z</time></trkpt>
        <trkpt lat="29.3297336" lon="103.5173225"><ele>1362.72</ele><time>2025-12-27T22:02:11.000Z</time></trkpt>
        <trkpt lat="29.3297704" lon="103.5173785"><ele>1362.32</ele><time>2025-12-27T22:02:21.000Z</time></trkpt>
        <trkpt lat="29.3298381" lon="103.517446"><ele>1362.93</ele><time>2025-12-27T22:02:39.000Z</time></trkpt>
        <trkpt lat="29.329928" lon="103.5174175"><ele>1363.71</ele><time>2025-12-27T22:02:49.000Z</time></trkpt>
        <trkpt lat="29.3300275" lon="103.517434"><ele>1363.22</ele><time>2025-12-27T22:02:59.000Z</time></trkpt>
        <trkpt lat="29.330077" lon="103.5174309"><ele>1362.52</ele><time>2025-12-27T22:03:09.000Z</time></trkpt>
        <trkpt lat="29.3301364" lon="103.5175048"><ele>1364.96</ele><time>2025-12-27T22:03:31.000Z</time></trkpt>
        <trkpt lat="29.3302148" lon="103.5175523"><ele>1365.58</ele><time>2025-12-27T22:03:43.000Z</time></trkpt>
        <trkpt lat="29.3303068" lon="103.5175324"><ele>1364.35</ele><time>2025-12-27T22:03:57.000Z</time></trkpt>
        <trkpt lat="29.3304057" lon="103.5175534"><ele>1362.19</ele><time>2025-12-27T22:04:07.000Z</time></trkpt>
        <trkpt lat="29.3304443" lon="103.5176517"><ele>1361.56</ele><time>2025-12-27T22:04:23.000Z</time></trkpt>
        <trkpt lat="29.3304801" lon="103.5177757"><ele>1361.86</ele><time>2025-12-27T22:04:33.000Z</time></trkpt>
        <trkpt lat="29.3304889" lon="103.5179037"><ele>1363.56</ele><time>2025-12-27T22:04:45.000Z</time></trkpt>
        <trkpt lat="29.3305019" lon="103.5180167"><ele>1367.57</ele><time>2025-12-27T22:04:57.000Z</time></trkpt>
        <trkpt lat="29.3305072" lon="103.5180368"><ele>1368.65</ele><time>2025-12-27T22:04:59.000Z</time></trkpt>
        <trkpt lat="29.3304518" lon="103.5180791"><ele>1369.08</ele><time>2025-12-27T22:05:19.000Z</time></trkpt>
        <trkpt lat="29.3303618" lon="103.5181284"><ele>1369.68</ele><time>2025-12-27T22:05:29.000Z</time></trkpt>
        <trkpt lat="29.3302574" lon="103.5181311"><ele>1370.11</ele><time>2025-12-27T22:05:41.000Z</time></trkpt>
        <trkpt lat="29.3302113" lon="103.518218"><ele>1371.83</ele><time>2025-12-27T22:05:53.000Z</time></trkpt>
        <trkpt lat="29.3301674" lon="103.5183149"><ele>1372.01</ele><time>2025-12-27T22:06:01.000Z</time></trkpt>
        <trkpt lat="29.330097" lon="103.5183932"><ele>1372.61</ele><time>2025-12-27T22:06:11.000Z</time></trkpt>
        <trkpt lat="29.3300145" lon="103.5184467"><ele>1374.89</ele><time>2025-12-27T22:06:21.000Z</time></trkpt>
        <trkpt lat="29.33001" lon="103.5185415"><ele>1376.98</ele><time>2025-12-27T22:06:35.000Z</time></trkpt>
        <trkpt lat="29.3300758" lon="103.5186153"><ele>1377.06</ele><time>2025-12-27T22:06:45.000Z</time></trkpt>
        <trkpt lat="29.3300767" lon="103.5187038"><ele>1376.95</ele><time>2025-12-27T22:06:57.000Z</time></trkpt>
        <trkpt lat="29.3300123" lon="103.5187559"><ele>1375.95</ele><time>2025-12-27T22:07:09.000Z</time></trkpt>
        <trkpt lat="29.3299618" lon="103.5188427"><ele>1375.47</ele><time>2025-12-27T22:07:19.000Z</time></trkpt>
        <trkpt lat="29.3298785" lon="103.5189075"><ele>1374</ele><time>2025-12-27T22:07:33.000Z</time></trkpt>
        <trkpt lat="29.3298562" lon="103.5190036"><ele>1372.84</ele><time>2025-12-27T22:07:43.000Z</time></trkpt>
        <trkpt lat="29.3298385" lon="103.5190353"><ele>1370.09</ele><time>2025-12-27T22:07:45.000Z</time></trkpt>
        <trkpt lat="29.329801" lon="103.5191165"><ele>1367.61</ele><time>2025-12-27T22:08:05.000Z</time></trkpt>
        <trkpt lat="29.3297445" lon="103.5191363"><ele>1367.38</ele><time>2025-12-27T22:08:11.000Z</time></trkpt>
        <trkpt lat="29.3296571" lon="103.5191038"><ele>1366.86</ele><time>2025-12-27T22:08:37.000Z</time></trkpt>
        <trkpt lat="29.3295722" lon="103.5190368"><ele>1367.17</ele><time>2025-12-27T22:08:47.000Z</time></trkpt>
        <trkpt lat="29.3295477" lon="103.5190149"><ele>1366.42</ele><time>2025-12-27T22:08:55.000Z</time></trkpt>
        <trkpt lat="29.3294828" lon="103.5189702"><ele>1366.23</ele><time>2025-12-27T22:09:09.000Z</time></trkpt>
        <trkpt lat="29.3294027" lon="103.5189259"><ele>1367.18</ele><time>2025-12-27T22:09:17.000Z</time></trkpt>
        <trkpt lat="29.3293044" lon="103.5188634"><ele>1368.38</ele><time>2025-12-27T22:09:27.000Z</time></trkpt>
        <trkpt lat="29.3292087" lon="103.5188172"><ele>1371.45</ele><time>2025-12-27T22:09:35.000Z</time></trkpt>
        <trkpt lat="29.329119" lon="103.5187793"><ele>1373.41</ele><time>2025-12-27T22:09:43.000Z</time></trkpt>
        <trkpt lat="29.3290718" lon="103.5187831"><ele>1374.49</ele><time>2025-12-27T22:09:49.000Z</time></trkpt>
        <trkpt lat="29.3289974" lon="103.5187961"><ele>1376.42</ele><time>2025-12-27T22:09:59.000Z</time></trkpt>
        <trkpt lat="29.3289157" lon="103.5188478"><ele>1377.73</ele><time>2025-12-27T22:10:09.000Z</time></trkpt>
        <trkpt lat="29.3288267" lon="103.518901"><ele>1379.34</ele><time>2025-12-27T22:10:21.000Z</time></trkpt>
        <trkpt lat="29.3287349" lon="103.5189485"><ele>1381.51</ele><time>2025-12-27T22:10:41.000Z</time></trkpt>
        <trkpt lat="29.3286637" lon="103.5190236"><ele>1383.4</ele><time>2025-12-27T22:11:01.000Z</time></trkpt>
        <trkpt lat="29.3285872" lon="103.519092"><ele>1385.91</ele><time>2025-12-27T22:11:31.000Z</time></trkpt>
        <trkpt lat="29.3285329" lon="103.5191799"><ele>1389.01</ele><time>2025-12-27T22:12:11.000Z</time></trkpt>
        <trkpt lat="29.3285745" lon="103.5192627"><ele>1390.55</ele><time>2025-12-27T22:12:21.000Z</time></trkpt>
        <trkpt lat="29.3286588" lon="103.519323"><ele>1390.51</ele><time>2025-12-27T22:12:29.000Z</time></trkpt>
        <trkpt lat="29.328759" lon="103.5193776"><ele>1389.36</ele><time>2025-12-27T22:12:39.000Z</time></trkpt>
        <trkpt lat="29.328871" lon="103.5194038"><ele>1388.22</ele><time>2025-12-27T22:12:47.000Z</time></trkpt>
        <trkpt lat="29.3289726" lon="103.5194445"><ele>1387.81</ele><time>2025-12-27T22:12:55.000Z</time></trkpt>
        <trkpt lat="29.3290621" lon="103.5194873"><ele>1387.02</ele><time>2025-12-27T22:13:03.000Z</time></trkpt>
        <trkpt lat="29.3291373" lon="103.519556"><ele>1386.73</ele><time>2025-12-27T22:13:11.000Z</time></trkpt>
        <trkpt lat="29.3292047" lon="103.5196392"><ele>1386.57</ele><time>2025-12-27T22:13:19.000Z</time></trkpt>
        <trkpt lat="29.3292773" lon="103.5197034"><ele>1386.72</ele><time>2025-12-27T22:13:27.000Z</time></trkpt>
        <trkpt lat="29.3293425" lon="103.5197808"><ele>1385.83</ele><time>2025-12-27T22:13:37.000Z</time></trkpt>
        <trkpt lat="29.3293335" lon="103.5198787"><ele>1385.84</ele><time>2025-12-27T22:13:45.000Z</time></trkpt>
        <trkpt lat="29.3293186" lon="103.5199569"><ele>1386.64</ele><time>2025-12-27T22:13:55.000Z</time></trkpt>
        <trkpt lat="29.3293224" lon="103.5200542"><ele>1388.6</ele><time>2025-12-27T22:14:27.000Z</time></trkpt>
        <trkpt lat="29.3292613" lon="103.5201328"><ele>1389.65</ele><time>2025-12-27T22:14:35.000Z</time></trkpt>
        <trkpt lat="29.3291631" lon="103.5201809"><ele>1389.61</ele><time>2025-12-27T22:14:45.000Z</time></trkpt>
        <trkpt lat="29.3290507" lon="103.5201956"><ele>1389.81</ele><time>2025-12-27T22:14:53.000Z</time></trkpt>
        <trkpt lat="29.3289461" lon="103.5202221"><ele>1390.79</ele><time>2025-12-27T22:15:01.000Z</time></trkpt>
        <trkpt lat="29.3289105" lon="103.5203053"><ele>1390.05</ele><time>2025-12-27T22:15:07.000Z</time></trkpt>
        <trkpt lat="29.3289297" lon="103.520398"><ele>1387.84</ele><time>2025-12-27T22:15:19.000Z</time></trkpt>
        <trkpt lat="29.3289729" lon="103.5205013"><ele>1384.35</ele><time>2025-12-27T22:15:33.000Z</time></trkpt>
        <trkpt lat="29.3290201" lon="103.5206168"><ele>1381.4</ele><time>2025-12-27T22:15:43.000Z</time></trkpt>
        <trkpt lat="29.3290273" lon="103.5206572"><ele>1381.53</ele><time>2025-12-27T22:15:45.000Z</time></trkpt>
        <trkpt lat="29.3290305" lon="103.5207501"><ele>1382.13</ele><time>2025-12-27T22:16:09.000Z</time></trkpt>
        <trkpt lat="29.3290345" lon="103.5208166"><ele>1382.68</ele><time>2025-12-27T22:16:27.000Z</time></trkpt>
        <trkpt lat="29.3290212" lon="103.52091"><ele>1385.7</ele><time>2025-12-27T22:17:05.000Z</time></trkpt>
        <trkpt lat="29.329031" lon="103.5210195"><ele>1390.33</ele><time>2025-12-27T22:17:23.000Z</time></trkpt>
        <trkpt lat="29.3290752" lon="103.521135"><ele>1393.5</ele><time>2025-12-27T22:18:34.000Z</time></trkpt>
        <trkpt lat="29.3290838" lon="103.5211755"><ele>1396.15</ele><time>2025-12-27T22:18:48.000Z</time></trkpt>
        <trkpt lat="29.3291278" lon="103.5212668"><ele>1397.55</ele><time>2025-12-27T22:22:48.000Z</time></trkpt>
        <trkpt lat="29.3291589" lon="103.521404"><ele>1396.4</ele><time>2025-12-27T22:23:54.000Z</time></trkpt>
        <trkpt lat="29.3291317" lon="103.521516"><ele>1394.37</ele><time>2025-12-27T22:24:02.000Z</time></trkpt>
        <trkpt lat="29.3291763" lon="103.5216037"><ele>1393.87</ele><time>2025-12-27T22:24:10.000Z</time></trkpt>
        <trkpt lat="29.3292179" lon="103.5217028"><ele>1391.77</ele><time>2025-12-27T22:24:22.000Z</time></trkpt>
        <trkpt lat="29.3292193" lon="103.5218184"><ele>1390.29</ele><time>2025-12-27T22:24:34.000Z</time></trkpt>
        <trkpt lat="29.3291852" lon="103.5219219"><ele>1389.05</ele><time>2025-12-27T22:24:46.000Z</time></trkpt>
        <trkpt lat="29.3292031" lon="103.5220205"><ele>1385.13</ele><time>2025-12-27T22:24:54.000Z</time></trkpt>
        <trkpt lat="29.3292236" lon="103.5221208"><ele>1382.07</ele><time>2025-12-27T22:25:02.000Z</time></trkpt>
        <trkpt lat="29.3292334" lon="103.5222453"><ele>1379.06</ele><time>2025-12-27T22:25:10.000Z</time></trkpt>
        <trkpt lat="29.3292533" lon="103.522358"><ele>1377.83</ele><time>2025-12-27T22:25:18.000Z</time></trkpt>
        <trkpt lat="29.3292354" lon="103.5224761"><ele>1376.35</ele><time>2025-12-27T22:25:26.000Z</time></trkpt>
        <trkpt lat="29.3292502" lon="103.5225795"><ele>1374.72</ele><time>2025-12-27T22:25:34.000Z</time></trkpt>
        <trkpt lat="29.3293245" lon="103.5226542"><ele>1373.36</ele><time>2025-12-27T22:25:44.000Z</time></trkpt>
        <trkpt lat="29.3294024" lon="103.5227314"><ele>1372.51</ele><time>2025-12-27T22:25:52.000Z</time></trkpt>
        <trkpt lat="29.329493" lon="103.5227752"><ele>1371.89</ele><time>2025-12-27T22:26:02.000Z</time></trkpt>
        <trkpt lat="29.3295934" lon="103.5227989"><ele>1371.05</ele><time>2025-12-27T22:26:14.000Z</time></trkpt>
        <trkpt lat="29.3296863" lon="103.5228355"><ele>1370.6</ele><time>2025-12-27T22:26:24.000Z</time></trkpt>
        <trkpt lat="29.3297301" lon="103.5229298"><ele>1368.19</ele><time>2025-12-27T22:26:34.000Z</time></trkpt>
        <trkpt lat="29.3297143" lon="103.5230443"><ele>1365.59</ele><time>2025-12-27T22:26:44.000Z</time></trkpt>
        <trkpt lat="29.3297316" lon="103.5231522"><ele>1363.37</ele><time>2025-12-27T22:26:54.000Z</time></trkpt>
        <trkpt lat="29.3297435" lon="103.5232597"><ele>1361.11</ele><time>2025-12-27T22:27:02.000Z</time></trkpt>
        <trkpt lat="29.3297711" lon="103.523365"><ele>1358.19</ele><time>2025-12-27T22:27:10.000Z</time></trkpt>
        <trkpt lat="29.3298132" lon="103.5234655"><ele>1357.36</ele><time>2025-12-27T22:27:18.000Z</time></trkpt>
        <trkpt lat="29.3298402" lon="103.5235821"><ele>1355.85</ele><time>2025-12-27T22:27:26.000Z</time></trkpt>
        <trkpt lat="29.3298028" lon="103.5236915"><ele>1355.05</ele><time>2025-12-27T22:27:38.000Z</time></trkpt>
        <trkpt lat="29.3297676" lon="103.5238141"><ele>1355.88</ele><time>2025-12-27T22:27:48.000Z</time></trkpt>
        <trkpt lat="29.3297777" lon="103.5239211"><ele>1354.51</ele><time>2025-12-27T22:27:56.000Z</time></trkpt>
        <trkpt lat="29.3298041" lon="103.5240246"><ele>1353.55</ele><time>2025-12-27T22:28:06.000Z</time></trkpt>
        <trkpt lat="29.3297868" lon="103.5241366"><ele>1353.59</ele><time>2025-12-27T22:28:16.000Z</time></trkpt>
        <trkpt lat="29.3298031" lon="103.5242462"><ele>1353.08</ele><time>2025-12-27T22:28:24.000Z</time></trkpt>
        <trkpt lat="29.3298638" lon="103.5243221"><ele>1352.42</ele><time>2025-12-27T22:28:32.000Z</time></trkpt>
        <trkpt lat="29.3299409" lon="103.5243905"><ele>1351.95</ele><time>2025-12-27T22:28:42.000Z</time></trkpt>
        <trkpt lat="29.3300169" lon="103.5244755"><ele>1350.4</ele><time>2025-12-27T22:28:52.000Z</time></trkpt>
        <trkpt lat="29.3300946" lon="103.5245522"><ele>1349.73</ele><time>2025-12-27T22:29:00.000Z</time></trkpt>
        <trkpt lat="29.3301603" lon="103.524639"><ele>1348.8</ele><time>2025-12-27T22:29:10.000Z</time></trkpt>
        <trkpt lat="29.3302342" lon="103.5247179"><ele>1346.85</ele><time>2025-12-27T22:29:20.000Z</time></trkpt>
        <trkpt lat="29.3303095" lon="103.524791"><ele>1342.88</ele><time>2025-12-27T22:29:28.000Z</time></trkpt>
        <trkpt lat="29.3303756" lon="103.5248749"><ele>1340.82</ele><time>2025-12-27T22:29:38.000Z</time></trkpt>
        <trkpt lat="29.3303907" lon="103.5249885"><ele>1340.25</ele><time>2025-12-27T22:29:48.000Z</time></trkpt>
        <trkpt lat="29.3303229" lon="103.5250515"><ele>1338.98</ele><time>2025-12-27T22:30:04.000Z</time></trkpt>
        <trkpt lat="29.3303288" lon="103.5251438"><ele>1338.75</ele><time>2025-12-27T22:30:22.000Z</time></trkpt>
        <trkpt lat="29.3303724" lon="103.5251888"><ele>1337.23</ele><time>2025-12-27T22:30:44.000Z</time></trkpt>
        <trkpt lat="29.3304461" lon="103.525256"><ele>1334.09</ele><time>2025-12-27T22:31:04.000Z</time></trkpt>
        <trkpt lat="29.3304659" lon="103.5253501"><ele>1329.84</ele><time>2025-12-27T22:31:58.000Z</time></trkpt>
        <trkpt lat="29.330462" lon="103.5254712"><ele>1326.62</ele><time>2025-12-27T22:32:10.000Z</time></trkpt>
        <trkpt lat="29.3304502" lon="103.5255328"><ele>1324.43</ele><time>2025-12-27T22:32:20.000Z</time></trkpt>
        <trkpt lat="29.3303605" lon="103.5255452"><ele>1322.74</ele><time>2025-12-27T22:33:04.000Z</time></trkpt>
        <trkpt lat="29.3303001" lon="103.525561"><ele>1322.85</ele><time>2025-12-27T22:33:12.000Z</time></trkpt>
        <trkpt lat="29.3302284" lon="103.5256116"><ele>1322.41</ele><time>2025-12-27T22:33:36.000Z</time></trkpt>
        <trkpt lat="29.3301399" lon="103.5256371"><ele>1320.35</ele><time>2025-12-27T22:34:08.000Z</time></trkpt>
        <trkpt lat="29.3300449" lon="103.525645"><ele>1318.3</ele><time>2025-12-27T22:34:28.000Z</time></trkpt>
        <trkpt lat="29.3299417" lon="103.5256311"><ele>1316.88</ele><time>2025-12-27T22:34:46.000Z</time></trkpt>
        <trkpt lat="29.3298455" lon="103.5256062"><ele>1313.2</ele><time>2025-12-27T22:35:04.000Z</time></trkpt>
        <trkpt lat="29.3297326" lon="103.5255717"><ele>1308.71</ele><time>2025-12-27T22:35:18.000Z</time></trkpt>
        <trkpt lat="29.329622" lon="103.5255438"><ele>1303.2</ele><time>2025-12-27T22:35:24.000Z</time></trkpt>
        <trkpt lat="29.3295212" lon="103.5255225"><ele>1298.8</ele><time>2025-12-27T22:35:32.000Z</time></trkpt>
        <trkpt lat="29.3294294" lon="103.5255114"><ele>1295.17</ele><time>2025-12-27T22:35:40.000Z</time></trkpt>
        <trkpt lat="29.3293991" lon="103.5255102"><ele>1292.09</ele><time>2025-12-27T22:35:42.000Z</time></trkpt>
        <trkpt lat="29.3293209" lon="103.5255234"><ele>1289.47</ele><time>2025-12-27T22:36:32.000Z</time></trkpt>
        <trkpt lat="29.3292349" lon="103.5255093"><ele>1283.6</ele><time>2025-12-27T22:36:40.000Z</time></trkpt>
        <trkpt lat="29.3292535" lon="103.5255864"><ele>1278.34</ele><time>2025-12-27T22:36:56.000Z</time></trkpt>
        <trkpt lat="29.3293166" lon="103.5256748"><ele>1273.25</ele><time>2025-12-27T22:37:08.000Z</time></trkpt>
        <trkpt lat="29.3293931" lon="103.5257722"><ele>1268.51</ele><time>2025-12-27T22:37:22.000Z</time></trkpt>
        <trkpt lat="29.3294511" lon="103.5258739"><ele>1263.12</ele><time>2025-12-27T22:37:34.000Z</time></trkpt>
        <trkpt lat="29.329491" lon="103.5259782"><ele>1258.27</ele><time>2025-12-27T22:37:46.000Z</time></trkpt>
        <trkpt lat="29.3295434" lon="103.5260709"><ele>1253.75</ele><time>2025-12-27T22:37:56.000Z</time></trkpt>
        <trkpt lat="29.3296037" lon="103.5261767"><ele>1250.75</ele><time>2025-12-27T22:38:24.000Z</time></trkpt>
        <trkpt lat="29.3295665" lon="103.5262291"><ele>1246.64</ele><time>2025-12-27T22:38:40.000Z</time></trkpt>
        <trkpt lat="29.3294755" lon="103.5262186"><ele>1241.55</ele><time>2025-12-27T22:39:14.000Z</time></trkpt>
        <trkpt lat="29.3293689" lon="103.5261927"><ele>1236.68</ele><time>2025-12-27T22:39:26.000Z</time></trkpt>
        <trkpt lat="29.3292629" lon="103.5261635"><ele>1232.73</ele><time>2025-12-27T22:39:42.000Z</time></trkpt>
        <trkpt lat="29.3291588" lon="103.5261533"><ele>1228.09</ele><time>2025-12-27T22:40:00.000Z</time></trkpt>
        <trkpt lat="29.3291415" lon="103.5262327"><ele>1222.96</ele><time>2025-12-27T22:40:22.000Z</time></trkpt>
        <trkpt lat="29.3291599" lon="103.526344"><ele>1218.78</ele><time>2025-12-27T22:40:42.000Z</time></trkpt>
        <trkpt lat="29.3292032" lon="103.5264561"><ele>1213.99</ele><time>2025-12-27T22:41:02.000Z</time></trkpt>
        <trkpt lat="29.3292485" lon="103.5265738"><ele>1208.28</ele><time>2025-12-27T22:41:18.000Z</time></trkpt>
        <trkpt lat="29.3293041" lon="103.5266769"><ele>1203.06</ele><time>2025-12-27T22:41:32.000Z</time></trkpt>
        <trkpt lat="29.3292569" lon="103.5267482"><ele>1198.5</ele><time>2025-12-27T22:41:58.000Z</time></trkpt>
        <trkpt lat="29.3292571" lon="103.526844"><ele>1192.34</ele><time>2025-12-27T22:42:16.000Z</time></trkpt>
        <trkpt lat="29.329292" lon="103.5269352"><ele>1187.15</ele><time>2025-12-27T22:42:30.000Z</time></trkpt>
        <trkpt lat="29.3293372" lon="103.5270333"><ele>1182.91</ele><time>2025-12-27T22:42:46.000Z</time></trkpt>
        <trkpt lat="29.3293938" lon="103.5271291"><ele>1178.69</ele><time>2025-12-27T22:43:04.000Z</time></trkpt>
        <trkpt lat="29.3294382" lon="103.5272281"><ele>1174.47</ele><time>2025-12-27T22:43:24.000Z</time></trkpt>
        <trkpt lat="29.3294855" lon="103.5273292"><ele>1169.96</ele><time>2025-12-27T22:43:44.000Z</time></trkpt>
        <trkpt lat="29.3295266" lon="103.5274267"><ele>1164.7</ele><time>2025-12-27T22:43:54.000Z</time></trkpt>
        <trkpt lat="29.3295651" lon="103.5275283"><ele>1160.54</ele><time>2025-12-27T22:44:08.000Z</time></trkpt>
        <trkpt lat="29.3296074" lon="103.5276288"><ele>1156.52</ele><time>2025-12-27T22:44:20.000Z</time></trkpt>
        <trkpt lat="29.329662" lon="103.5277247"><ele>1151.74</ele><time>2025-12-27T22:44:30.000Z</time></trkpt>
        <trkpt lat="29.329705" lon="103.5278369"><ele>1147.91</ele><time>2025-12-27T22:44:40.000Z</time></trkpt>
        <trkpt lat="29.3297007" lon="103.527948"><ele>1145.71</ele><time>2025-12-27T22:45:08.000Z</time></trkpt>
        <trkpt lat="29.3297468" lon="103.5280421"><ele>1140.17</ele><time>2025-12-27T22:45:16.000Z</time></trkpt>
        <trkpt lat="29.3297215" lon="103.5281296"><ele>1136.34</ele><time>2025-12-27T22:45:34.000Z</time></trkpt>
        <trkpt lat="29.3296389" lon="103.5281572"><ele>1131.94</ele><time>2025-12-27T22:45:48.000Z</time></trkpt>
        <trkpt lat="29.3295335" lon="103.528172"><ele>1127.74</ele><time>2025-12-27T22:46:04.000Z</time></trkpt>
        <trkpt lat="29.3294239" lon="103.5281177"><ele>1124.62</ele><time>2025-12-27T22:46:16.000Z</time></trkpt>
        <trkpt lat="29.3293828" lon="103.5281721"><ele>1118.64</ele><time>2025-12-27T22:46:36.000Z</time></trkpt>
        <trkpt lat="29.3294034" lon="103.5282779"><ele>1111.7</ele><time>2025-12-27T22:46:50.000Z</time></trkpt>
        <trkpt lat="29.3293914" lon="103.5284181"><ele>1103.82</ele><time>2025-12-27T22:47:06.000Z</time></trkpt>
        <trkpt lat="29.3293149" lon="103.5284893"><ele>1098.64</ele><time>2025-12-27T22:47:24.000Z</time></trkpt>
        <trkpt lat="29.3292224" lon="103.5284615"><ele>1092.74</ele><time>2025-12-27T22:47:36.000Z</time></trkpt>
        <trkpt lat="29.3291249" lon="103.5283998"><ele>1086.68</ele><time>2025-12-27T22:47:44.000Z</time></trkpt>
        <trkpt lat="29.3290323" lon="103.5283299"><ele>1082.43</ele><time>2025-12-27T22:47:56.000Z</time></trkpt>
        <trkpt lat="29.328963" lon="103.5282474"><ele>1077.01</ele><time>2025-12-27T22:48:04.000Z</time></trkpt>
        <trkpt lat="29.328886" lon="103.5281582"><ele>1072.27</ele><time>2025-12-27T22:48:14.000Z</time></trkpt>
        <trkpt lat="29.3288151" lon="103.5280796"><ele>1067.86</ele><time>2025-12-27T22:48:22.000Z</time></trkpt>
        <trkpt lat="29.3288034" lon="103.528063"><ele>1064.66</ele><time>2025-12-27T22:48:24.000Z</time></trkpt>
        <trkpt lat="29.3287412" lon="103.5280931"><ele>1062.82</ele><time>2025-12-27T22:48:38.000Z</time></trkpt>
        <trkpt lat="29.3287279" lon="103.5281987"><ele>1060.65</ele><time>2025-12-27T22:48:48.000Z</time></trkpt>
        <trkpt lat="29.3287714" lon="103.5282487"><ele>1057.08</ele><time>2025-12-27T22:48:56.000Z</time></trkpt>
        <trkpt lat="29.3287679" lon="103.5283525"><ele>1054.74</ele><time>2025-12-27T22:49:18.000Z</time></trkpt>
        <trkpt lat="29.3287632" lon="103.5284823"><ele>1052.09</ele><time>2025-12-27T22:49:26.000Z</time></trkpt>
        <trkpt lat="29.3287289" lon="103.5285936"><ele>1054.25</ele><time>2025-12-27T22:49:34.000Z</time></trkpt>
        <trkpt lat="29.3286459" lon="103.5286274"><ele>1055.65</ele><time>2025-12-27T22:49:40.000Z</time></trkpt>
        <trkpt lat="29.3286364" lon="103.5287136"><ele>1056.56</ele><time>2025-12-27T22:49:48.000Z</time></trkpt>
        <trkpt lat="29.3286428" lon="103.5288166"><ele>1057.61</ele><time>2025-12-27T22:49:56.000Z</time></trkpt>
        <trkpt lat="29.328616" lon="103.5289201"><ele>1058.06</ele><time>2025-12-27T22:50:02.000Z</time></trkpt>
        <trkpt lat="29.328564" lon="103.5290143"><ele>1058.22</ele><time>2025-12-27T22:50:08.000Z</time></trkpt>
        <trkpt lat="29.3284954" lon="103.5291066"><ele>1059.54</ele><time>2025-12-27T22:50:16.000Z</time></trkpt>
        <trkpt lat="29.3284415" lon="103.5292227"><ele>1060</ele><time>2025-12-27T22:50:24.000Z</time></trkpt>
        <trkpt lat="29.3284529" lon="103.5293474"><ele>1059.15</ele><time>2025-12-27T22:50:32.000Z</time></trkpt>
        <trkpt lat="29.3284659" lon="103.5294657"><ele>1056.71</ele><time>2025-12-27T22:50:40.000Z</time></trkpt>
        <trkpt lat="29.3284177" lon="103.5295808"><ele>1055.23</ele><time>2025-12-27T22:50:48.000Z</time></trkpt>
        <trkpt lat="29.3283266" lon="103.5296551"><ele>1053.59</ele><time>2025-12-27T22:50:54.000Z</time></trkpt>
        <trkpt lat="29.3282406" lon="103.5297204"><ele>1053.22</ele><time>2025-12-27T22:51:00.000Z</time></trkpt>
        <trkpt lat="29.3281744" lon="103.5298048"><ele>1051.99</ele><time>2025-12-27T22:51:06.000Z</time></trkpt>
        <trkpt lat="29.3280805" lon="103.5298909"><ele>1049.85</ele><time>2025-12-27T22:51:14.000Z</time></trkpt>
        <trkpt lat="29.3279896" lon="103.5299887"><ele>1046.99</ele><time>2025-12-27T22:51:20.000Z</time></trkpt>
        <trkpt lat="29.3278977" lon="103.5300849"><ele>1044.95</ele><time>2025-12-27T22:51:26.000Z</time></trkpt>
        <trkpt lat="29.3278051" lon="103.5301297"><ele>1043.8</ele><time>2025-12-27T22:51:30.000Z</time></trkpt>
        <trkpt lat="29.3277056" lon="103.5301565"><ele>1043.06</ele><time>2025-12-27T22:51:36.000Z</time></trkpt>
        <trkpt lat="29.3276046" lon="103.5301756"><ele>1042.73</ele><time>2025-12-27T22:51:42.000Z</time></trkpt>
        <trkpt lat="29.3275186" lon="103.530241"><ele>1043.19</ele><time>2025-12-27T22:51:48.000Z</time></trkpt>
        <trkpt lat="29.3274346" lon="103.5302967"><ele>1044.18</ele><time>2025-12-27T22:51:54.000Z</time></trkpt>
        <trkpt lat="29.3273583" lon="103.5303555"><ele>1043.77</ele><time>2025-12-27T22:52:00.000Z</time></trkpt>
        <trkpt lat="29.3272716" lon="103.5303963"><ele>1042.92</ele><time>2025-12-27T22:52:06.000Z</time></trkpt>
        <trkpt lat="29.3271741" lon="103.5304412"><ele>1041.86</ele><time>2025-12-27T22:52:12.000Z</time></trkpt>
        <trkpt lat="29.3270681" lon="103.5305031"><ele>1040.52</ele><time>2025-12-27T22:52:18.000Z</time></trkpt>
        <trkpt lat="29.3269651" lon="103.5305674"><ele>1039.87</ele><time>2025-12-27T22:52:24.000Z</time></trkpt>
        <trkpt lat="29.3268788" lon="103.5306499"><ele>1037.99</ele><time>2025-12-27T22:52:32.000Z</time></trkpt>
        <trkpt lat="29.3268068" lon="103.5307437"><ele>1035.71</ele><time>2025-12-27T22:52:38.000Z</time></trkpt>
        <trkpt lat="29.3267243" lon="103.5307776"><ele>1034.8</ele><time>2025-12-27T22:52:44.000Z</time></trkpt>
        <trkpt lat="29.326632" lon="103.5307944"><ele>1034.7</ele><time>2025-12-27T22:52:52.000Z</time></trkpt>
        <trkpt lat="29.3265461" lon="103.5308353"><ele>1033.68</ele><time>2025-12-27T22:53:00.000Z</time></trkpt>
        <trkpt lat="29.3264721" lon="103.5308991"><ele>1032.47</ele><time>2025-12-27T22:53:10.000Z</time></trkpt>
        <trkpt lat="29.3264027" lon="103.5309868"><ele>1031.33</ele><time>2025-12-27T22:53:20.000Z</time></trkpt>
        <trkpt lat="29.3263065" lon="103.5310384"><ele>1029.1</ele><time>2025-12-27T22:53:26.000Z</time></trkpt>
        <trkpt lat="29.3261967" lon="103.5310297"><ele>1028.25</ele><time>2025-12-27T22:53:34.000Z</time></trkpt>
        <trkpt lat="29.3261018" lon="103.5309721"><ele>1028.35</ele><time>2025-12-27T22:53:44.000Z</time></trkpt>
        <trkpt lat="29.3260056" lon="103.530967"><ele>1027.69</ele><time>2025-12-27T22:53:54.000Z</time></trkpt>
        <trkpt lat="29.3259141" lon="103.5309453"><ele>1026.88</ele><time>2025-12-27T22:54:04.000Z</time></trkpt>
        <trkpt lat="29.3258179" lon="103.5308991"><ele>1025.43</ele><time>2025-12-27T22:54:16.000Z</time></trkpt>
        <trkpt lat="29.3257149" lon="103.530911"><ele>1020.82</ele><time>2025-12-27T22:54:24.000Z</time></trkpt>
        <trkpt lat="29.3256104" lon="103.5309207"><ele>1016.08</ele><time>2025-12-27T22:54:32.000Z</time></trkpt>
        <trkpt lat="29.3255051" lon="103.5309561"><ele>1014.17</ele><time>2025-12-27T22:54:40.000Z</time></trkpt>
        <trkpt lat="29.3254742" lon="103.5310052"><ele>1011.48</ele><time>2025-12-27T22:54:54.000Z</time></trkpt>
        <trkpt lat="29.3254651" lon="103.5311154"><ele>1008.56</ele><time>2025-12-27T22:55:06.000Z</time></trkpt>
        <trkpt lat="29.3254431" lon="103.5312401"><ele>1006.2</ele><time>2025-12-27T22:55:16.000Z</time></trkpt>
        <trkpt lat="29.3254103" lon="103.5313612"><ele>1002.82</ele><time>2025-12-27T22:55:26.000Z</time></trkpt>
        <trkpt lat="29.3253308" lon="103.5314114"><ele>998.56</ele><time>2025-12-27T22:55:40.000Z</time></trkpt>
        <trkpt lat="29.3252542" lon="103.5313667"><ele>995.26</ele><time>2025-12-27T22:55:48.000Z</time></trkpt>
        <trkpt lat="29.3252117" lon="103.5312531"><ele>992.05</ele><time>2025-12-27T22:55:56.000Z</time></trkpt>
        <trkpt lat="29.3251665" lon="103.5311347"><ele>987.63</ele><time>2025-12-27T22:56:04.000Z</time></trkpt>
        <trkpt lat="29.3250763" lon="103.5310795"><ele>984.23</ele><time>2025-12-27T22:56:12.000Z</time></trkpt>
        <trkpt lat="29.3250277" lon="103.5310418"><ele>981.76</ele><time>2025-12-27T22:56:18.000Z</time></trkpt>
        <trkpt lat="29.324964" lon="103.5309713"><ele>979.84</ele><time>2025-12-27T22:56:26.000Z</time></trkpt>
        <trkpt lat="29.3248744" lon="103.5309306"><ele>977.32</ele><time>2025-12-27T22:56:34.000Z</time></trkpt>
        <trkpt lat="29.324771" lon="103.5308997"><ele>973.78</ele><time>2025-12-27T22:56:42.000Z</time></trkpt>
        <trkpt lat="29.3246707" lon="103.5308664"><ele>970.88</ele><time>2025-12-27T22:56:52.000Z</time></trkpt>
        <trkpt lat="29.3245857" lon="103.5308171"><ele>968.72</ele><time>2025-12-27T22:57:00.000Z</time></trkpt>
        <trkpt lat="29.3245318" lon="103.5308764"><ele>967.34</ele><time>2025-12-27T22:57:12.000Z</time></trkpt>
        <trkpt lat="29.3245225" lon="103.5309989"><ele>963.53</ele><time>2025-12-27T22:57:22.000Z</time></trkpt>
        <trkpt lat="29.3244939" lon="103.5311319"><ele>959.73</ele><time>2025-12-27T22:57:30.000Z</time></trkpt>
        <trkpt lat="29.3244967" lon="103.5312584"><ele>957.05</ele><time>2025-12-27T22:57:40.000Z</time></trkpt>
        <trkpt lat="29.3244781" lon="103.5313741"><ele>954.57</ele><time>2025-12-27T22:57:50.000Z</time></trkpt>
        <trkpt lat="29.3244566" lon="103.5314949"><ele>954.55</ele><time>2025-12-27T22:58:00.000Z</time></trkpt>
        <trkpt lat="29.3244113" lon="103.5316039"><ele>954.1</ele><time>2025-12-27T22:58:08.000Z</time></trkpt>
        <trkpt lat="29.3243525" lon="103.5317134"><ele>954.14</ele><time>2025-12-27T22:58:16.000Z</time></trkpt>
        <trkpt lat="29.3243129" lon="103.5318224"><ele>955.04</ele><time>2025-12-27T22:58:24.000Z</time></trkpt>
        <trkpt lat="29.3242824" lon="103.5319245"><ele>955.49</ele><time>2025-12-27T22:58:32.000Z</time></trkpt>
        <trkpt lat="29.3242587" lon="103.5320334"><ele>956.41</ele><time>2025-12-27T22:58:42.000Z</time></trkpt>
        <trkpt lat="29.3242482" lon="103.5321556"><ele>956.69</ele><time>2025-12-27T22:58:52.000Z</time></trkpt>
        <trkpt lat="29.3242092" lon="103.5322653"><ele>956.3</ele><time>2025-12-27T22:59:00.000Z</time></trkpt>
        <trkpt lat="29.3241792" lon="103.5323676"><ele>956.42</ele><time>2025-12-27T22:59:08.000Z</time></trkpt>
        <trkpt lat="29.3241499" lon="103.5324747"><ele>957.12</ele><time>2025-12-27T22:59:16.000Z</time></trkpt>
        <trkpt lat="29.3241629" lon="103.5325878"><ele>957.94</ele><time>2025-12-27T22:59:24.000Z</time></trkpt>
        <trkpt lat="29.3241233" lon="103.5326954"><ele>956.75</ele><time>2025-12-27T22:59:32.000Z</time></trkpt>
        <trkpt lat="29.3240318" lon="103.5327066"><ele>955.71</ele><time>2025-12-27T22:59:40.000Z</time></trkpt>
        <trkpt lat="29.3239304" lon="103.5326803"><ele>954.78</ele><time>2025-12-27T22:59:48.000Z</time></trkpt>
        <trkpt lat="29.323823" lon="103.5326578"><ele>954.08</ele><time>2025-12-27T22:59:56.000Z</time></trkpt>
        <trkpt lat="29.3237063" lon="103.5326648"><ele>953.54</ele><time>2025-12-27T23:00:04.000Z</time></trkpt>
        <trkpt lat="29.3235892" lon="103.5326917"><ele>952.93</ele><time>2025-12-27T23:00:12.000Z</time></trkpt>
        <trkpt lat="29.3234739" lon="103.5326775"><ele>951.98</ele><time>2025-12-27T23:00:20.000Z</time></trkpt>
        <trkpt lat="29.3233679" lon="103.532699"><ele>949.9</ele><time>2025-12-27T23:00:26.000Z</time></trkpt>
        <trkpt lat="29.3232591" lon="103.5327008"><ele>948.79</ele><time>2025-12-27T23:00:32.000Z</time></trkpt>
        <trkpt lat="29.3231438" lon="103.5326995"><ele>947.43</ele><time>2025-12-27T23:00:38.000Z</time></trkpt>
        <trkpt lat="29.3230385" lon="103.5326905"><ele>945.81</ele><time>2025-12-27T23:00:44.000Z</time></trkpt>
        <trkpt lat="29.3229497" lon="103.5327322"><ele>943.66</ele><time>2025-12-27T23:00:50.000Z</time></trkpt>
        <trkpt lat="29.3228659" lon="103.5327926"><ele>941.75</ele><time>2025-12-27T23:00:58.000Z</time></trkpt>
        <trkpt lat="29.3227729" lon="103.5328678"><ele>939.43</ele><time>2025-12-27T23:01:06.000Z</time></trkpt>
        <trkpt lat="29.3226852" lon="103.5329264"><ele>937.29</ele><time>2025-12-27T23:01:12.000Z</time></trkpt>
        <trkpt lat="29.3225979" lon="103.5330009"><ele>934.08</ele><time>2025-12-27T23:01:20.000Z</time></trkpt>
        <trkpt lat="29.3224954" lon="103.5330668"><ele>930.66</ele><time>2025-12-27T23:01:28.000Z</time></trkpt>
        <trkpt lat="29.3223932" lon="103.5331201"><ele>928.24</ele><time>2025-12-27T23:01:34.000Z</time></trkpt>
        <trkpt lat="29.3222951" lon="103.5331717"><ele>926.77</ele><time>2025-12-27T23:01:40.000Z</time></trkpt>
        <trkpt lat="29.3222048" lon="103.5332489"><ele>924.87</ele><time>2025-12-27T23:01:48.000Z</time></trkpt>
        <trkpt lat="29.322119" lon="103.5332954"><ele>922.22</ele><time>2025-12-27T23:01:54.000Z</time></trkpt>
        <trkpt lat="29.3220373" lon="103.53334"><ele>919.39</ele><time>2025-12-27T23:02:00.000Z</time></trkpt>
        <trkpt lat="29.3219498" lon="103.5334124"><ele>917.41</ele><time>2025-12-27T23:02:08.000Z</time></trkpt>
        <trkpt lat="29.3218722" lon="103.5335079"><ele>915.56</ele><time>2025-12-27T23:02:16.000Z</time></trkpt>
        <trkpt lat="29.3217844" lon="103.5335775"><ele>913.99</ele><time>2025-12-27T23:02:24.000Z</time></trkpt>
        <trkpt lat="29.3216935" lon="103.5335789"><ele>913.06</ele><time>2025-12-27T23:02:34.000Z</time></trkpt>
        <trkpt lat="29.3216056" lon="103.5335364"><ele>912.95</ele><time>2025-12-27T23:02:42.000Z</time></trkpt>
        <trkpt lat="29.3215211" lon="103.5334885"><ele>912.66</ele><time>2025-12-27T23:02:52.000Z</time></trkpt>
        <trkpt lat="29.3214274" lon="103.5334531"><ele>912.18</ele><time>2025-12-27T23:03:04.000Z</time></trkpt>
        <trkpt lat="29.321331" lon="103.5334203"><ele>911.21</ele><time>2025-12-27T23:03:12.000Z</time></trkpt>
        <trkpt lat="29.3212513" lon="103.5333506"><ele>909.59</ele><time>2025-12-27T23:03:18.000Z</time></trkpt>
        <trkpt lat="29.3212005" lon="103.5332476"><ele>907.76</ele><time>2025-12-27T23:03:24.000Z</time></trkpt>
        <trkpt lat="29.3211163" lon="103.5332034"><ele>907.68</ele><time>2025-12-27T23:03:30.000Z</time></trkpt>
        <trkpt lat="29.3210081" lon="103.5332135"><ele>908.28</ele><time>2025-12-27T23:03:38.000Z</time></trkpt>
        <trkpt lat="29.3208916" lon="103.5332159"><ele>910.24</ele><time>2025-12-27T23:03:46.000Z</time></trkpt>
        <trkpt lat="29.3207744" lon="103.5332118"><ele>912.02</ele><time>2025-12-27T23:03:54.000Z</time></trkpt>
        <trkpt lat="29.3206643" lon="103.5331778"><ele>913.27</ele><time>2025-12-27T23:04:02.000Z</time></trkpt>
        <trkpt lat="29.3205577" lon="103.5331474"><ele>913.43</ele><time>2025-12-27T23:04:10.000Z</time></trkpt>
        <trkpt lat="29.3204672" lon="103.5330986"><ele>912.47</ele><time>2025-12-27T23:04:18.000Z</time></trkpt>
        <trkpt lat="29.3203798" lon="103.5330232"><ele>911.9</ele><time>2025-12-27T23:04:26.000Z</time></trkpt>
        <trkpt lat="29.3203157" lon="103.5329311"><ele>912.05</ele><time>2025-12-27T23:04:34.000Z</time></trkpt>
        <trkpt lat="29.3202649" lon="103.5328307"><ele>913.3</ele><time>2025-12-27T23:04:42.000Z</time></trkpt>
        <trkpt lat="29.3202099" lon="103.5327266"><ele>913.96</ele><time>2025-12-27T23:04:48.000Z</time></trkpt>
        <trkpt lat="29.3201203" lon="103.5326459"><ele>913.68</ele><time>2025-12-27T23:04:56.000Z</time></trkpt>
        <trkpt lat="29.3200122" lon="103.532608"><ele>913.16</ele><time>2025-12-27T23:05:04.000Z</time></trkpt>
        <trkpt lat="29.3198969" lon="103.5325938"><ele>913.86</ele><time>2025-12-27T23:05:12.000Z</time></trkpt>
        <trkpt lat="29.3197909" lon="103.5325564"><ele>915.97</ele><time>2025-12-27T23:05:20.000Z</time></trkpt>
        <trkpt lat="29.3196906" lon="103.5325074"><ele>918.72</ele><time>2025-12-27T23:05:28.000Z</time></trkpt>
        <trkpt lat="29.3195852" lon="103.5324955"><ele>920.23</ele><time>2025-12-27T23:05:36.000Z</time></trkpt>
        <trkpt lat="29.319475" lon="103.5325085"><ele>920.52</ele><time>2025-12-27T23:05:44.000Z</time></trkpt>
        <trkpt lat="29.3193701" lon="103.5325202"><ele>921.8</ele><time>2025-12-27T23:05:52.000Z</time></trkpt>
        <trkpt lat="29.3192639" lon="103.5324974"><ele>923.41</ele><time>2025-12-27T23:06:00.000Z</time></trkpt>
        <trkpt lat="29.3191583" lon="103.5324732"><ele>924.07</ele><time>2025-12-27T23:06:08.000Z</time></trkpt>
        <trkpt lat="29.3190574" lon="103.5324829"><ele>924.82</ele><time>2025-12-27T23:06:16.000Z</time></trkpt>
        <trkpt lat="29.3189701" lon="103.5325267"><ele>925.57</ele><time>2025-12-27T23:06:24.000Z</time></trkpt>
        <trkpt lat="29.3188759" lon="103.5325754"><ele>925.93</ele><time>2025-12-27T23:06:32.000Z</time></trkpt>
        <trkpt lat="29.3187814" lon="103.5326218"><ele>927.41</ele><time>2025-12-27T23:06:40.000Z</time></trkpt>
        <trkpt lat="29.3186822" lon="103.5326481"><ele>929.03</ele><time>2025-12-27T23:06:48.000Z</time></trkpt>
        <trkpt lat="29.3185802" lon="103.5326772"><ele>928.79</ele><time>2025-12-27T23:06:56.000Z</time></trkpt>
        <trkpt lat="29.3184793" lon="103.532704"><ele>928.92</ele><time>2025-12-27T23:07:04.000Z</time></trkpt>
        <trkpt lat="29.3183735" lon="103.5327433"><ele>928.93</ele><time>2025-12-27T23:07:12.000Z</time></trkpt>
        <trkpt lat="29.3182656" lon="103.5327285"><ele>928.31</ele><time>2025-12-27T23:07:20.000Z</time></trkpt>
        <trkpt lat="29.3181718" lon="103.5326798"><ele>925.04</ele><time>2025-12-27T23:07:28.000Z</time></trkpt>
        <trkpt lat="29.3180786" lon="103.5326245"><ele>921.75</ele><time>2025-12-27T23:07:36.000Z</time></trkpt>
        <trkpt lat="29.3179766" lon="103.5326038"><ele>919.29</ele><time>2025-12-27T23:07:48.000Z</time></trkpt>
        <trkpt lat="29.3178986" lon="103.5325325"><ele>917.38</ele><time>2025-12-27T23:07:56.000Z</time></trkpt>
        <trkpt lat="29.3178584" lon="103.5324287"><ele>914.19</ele><time>2025-12-27T23:08:04.000Z</time></trkpt>
        <trkpt lat="29.3177945" lon="103.5323536"><ele>910.22</ele><time>2025-12-27T23:08:12.000Z</time></trkpt>
        <trkpt lat="29.3177128" lon="103.532282"><ele>907.45</ele><time>2025-12-27T23:08:20.000Z</time></trkpt>
        <trkpt lat="29.3176402" lon="103.5321918"><ele>905.07</ele><time>2025-12-27T23:08:28.000Z</time></trkpt>
        <trkpt lat="29.3175736" lon="103.5321035"><ele>902.3</ele><time>2025-12-27T23:08:36.000Z</time></trkpt>
        <trkpt lat="29.3174918" lon="103.5320237"><ele>901.22</ele><time>2025-12-27T23:08:44.000Z</time></trkpt>
        <trkpt lat="29.3174211" lon="103.5319153"><ele>899.13</ele><time>2025-12-27T23:08:52.000Z</time></trkpt>
        <trkpt lat="29.3173634" lon="103.5317991"><ele>896.21</ele><time>2025-12-27T23:08:58.000Z</time></trkpt>
        <trkpt lat="29.317297" lon="103.5316998"><ele>894.17</ele><time>2025-12-27T23:09:04.000Z</time></trkpt>
        <trkpt lat="29.3172097" lon="103.5316239"><ele>892.36</ele><time>2025-12-27T23:09:10.000Z</time></trkpt>
        <trkpt lat="29.3171427" lon="103.5315438"><ele>891.23</ele><time>2025-12-27T23:09:16.000Z</time></trkpt>
        <trkpt lat="29.3170855" lon="103.531446"><ele>889.65</ele><time>2025-12-27T23:09:22.000Z</time></trkpt>
        <trkpt lat="29.3170333" lon="103.5313531"><ele>887.32</ele><time>2025-12-27T23:09:28.000Z</time></trkpt>
        <trkpt lat="29.3169664" lon="103.5312705"><ele>884.13</ele><time>2025-12-27T23:09:34.000Z</time></trkpt>
        <trkpt lat="29.3168859" lon="103.5312055"><ele>881.81</ele><time>2025-12-27T23:09:40.000Z</time></trkpt>
        <trkpt lat="29.3167857" lon="103.5311596"><ele>879.67</ele><time>2025-12-27T23:09:46.000Z</time></trkpt>
        <trkpt lat="29.3166874" lon="103.5311125"><ele>878.31</ele><time>2025-12-27T23:09:52.000Z</time></trkpt>
        <trkpt lat="29.3165969" lon="103.5310604"><ele>877.23</ele><time>2025-12-27T23:09:58.000Z</time></trkpt>
        <trkpt lat="29.3165189" lon="103.5309846"><ele>875.34</ele><time>2025-12-27T23:10:04.000Z</time></trkpt>
        <trkpt lat="29.3164363" lon="103.5308985"><ele>873.53</ele><time>2025-12-27T23:10:12.000Z</time></trkpt>
        <trkpt lat="29.3163491" lon="103.5308287"><ele>872.18</ele><time>2025-12-27T23:10:20.000Z</time></trkpt>
        <trkpt lat="29.3162544" lon="103.5307812"><ele>870.89</ele><time>2025-12-27T23:10:28.000Z</time></trkpt>
        <trkpt lat="29.3161468" lon="103.5307628"><ele>869.84</ele><time>2025-12-27T23:10:36.000Z</time></trkpt>
        <trkpt lat="29.3160475" lon="103.5307364"><ele>868.7</ele><time>2025-12-27T23:10:42.000Z</time></trkpt>
        <trkpt lat="29.3159524" lon="103.5306747"><ele>868.22</ele><time>2025-12-27T23:10:50.000Z</time></trkpt>
        <trkpt lat="29.3158429" lon="103.5306743"><ele>867.3</ele><time>2025-12-27T23:10:58.000Z</time></trkpt>
        <trkpt lat="29.3157536" lon="103.5307276"><ele>866.52</ele><time>2025-12-27T23:11:04.000Z</time></trkpt>
        <trkpt lat="29.3156855" lon="103.5308073"><ele>865.73</ele><time>2025-12-27T23:11:10.000Z</time></trkpt>
        <trkpt lat="29.3156009" lon="103.5308637"><ele>865.92</ele><time>2025-12-27T23:11:16.000Z</time></trkpt>
        <trkpt lat="29.3155067" lon="103.5308524"><ele>866.05</ele><time>2025-12-27T23:11:22.000Z</time></trkpt>
        <trkpt lat="29.3154091" lon="103.5308401"><ele>865.29</ele><time>2025-12-27T23:11:28.000Z</time></trkpt>
        <trkpt lat="29.3153172" lon="103.5308535"><ele>864.14</ele><time>2025-12-27T23:11:34.000Z</time></trkpt>
        <trkpt lat="29.315212" lon="103.5308757"><ele>863.45</ele><time>2025-12-27T23:11:42.000Z</time></trkpt>
        <trkpt lat="29.3151582" lon="103.5308718"><ele>862.54</ele><time>2025-12-27T23:11:46.000Z</time></trkpt>
        <trkpt lat="29.3151125" lon="103.5309511"><ele>862.32</ele><time>2025-12-27T23:11:56.000Z</time></trkpt>
        <trkpt lat="29.3150922" lon="103.5310591"><ele>860.28</ele><time>2025-12-27T23:12:02.000Z</time></trkpt>
        <trkpt lat="29.3150916" lon="103.5311939"><ele>857.89</ele><time>2025-12-27T23:12:08.000Z</time></trkpt>
        <trkpt lat="29.3150883" lon="103.5313163"><ele>855.94</ele><time>2025-12-27T23:12:14.000Z</time></trkpt>
        <trkpt lat="29.3150588" lon="103.5314258"><ele>855.33</ele><time>2025-12-27T23:12:20.000Z</time></trkpt>
        <trkpt lat="29.3150018" lon="103.5315114"><ele>855.1</ele><time>2025-12-27T23:12:26.000Z</time></trkpt>
        <trkpt lat="29.3149197" lon="103.5315659"><ele>854.12</ele><time>2025-12-27T23:12:32.000Z</time></trkpt>
        <trkpt lat="29.3148128" lon="103.5316024"><ele>851.99</ele><time>2025-12-27T23:12:38.000Z</time></trkpt>
        <trkpt lat="29.3146895" lon="103.5316276"><ele>850.04</ele><time>2025-12-27T23:12:44.000Z</time></trkpt>
        <trkpt lat="29.314584" lon="103.5315874"><ele>847.97</ele><time>2025-12-27T23:12:50.000Z</time></trkpt>
        <trkpt lat="29.3145145" lon="103.5314855"><ele>845.31</ele><time>2025-12-27T23:12:56.000Z</time></trkpt>
        <trkpt lat="29.3144527" lon="103.5313742"><ele>842.81</ele><time>2025-12-27T23:13:02.000Z</time></trkpt>
        <trkpt lat="29.3143959" lon="103.5312682"><ele>839.74</ele><time>2025-12-27T23:13:08.000Z</time></trkpt>
        <trkpt lat="29.3143519" lon="103.5311668"><ele>837.12</ele><time>2025-12-27T23:13:14.000Z</time></trkpt>
        <trkpt lat="29.3142997" lon="103.5310675"><ele>834.6</ele><time>2025-12-27T23:13:20.000Z</time></trkpt>
        <trkpt lat="29.3142194" lon="103.5309852"><ele>831.95</ele><time>2025-12-27T23:13:28.000Z</time></trkpt>
        <trkpt lat="29.3142432" lon="103.5308846"><ele>830.33</ele><time>2025-12-27T23:13:36.000Z</time></trkpt>
        <trkpt lat="29.3142226" lon="103.5307881"><ele>827.77</ele><time>2025-12-27T23:13:50.000Z</time></trkpt>
        <trkpt lat="29.3142129" lon="103.5306771"><ele>824.75</ele><time>2025-12-27T23:14:00.000Z</time></trkpt>
        <trkpt lat="29.3141743" lon="103.5305786"><ele>821.57</ele><time>2025-12-27T23:14:12.000Z</time></trkpt>
        <trkpt lat="29.3141945" lon="103.5304686"><ele>818.49</ele><time>2025-12-27T23:14:20.000Z</time></trkpt>
        <trkpt lat="29.3142358" lon="103.5303537"><ele>816.21</ele><time>2025-12-27T23:14:28.000Z</time></trkpt>
        <trkpt lat="29.3142524" lon="103.5303156"><ele>814.28</ele><time>2025-12-27T23:14:30.000Z</time></trkpt>
        <trkpt lat="29.314287" lon="103.5302436"><ele>813.37</ele><time>2025-12-27T23:14:44.000Z</time></trkpt>
        <trkpt lat="29.3143106" lon="103.530138"><ele>812.22</ele><time>2025-12-27T23:14:54.000Z</time></trkpt>
        <trkpt lat="29.314346" lon="103.5300258"><ele>809.97</ele><time>2025-12-27T23:15:02.000Z</time></trkpt>
        <trkpt lat="29.3143915" lon="103.5299079"><ele>807.4</ele><time>2025-12-27T23:15:10.000Z</time></trkpt>
        <trkpt lat="29.3143904" lon="103.5297874"><ele>805.53</ele><time>2025-12-27T23:15:18.000Z</time></trkpt>
        <trkpt lat="29.3143457" lon="103.5296764"><ele>804.5</ele><time>2025-12-27T23:15:26.000Z</time></trkpt>
        <trkpt lat="29.3143017" lon="103.5296149"><ele>803.95</ele><time>2025-12-27T23:15:32.000Z</time></trkpt>
        <trkpt lat="29.3142294" lon="103.5295634"><ele>804.03</ele><time>2025-12-27T23:15:44.000Z</time></trkpt>
        <trkpt lat="29.3141619" lon="103.5295856"><ele>803.97</ele><time>2025-12-27T23:15:54.000Z</time></trkpt>
        <trkpt lat="29.3141468" lon="103.529518"><ele>804.31</ele><time>2025-12-27T23:16:28.000Z</time></trkpt>
        <trkpt lat="29.3141793" lon="103.5293996"><ele>803.37</ele><time>2025-12-27T23:16:36.000Z</time></trkpt>
        <trkpt lat="29.3142381" lon="103.5292842"><ele>802.31</ele><time>2025-12-27T23:16:44.000Z</time></trkpt>
        <trkpt lat="29.31431" lon="103.5291888"><ele>801.84</ele><time>2025-12-27T23:16:52.000Z</time></trkpt>
        <trkpt lat="29.3143682" lon="103.5290958"><ele>799.91</ele><time>2025-12-27T23:17:00.000Z</time></trkpt>
        <trkpt lat="29.314429" lon="103.5290023"><ele>798.26</ele><time>2025-12-27T23:17:08.000Z</time></trkpt>
        <trkpt lat="29.3144841" lon="103.5288985"><ele>796.13</ele><time>2025-12-27T23:17:16.000Z</time></trkpt>
        <trkpt lat="29.3145076" lon="103.5287926"><ele>792.42</ele><time>2025-12-27T23:17:22.000Z</time></trkpt>
        <trkpt lat="29.31454" lon="103.5286703"><ele>789.12</ele><time>2025-12-27T23:17:30.000Z</time></trkpt>
        <trkpt lat="29.314593" lon="103.5285653"><ele>787.25</ele><time>2025-12-27T23:17:38.000Z</time></trkpt>
        <trkpt lat="29.3146228" lon="103.5284613"><ele>785.68</ele><time>2025-12-27T23:17:46.000Z</time></trkpt>
        <trkpt lat="29.3146053" lon="103.5283527"><ele>784.53</ele><time>2025-12-27T23:17:54.000Z</time></trkpt>
        <trkpt lat="29.3145814" lon="103.5282347"><ele>783.79</ele><time>2025-12-27T23:18:02.000Z</time></trkpt>
        <trkpt lat="29.3145754" lon="103.5281132"><ele>784.09</ele><time>2025-12-27T23:18:14.000Z</time></trkpt>
        <trkpt lat="29.3145398" lon="103.5279925"><ele>783.21</ele><time>2025-12-27T23:18:22.000Z</time></trkpt>
        <trkpt lat="29.3144475" lon="103.5279445"><ele>782.43</ele><time>2025-12-27T23:18:30.000Z</time></trkpt>
        <trkpt lat="29.3143451" lon="103.5278902"><ele>781.11</ele><time>2025-12-27T23:18:40.000Z</time></trkpt>
        <trkpt lat="29.3142545" lon="103.5278372"><ele>780.5</ele><time>2025-12-27T23:18:46.000Z</time></trkpt>
        <trkpt lat="29.3141552" lon="103.5278061"><ele>779.82</ele><time>2025-12-27T23:18:54.000Z</time></trkpt>
        <trkpt lat="29.3140407" lon="103.5278141"><ele>779.59</ele><time>2025-12-27T23:19:02.000Z</time></trkpt>
        <trkpt lat="29.3139528" lon="103.5278649"><ele>778.78</ele><time>2025-12-27T23:19:08.000Z</time></trkpt>
        <trkpt lat="29.3138685" lon="103.5279447"><ele>777.97</ele><time>2025-12-27T23:19:16.000Z</time></trkpt>
        <trkpt lat="29.3137862" lon="103.5280149"><ele>776.91</ele><time>2025-12-27T23:19:24.000Z</time></trkpt>
        <trkpt lat="29.3137022" lon="103.5280041"><ele>777</ele><time>2025-12-27T23:19:32.000Z</time></trkpt>
        <trkpt lat="29.3136098" lon="103.528009"><ele>777.27</ele><time>2025-12-27T23:19:40.000Z</time></trkpt>
        <trkpt lat="29.3135067" lon="103.5279744"><ele>776.93</ele><time>2025-12-27T23:19:48.000Z</time></trkpt>
        <trkpt lat="29.3133989" lon="103.5279392"><ele>775.21</ele><time>2025-12-27T23:19:58.000Z</time></trkpt>
        <trkpt lat="29.3132964" lon="103.527921"><ele>773.37</ele><time>2025-12-27T23:20:04.000Z</time></trkpt>
        <trkpt lat="29.3131918" lon="103.5279304"><ele>772.87</ele><time>2025-12-27T23:20:12.000Z</time></trkpt>
        <trkpt lat="29.3131712" lon="103.5278552"><ele>773.79</ele><time>2025-12-27T23:20:20.000Z</time></trkpt>
        <trkpt lat="29.3131596" lon="103.5277513"><ele>775.63</ele><time>2025-12-27T23:20:32.000Z</time></trkpt>
        <trkpt lat="29.3131538" lon="103.5276272"><ele>777.65</ele><time>2025-12-27T23:20:44.000Z</time></trkpt>
        <trkpt lat="29.3131273" lon="103.5275134"><ele>779.35</ele><time>2025-12-27T23:20:56.000Z</time></trkpt>
        <trkpt lat="29.3131203" lon="103.527404"><ele>780.86</ele><time>2025-12-27T23:21:10.000Z</time></trkpt>
        <trkpt lat="29.3130618" lon="103.5274221"><ele>781.59</ele><time>2025-12-27T23:21:28.000Z</time></trkpt>
        <trkpt lat="29.3130112" lon="103.527528"><ele>783.21</ele><time>2025-12-27T23:21:40.000Z</time></trkpt>
        <trkpt lat="29.3129556" lon="103.5276482"><ele>783.65</ele><time>2025-12-27T23:21:48.000Z</time></trkpt>
        <trkpt lat="29.3128892" lon="103.5277574"><ele>783.53</ele><time>2025-12-27T23:21:58.000Z</time></trkpt>
        <trkpt lat="29.3128118" lon="103.5277362"><ele>784.18</ele><time>2025-12-27T23:22:08.000Z</time></trkpt>
        <trkpt lat="29.3127151" lon="103.5277285"><ele>784.22</ele><time>2025-12-27T23:22:18.000Z</time></trkpt>
        <trkpt lat="29.3126241" lon="103.527672"><ele>783.24</ele><time>2025-12-27T23:22:28.000Z</time></trkpt>
        <trkpt lat="29.3125433" lon="103.5276016"><ele>783.09</ele><time>2025-12-27T23:22:40.000Z</time></trkpt>
        <trkpt lat="29.3124565" lon="103.527585"><ele>784.66</ele><time>2025-12-27T23:22:52.000Z</time></trkpt>
        <trkpt lat="29.3123684" lon="103.5276118"><ele>787.47</ele><time>2025-12-27T23:23:02.000Z</time></trkpt>
        <trkpt lat="29.3122698" lon="103.5276251"><ele>789.9</ele><time>2025-12-27T23:23:14.000Z</time></trkpt>
        <trkpt lat="29.3121769" lon="103.5276016"><ele>791.2</ele><time>2025-12-27T23:23:28.000Z</time></trkpt>
        <trkpt lat="29.3120779" lon="103.5275885"><ele>793.55</ele><time>2025-12-27T23:23:40.000Z</time></trkpt>
        <trkpt lat="29.3119796" lon="103.5275667"><ele>796.83</ele><time>2025-12-27T23:23:52.000Z</time></trkpt>
        <trkpt lat="29.311884" lon="103.5276052"><ele>800.05</ele><time>2025-12-27T23:24:04.000Z</time></trkpt>
        <trkpt lat="29.3117875" lon="103.5276485"><ele>803.81</ele><time>2025-12-27T23:24:14.000Z</time></trkpt>
        <trkpt lat="29.3116896" lon="103.5276866"><ele>805.5</ele><time>2025-12-27T23:24:24.000Z</time></trkpt>
        <trkpt lat="29.3115919" lon="103.5276987"><ele>807.38</ele><time>2025-12-27T23:24:32.000Z</time></trkpt>
        <trkpt lat="29.311489" lon="103.5277033"><ele>808.37</ele><time>2025-12-27T23:24:42.000Z</time></trkpt>
        <trkpt lat="29.3113921" lon="103.5277019"><ele>809.54</ele><time>2025-12-27T23:24:50.000Z</time></trkpt>
        <trkpt lat="29.3113029" lon="103.5277257"><ele>810.78</ele><time>2025-12-27T23:25:00.000Z</time></trkpt>
        <trkpt lat="29.3112674" lon="103.5276573"><ele>812.01</ele><time>2025-12-27T23:25:24.000Z</time></trkpt>
        <trkpt lat="29.3112049" lon="103.5275816"><ele>813.79</ele><time>2025-12-27T23:25:52.000Z</time></trkpt>
        <trkpt lat="29.3111155" lon="103.5275636"><ele>816.7</ele><time>2025-12-27T23:26:02.000Z</time></trkpt>
        <trkpt lat="29.3110291" lon="103.5275993"><ele>818.63</ele><time>2025-12-27T23:26:12.000Z</time></trkpt>
        <trkpt lat="29.3109347" lon="103.5276485"><ele>819.96</ele><time>2025-12-27T23:26:24.000Z</time></trkpt>
        <trkpt lat="29.3108476" lon="103.5277178"><ele>821.7</ele><time>2025-12-27T23:26:34.000Z</time></trkpt>
        <trkpt lat="29.3107632" lon="103.5277958"><ele>822.88</ele><time>2025-12-27T23:26:44.000Z</time></trkpt>
        <trkpt lat="29.310681" lon="103.5278621"><ele>824.19</ele><time>2025-12-27T23:26:54.000Z</time></trkpt>
        <trkpt lat="29.3105914" lon="103.527918"><ele>826.17</ele><time>2025-12-27T23:27:06.000Z</time></trkpt>
        <trkpt lat="29.3105039" lon="103.5279053"><ele>828.17</ele><time>2025-12-27T23:27:18.000Z</time></trkpt>
        <trkpt lat="29.3104267" lon="103.5278478"><ele>830.83</ele><time>2025-12-27T23:27:30.000Z</time></trkpt>
        <trkpt lat="29.3103483" lon="103.52778"><ele>833.59</ele><time>2025-12-27T23:27:40.000Z</time></trkpt>
        <trkpt lat="29.3102533" lon="103.5277551"><ele>836.89</ele><time>2025-12-27T23:27:54.000Z</time></trkpt>
        <trkpt lat="29.3102055" lon="103.5276729"><ele>840.06</ele><time>2025-12-27T23:28:02.000Z</time></trkpt>
        <trkpt lat="29.3101428" lon="103.5276004"><ele>843.3</ele><time>2025-12-27T23:28:12.000Z</time></trkpt>
        <trkpt lat="29.3100728" lon="103.527535"><ele>845.87</ele><time>2025-12-27T23:28:22.000Z</time></trkpt>
        <trkpt lat="29.3099944" lon="103.5274758"><ele>846.17</ele><time>2025-12-27T23:28:30.000Z</time></trkpt>
        <trkpt lat="29.3099113" lon="103.5274188"><ele>845.85</ele><time>2025-12-27T23:28:38.000Z</time></trkpt>
        <trkpt lat="29.3098348" lon="103.5273565"><ele>846.23</ele><time>2025-12-27T23:28:50.000Z</time></trkpt>
        <trkpt lat="29.3097762" lon="103.5273073"><ele>847.19</ele><time>2025-12-27T23:29:04.000Z</time></trkpt>
        <trkpt lat="29.3096919" lon="103.527291"><ele>847.08</ele><time>2025-12-27T23:29:20.000Z</time></trkpt>
        <trkpt lat="29.3096122" lon="103.5272399"><ele>844.69</ele><time>2025-12-27T23:29:28.000Z</time></trkpt>
        <trkpt lat="29.3095591" lon="103.5271458"><ele>842.36</ele><time>2025-12-27T23:29:36.000Z</time></trkpt>
        <trkpt lat="29.3094931" lon="103.5270398"><ele>839.91</ele><time>2025-12-27T23:29:44.000Z</time></trkpt>
        <trkpt lat="29.3094076" lon="103.5269933"><ele>838.02</ele><time>2025-12-27T23:29:56.000Z</time></trkpt>
        <trkpt lat="29.3093047" lon="103.5270058"><ele>835.42</ele><time>2025-12-27T23:30:04.000Z</time></trkpt>
        <trkpt lat="29.3092059" lon="103.5270428"><ele>833.29</ele><time>2025-12-27T23:30:12.000Z</time></trkpt>
        <trkpt lat="29.3091095" lon="103.5270552"><ele>831.67</ele><time>2025-12-27T23:30:26.000Z</time></trkpt>
        <trkpt lat="29.309041" lon="103.5269814"><ele>832.33</ele><time>2025-12-27T23:30:46.000Z</time></trkpt>
        <trkpt lat="29.3090167" lon="103.5268722"><ele>832.72</ele><time>2025-12-27T23:30:58.000Z</time></trkpt>
        <trkpt lat="29.3090331" lon="103.5267593"><ele>834.42</ele><time>2025-12-27T23:31:08.000Z</time></trkpt>
        <trkpt lat="29.3090522" lon="103.5266489"><ele>834.84</ele><time>2025-12-27T23:31:16.000Z</time></trkpt>
        <trkpt lat="29.3090615" lon="103.526614"><ele>836.78</ele><time>2025-12-27T23:31:18.000Z</time></trkpt>
        <trkpt lat="29.3090852" lon="103.5265382"><ele>838.23</ele><time>2025-12-27T23:31:34.000Z</time></trkpt>
        <trkpt lat="29.3091041" lon="103.526441"><ele>838.45</ele><time>2025-12-27T23:31:42.000Z</time></trkpt>
        <trkpt lat="29.3090833" lon="103.5263214"><ele>838.47</ele><time>2025-12-27T23:31:52.000Z</time></trkpt>
        <trkpt lat="29.3090501" lon="103.5261949"><ele>839.41</ele><time>2025-12-27T23:32:02.000Z</time></trkpt>
        <trkpt lat="29.3090371" lon="103.5260758"><ele>840.64</ele><time>2025-12-27T23:32:10.000Z</time></trkpt>
        <trkpt lat="29.3090027" lon="103.5259743"><ele>842.22</ele><time>2025-12-27T23:32:20.000Z</time></trkpt>
        <trkpt lat="29.3089865" lon="103.5258538"><ele>845.85</ele><time>2025-12-27T23:32:32.000Z</time></trkpt>
        <trkpt lat="29.3089733" lon="103.5258295"><ele>848.33</ele><time>2025-12-27T23:32:34.000Z</time></trkpt>
        <trkpt lat="29.3090067" lon="103.5257667"><ele>849.3</ele><time>2025-12-27T23:32:52.000Z</time></trkpt>
        <trkpt lat="29.3090131" lon="103.5256633"><ele>850.7</ele><time>2025-12-27T23:33:00.000Z</time></trkpt>
        <trkpt lat="29.3090311" lon="103.525552"><ele>852.33</ele><time>2025-12-27T23:33:08.000Z</time></trkpt>
        <trkpt lat="29.3090391" lon="103.5254379"><ele>852.3</ele><time>2025-12-27T23:33:20.000Z</time></trkpt>
        <trkpt lat="29.3090383" lon="103.5253994"><ele>853.32</ele><time>2025-12-27T23:33:24.000Z</time></trkpt>
        <trkpt lat="29.3090549" lon="103.5253178"><ele>854.28</ele><time>2025-12-27T23:34:34.000Z</time></trkpt>
        <trkpt lat="29.3090798" lon="103.5252282"><ele>853.67</ele><time>2025-12-27T23:34:44.000Z</time></trkpt>
        <trkpt lat="29.3090374" lon="103.5252964"><ele>851.58</ele><time>2025-12-27T23:35:10.000Z</time></trkpt>
        <trkpt lat="29.3089698" lon="103.5253791"><ele>852.59</ele><time>2025-12-27T23:35:18.000Z</time></trkpt>
        <trkpt lat="29.3089577" lon="103.5254884"><ele>859.2</ele><time>2025-12-27T23:35:26.000Z</time></trkpt>
        <trkpt lat="29.3090326" lon="103.5255145"><ele>862.38</ele><time>2025-12-27T23:35:38.000Z</time></trkpt>
        <trkpt lat="29.3091139" lon="103.5254363"><ele>859.96</ele><time>2025-12-27T23:35:46.000Z</time></trkpt>
        <trkpt lat="29.3091784" lon="103.5253337"><ele>857.64</ele><time>2025-12-27T23:35:52.000Z</time></trkpt>
        <trkpt lat="29.3092224" lon="103.525222"><ele>855.14</ele><time>2025-12-27T23:36:02.000Z</time></trkpt>
        <trkpt lat="29.3092662" lon="103.5251058"><ele>854.85</ele><time>2025-12-27T23:36:12.000Z</time></trkpt>
        <trkpt lat="29.3093026" lon="103.5250014"><ele>856.01</ele><time>2025-12-27T23:36:20.000Z</time></trkpt>
        <trkpt lat="29.3093346" lon="103.5248977"><ele>857.43</ele><time>2025-12-27T23:36:28.000Z</time></trkpt>
        <trkpt lat="29.3093731" lon="103.5247977"><ele>858.68</ele><time>2025-12-27T23:36:36.000Z</time></trkpt>
        <trkpt lat="29.3094003" lon="103.5246976"><ele>859.51</ele><time>2025-12-27T23:36:44.000Z</time></trkpt>
        <trkpt lat="29.3094345" lon="103.5245908"><ele>861.28</ele><time>2025-12-27T23:36:54.000Z</time></trkpt>
        <trkpt lat="29.3094927" lon="103.5244863"><ele>863.57</ele><time>2025-12-27T23:37:04.000Z</time></trkpt>
        <trkpt lat="29.3095396" lon="103.5243889"><ele>863.73</ele><time>2025-12-27T23:37:12.000Z</time></trkpt>
        <trkpt lat="29.3096062" lon="103.5243"><ele>863.38</ele><time>2025-12-27T23:37:22.000Z</time></trkpt>
        <trkpt lat="29.3096448" lon="103.5242037"><ele>863.11</ele><time>2025-12-27T23:37:32.000Z</time></trkpt>
        <trkpt lat="29.3096824" lon="103.524108"><ele>864.56</ele><time>2025-12-27T23:37:42.000Z</time></trkpt>
        <trkpt lat="29.3096603" lon="103.5240193"><ele>866.64</ele><time>2025-12-27T23:38:02.000Z</time></trkpt>
        <trkpt lat="29.3095744" lon="103.5239628"><ele>868.96</ele><time>2025-12-27T23:38:22.000Z</time></trkpt>
        <trkpt lat="29.3094762" lon="103.5239261"><ele>872</ele><time>2025-12-27T23:38:36.000Z</time></trkpt>
        <trkpt lat="29.3093736" lon="103.5239504"><ele>873.57</ele><time>2025-12-27T23:38:48.000Z</time></trkpt>
        <trkpt lat="29.3093131" lon="103.5238939"><ele>873.3</ele><time>2025-12-27T23:39:06.000Z</time></trkpt>
        <trkpt lat="29.3093228" lon="103.5239103"><ele>875.21</ele><time>2025-12-27T23:39:18.000Z</time></trkpt>
        <trkpt lat="29.3093239" lon="103.5238389"><ele>874.89</ele><time>2025-12-27T23:39:50.000Z</time></trkpt>
        <trkpt lat="29.3092509" lon="103.5238228"><ele>876.17</ele><time>2025-12-27T23:40:04.000Z</time></trkpt>
        <trkpt lat="29.3091512" lon="103.523808"><ele>876.55</ele><time>2025-12-27T23:40:14.000Z</time></trkpt>
        <trkpt lat="29.3090525" lon="103.5237771"><ele>876.86</ele><time>2025-12-27T23:40:22.000Z</time></trkpt>
        <trkpt lat="29.308964" lon="103.5237223"><ele>877.37</ele><time>2025-12-27T23:40:30.000Z</time></trkpt>
        <trkpt lat="29.3088758" lon="103.5236541"><ele>878.36</ele><time>2025-12-27T23:40:40.000Z</time></trkpt>
        <trkpt lat="29.3088004" lon="103.5235827"><ele>879.51</ele><time>2025-12-27T23:40:50.000Z</time></trkpt>
        <trkpt lat="29.3087342" lon="103.5234991"><ele>880.37</ele><time>2025-12-27T23:40:58.000Z</time></trkpt>
        <trkpt lat="29.3086624" lon="103.523433"><ele>882.03</ele><time>2025-12-27T23:41:06.000Z</time></trkpt>
        <trkpt lat="29.3086206" lon="103.5233424"><ele>883.31</ele><time>2025-12-27T23:41:14.000Z</time></trkpt>
        <trkpt lat="29.308587" lon="103.5232445"><ele>883.3</ele><time>2025-12-27T23:41:22.000Z</time></trkpt>
        <trkpt lat="29.3085488" lon="103.5231502"><ele>883.71</ele><time>2025-12-27T23:41:30.000Z</time></trkpt>
        <trkpt lat="29.3085019" lon="103.5230433"><ele>883.54</ele><time>2025-12-27T23:41:38.000Z</time></trkpt>
        <trkpt lat="29.3084139" lon="103.5229781"><ele>884.14</ele><time>2025-12-27T23:41:46.000Z</time></trkpt>
        <trkpt lat="29.3083578" lon="103.5228895"><ele>886.26</ele><time>2025-12-27T23:41:56.000Z</time></trkpt>
        <trkpt lat="29.3082947" lon="103.5227992"><ele>888.62</ele><time>2025-12-27T23:42:06.000Z</time></trkpt>
        <trkpt lat="29.3082465" lon="103.5227038"><ele>890.28</ele><time>2025-12-27T23:42:20.000Z</time></trkpt>
        <trkpt lat="29.3081771" lon="103.5226237"><ele>891.16</ele><time>2025-12-27T23:42:32.000Z</time></trkpt>
        <trkpt lat="29.3080834" lon="103.5225791"><ele>892.85</ele><time>2025-12-27T23:42:44.000Z</time></trkpt>
        <trkpt lat="29.30799" lon="103.5225383"><ele>894.63</ele><time>2025-12-27T23:42:52.000Z</time></trkpt>
        <trkpt lat="29.3078993" lon="103.5225055"><ele>896.42</ele><time>2025-12-27T23:43:00.000Z</time></trkpt>
        <trkpt lat="29.3078081" lon="103.5224634"><ele>897.8</ele><time>2025-12-27T23:43:08.000Z</time></trkpt>
        <trkpt lat="29.3077514" lon="103.5223714"><ele>897.4</ele><time>2025-12-27T23:43:16.000Z</time></trkpt>
        <trkpt lat="29.3076967" lon="103.5222641"><ele>897.98</ele><time>2025-12-27T23:43:28.000Z</time></trkpt>
        <trkpt lat="29.3076632" lon="103.5221586"><ele>897.59</ele><time>2025-12-27T23:43:40.000Z</time></trkpt>
        <trkpt lat="29.3076816" lon="103.5222271"><ele>897.24</ele><time>2025-12-27T23:44:08.000Z</time></trkpt>
        <trkpt lat="29.3077486" lon="103.5223383"><ele>897.79</ele><time>2025-12-27T23:44:18.000Z</time></trkpt>
        <trkpt lat="29.3077562" lon="103.5224559"><ele>896.31</ele><time>2025-12-27T23:44:26.000Z</time></trkpt>
        <trkpt lat="29.3076753" lon="103.5224918"><ele>895.34</ele><time>2025-12-27T23:44:36.000Z</time></trkpt>
        <trkpt lat="29.3075735" lon="103.522515"><ele>894.04</ele><time>2025-12-27T23:44:46.000Z</time></trkpt>
        <trkpt lat="29.3074865" lon="103.5225727"><ele>891.77</ele><time>2025-12-27T23:44:54.000Z</time></trkpt>
        <trkpt lat="29.3074127" lon="103.5226439"><ele>891.22</ele><time>2025-12-27T23:45:18.000Z</time></trkpt>
        <trkpt lat="29.3073772" lon="103.5225821"><ele>889.06</ele><time>2025-12-27T23:45:44.000Z</time></trkpt>
        <trkpt lat="29.3073237" lon="103.5224793"><ele>888.74</ele><time>2025-12-27T23:45:56.000Z</time></trkpt>
        <trkpt lat="29.3072702" lon="103.5223701"><ele>890.34</ele><time>2025-12-27T23:46:06.000Z</time></trkpt>
        <trkpt lat="29.3072395" lon="103.5222406"><ele>891.82</ele><time>2025-12-27T23:46:14.000Z</time></trkpt>
        <trkpt lat="29.3071837" lon="103.5221302"><ele>892.99</ele><time>2025-12-27T23:46:22.000Z</time></trkpt>
        <trkpt lat="29.3071666" lon="103.5220142"><ele>893.59</ele><time>2025-12-27T23:46:32.000Z</time></trkpt>
        <trkpt lat="29.3072203" lon="103.5219197"><ele>894.03</ele><time>2025-12-27T23:46:42.000Z</time></trkpt>
        <trkpt lat="29.3072588" lon="103.5218679"><ele>893.52</ele><time>2025-12-27T23:47:00.000Z</time></trkpt>
        <trkpt lat="29.3071965" lon="103.5218624"><ele>891.71</ele><time>2025-12-27T23:47:16.000Z</time></trkpt>
        <trkpt lat="29.30711" lon="103.5218241"><ele>890.12</ele><time>2025-12-27T23:47:24.000Z</time></trkpt>
        <trkpt lat="29.3070927" lon="103.5217999"><ele>887.86</ele><time>2025-12-27T23:47:26.000Z</time></trkpt>
        <trkpt lat="29.3070199" lon="103.521766"><ele>886.37</ele><time>2025-12-27T23:48:06.000Z</time></trkpt>
        <trkpt lat="29.3070156" lon="103.5217423"><ele>882.42</ele><time>2025-12-27T23:48:10.000Z</time></trkpt>
        <trkpt lat="29.3069777" lon="103.5216696"><ele>879.6</ele><time>2025-12-27T23:48:24.000Z</time></trkpt>
        <trkpt lat="29.3068976" lon="103.5216005"><ele>878.31</ele><time>2025-12-27T23:48:42.000Z</time></trkpt>
        <trkpt lat="29.3067961" lon="103.5215479"><ele>876.74</ele><time>2025-12-27T23:48:52.000Z</time></trkpt>
        <trkpt lat="29.306688" lon="103.5215057"><ele>876.75</ele><time>2025-12-27T23:49:02.000Z</time></trkpt>
        <trkpt lat="29.3065905" lon="103.5215089"><ele>877.35</ele><time>2025-12-27T23:49:10.000Z</time></trkpt>
        <trkpt lat="29.3065022" lon="103.5215494"><ele>877.47</ele><time>2025-12-27T23:49:18.000Z</time></trkpt>
        <trkpt lat="29.3064504" lon="103.5216407"><ele>878.32</ele><time>2025-12-27T23:49:32.000Z</time></trkpt>
        <trkpt lat="29.306372" lon="103.5216983"><ele>879.05</ele><time>2025-12-27T23:49:42.000Z</time></trkpt>
        <trkpt lat="29.3062845" lon="103.5217272"><ele>879.18</ele><time>2025-12-27T23:50:00.000Z</time></trkpt>
        <trkpt lat="29.3061936" lon="103.5217398"><ele>877.9</ele><time>2025-12-27T23:50:46.000Z</time></trkpt>
        <trkpt lat="29.3061607" lon="103.5217382"><ele>876.3</ele><time>2025-12-27T23:50:50.000Z</time></trkpt>
        <trkpt lat="29.3061356" lon="103.5216608"><ele>875.49</ele><time>2025-12-27T23:51:50.000Z</time></trkpt>
        <trkpt lat="29.3061337" lon="103.5216309"><ele>873.89</ele><time>2025-12-27T23:51:52.000Z</time></trkpt>
        <trkpt lat="29.3060686" lon="103.5216293"><ele>872.38</ele><time>2025-12-27T23:52:18.000Z</time></trkpt>
        <trkpt lat="29.3060394" lon="103.5215496"><ele>869.86</ele><time>2025-12-27T23:52:34.000Z</time></trkpt>
        <trkpt lat="29.3060662" lon="103.521436"><ele>866.19</ele><time>2025-12-27T23:52:44.000Z</time></trkpt>
        <trkpt lat="29.3060294" lon="103.5213415"><ele>863.55</ele><time>2025-12-27T23:53:00.000Z</time></trkpt>
        <trkpt lat="29.3059506" lon="103.5212729"><ele>860.68</ele><time>2025-12-27T23:53:08.000Z</time></trkpt>
        <trkpt lat="29.3058439" lon="103.5212661"><ele>858.03</ele><time>2025-12-27T23:53:16.000Z</time></trkpt>
        <trkpt lat="29.305743" lon="103.521283"><ele>853.84</ele><time>2025-12-27T23:53:26.000Z</time></trkpt>
        <trkpt lat="29.305721" lon="103.5212152"><ele>849.77</ele><time>2025-12-27T23:53:34.000Z</time></trkpt>
        <trkpt lat="29.3056895" lon="103.5211226"><ele>846.54</ele><time>2025-12-27T23:53:50.000Z</time></trkpt>
        <trkpt lat="29.305691" lon="103.5210151"><ele>841.52</ele><time>2025-12-27T23:54:10.000Z</time></trkpt>
        <trkpt lat="29.3056569" lon="103.5209142"><ele>836.47</ele><time>2025-12-27T23:54:30.000Z</time></trkpt>
        <trkpt lat="29.3056802" lon="103.5208136"><ele>832.11</ele><time>2025-12-27T23:54:44.000Z</time></trkpt>
        <trkpt lat="29.30573" lon="103.5207116"><ele>829.43</ele><time>2025-12-27T23:55:02.000Z</time></trkpt>
        <trkpt lat="29.3058057" lon="103.5206279"><ele>825.33</ele><time>2025-12-27T23:55:14.000Z</time></trkpt>
        <trkpt lat="29.3058664" lon="103.5205353"><ele>821.22</ele><time>2025-12-27T23:55:28.000Z</time></trkpt>
        <trkpt lat="29.3059233" lon="103.5204457"><ele>817.64</ele><time>2025-12-27T23:56:00.000Z</time></trkpt>
        <trkpt lat="29.3059148" lon="103.5203628"><ele>814.56</ele><time>2025-12-27T23:56:18.000Z</time></trkpt>
        <trkpt lat="29.3058366" lon="103.5203488"><ele>814.38</ele><time>2025-12-27T23:56:46.000Z</time></trkpt>
        <trkpt lat="29.3057798" lon="103.5202727"><ele>811.22</ele><time>2025-12-27T23:59:02.000Z</time></trkpt>
        <trkpt lat="29.3058569" lon="103.520211"><ele>798.99</ele><time>2025-12-27T23:59:18.000Z</time></trkpt>
        <trkpt lat="29.3059298" lon="103.5201448"><ele>791.02</ele><time>2025-12-27T23:59:32.000Z</time></trkpt>
        <trkpt lat="29.3060056" lon="103.5200634"><ele>788.04</ele><time>2025-12-27T23:59:46.000Z</time></trkpt>
        <trkpt lat="29.3060461" lon="103.5199669"><ele>784.72</ele><time>2025-12-27T23:59:58.000Z</time></trkpt>
        <trkpt lat="29.3060982" lon="103.5198802"><ele>781.42</ele><time>2025-12-28T00:00:08.000Z</time></trkpt>
        <trkpt lat="29.3061709" lon="103.5198031"><ele>779.24</ele><time>2025-12-28T00:00:20.000Z</time></trkpt>
        <trkpt lat="29.3062526" lon="103.5197499"><ele>776.14</ele><time>2025-12-28T00:00:32.000Z</time></trkpt>
        <trkpt lat="29.3062638" lon="103.5196612"><ele>772.39</ele><time>2025-12-28T00:00:48.000Z</time></trkpt>
        <trkpt lat="29.3061963" lon="103.5196076"><ele>772.05</ele><time>2025-12-28T00:00:58.000Z</time></trkpt>
        <trkpt lat="29.3061356" lon="103.5195168"><ele>771.57</ele><time>2025-12-28T00:01:08.000Z</time></trkpt>
        <trkpt lat="29.3060519" lon="103.5194406"><ele>770.33</ele><time>2025-12-28T00:01:22.000Z</time></trkpt>
        <trkpt lat="29.3059619" lon="103.5193763"><ele>767.63</ele><time>2025-12-28T00:01:34.000Z</time></trkpt>
        <trkpt lat="29.3058653" lon="103.5193186"><ele>764.29</ele><time>2025-12-28T00:01:48.000Z</time></trkpt>
        <trkpt lat="29.305835" lon="103.5192993"><ele>761.92</ele><time>2025-12-28T00:01:52.000Z</time></trkpt>
        <trkpt lat="29.305847" lon="103.5192149"><ele>760.51</ele><time>2025-12-28T00:02:24.000Z</time></trkpt>
        <trkpt lat="29.3058646" lon="103.5191104"><ele>753.61</ele><time>2025-12-28T00:02:38.000Z</time></trkpt>
        <trkpt lat="29.3059476" lon="103.5190639"><ele>748.76</ele><time>2025-12-28T00:03:10.000Z</time></trkpt>
        <trkpt lat="29.3059192" lon="103.519013"><ele>745.15</ele><time>2025-12-28T00:03:22.000Z</time></trkpt>
        <trkpt lat="29.3058199" lon="103.5190131"><ele>743.35</ele><time>2025-12-28T00:03:30.000Z</time></trkpt>
        <trkpt lat="29.3057053" lon="103.5190066"><ele>740.2</ele><time>2025-12-28T00:03:38.000Z</time></trkpt>
        <trkpt lat="29.305603" lon="103.5190522"><ele>736.87</ele><time>2025-12-28T00:03:46.000Z</time></trkpt>
        <trkpt lat="29.3056007" lon="103.5190885"><ele>734.99</ele><time>2025-12-28T00:03:48.000Z</time></trkpt>
        <trkpt lat="29.3055379" lon="103.5190895"><ele>732.6</ele><time>2025-12-28T00:03:58.000Z</time></trkpt>
        <trkpt lat="29.3054434" lon="103.5191048"><ele>732.81</ele><time>2025-12-28T00:04:22.000Z</time></trkpt>
        <trkpt lat="29.3053881" lon="103.5190233"><ele>732.45</ele><time>2025-12-28T00:04:36.000Z</time></trkpt>
        <trkpt lat="29.30538" lon="103.5189123"><ele>731.2</ele><time>2025-12-28T00:04:48.000Z</time></trkpt>
        <trkpt lat="29.3054213" lon="103.5188064"><ele>728.62</ele><time>2025-12-28T00:05:00.000Z</time></trkpt>
        <trkpt lat="29.3055182" lon="103.5187617"><ele>725.57</ele><time>2025-12-28T00:05:08.000Z</time></trkpt>
        <trkpt lat="29.305536" lon="103.5186731"><ele>723.46</ele><time>2025-12-28T00:05:20.000Z</time></trkpt>
        <trkpt lat="29.3055081" lon="103.5185699"><ele>720.29</ele><time>2025-12-28T00:05:40.000Z</time></trkpt>
        <trkpt lat="29.3054642" lon="103.5184666"><ele>716.58</ele><time>2025-12-28T00:05:56.000Z</time></trkpt>
        <trkpt lat="29.305387" lon="103.518391"><ele>712.06</ele><time>2025-12-28T00:06:16.000Z</time></trkpt>
        <trkpt lat="29.3053902" lon="103.518302"><ele>708.51</ele><time>2025-12-28T00:06:30.000Z</time></trkpt>
        <trkpt lat="29.3053928" lon="103.5181969"><ele>704.85</ele><time>2025-12-28T00:06:50.000Z</time></trkpt>
        <trkpt lat="29.305331" lon="103.5181238"><ele>701.17</ele><time>2025-12-28T00:06:58.000Z</time></trkpt>
        <trkpt lat="29.3052579" lon="103.5180552"><ele>698.85</ele><time>2025-12-28T00:07:08.000Z</time></trkpt>
        <trkpt lat="29.3051762" lon="103.5179855"><ele>696.14</ele><time>2025-12-28T00:07:18.000Z</time></trkpt>
        <trkpt lat="29.3050983" lon="103.5179119"><ele>692.78</ele><time>2025-12-28T00:07:28.000Z</time></trkpt>
        <trkpt lat="29.3050143" lon="103.5178642"><ele>690.13</ele><time>2025-12-28T00:07:36.000Z</time></trkpt>
        <trkpt lat="29.3049175" lon="103.517812"><ele>688.06</ele><time>2025-12-28T00:07:48.000Z</time></trkpt>
        <trkpt lat="29.3048121" lon="103.517804"><ele>686.83</ele><time>2025-12-28T00:07:58.000Z</time></trkpt>
        <trkpt lat="29.3047227" lon="103.5178497"><ele>685.9</ele><time>2025-12-28T00:08:06.000Z</time></trkpt>
        <trkpt lat="29.3046352" lon="103.517836"><ele>685.94</ele><time>2025-12-28T00:08:20.000Z</time></trkpt>
        <trkpt lat="29.3045437" lon="103.5178546"><ele>684.23</ele><time>2025-12-28T00:08:30.000Z</time></trkpt>
        <trkpt lat="29.3044451" lon="103.5178775"><ele>684.2</ele><time>2025-12-28T00:08:40.000Z</time></trkpt>
        <trkpt lat="29.3043502" lon="103.5178885"><ele>683.17</ele><time>2025-12-28T00:08:48.000Z</time></trkpt>
        <trkpt lat="29.3042647" lon="103.517853"><ele>681.6</ele><time>2025-12-28T00:09:06.000Z</time></trkpt>
        <trkpt lat="29.3042428" lon="103.5178234"><ele>679.19</ele><time>2025-12-28T00:09:10.000Z</time></trkpt>
        <trkpt lat="29.3043114" lon="103.5177221"><ele>678.07</ele><time>2025-12-28T00:10:26.000Z</time></trkpt>
        <trkpt lat="29.3042751" lon="103.5176272"><ele>674.79</ele><time>2025-12-28T00:10:44.000Z</time></trkpt>
        <trkpt lat="29.3042411" lon="103.5175306"><ele>671.22</ele><time>2025-12-28T00:11:02.000Z</time></trkpt>
        <trkpt lat="29.3041776" lon="103.5174523"><ele>667.09</ele><time>2025-12-28T00:11:12.000Z</time></trkpt>
        <trkpt lat="29.3041179" lon="103.5173526"><ele>663.71</ele><time>2025-12-28T00:11:20.000Z</time></trkpt>
        <trkpt lat="29.3040433" lon="103.5172746"><ele>661.08</ele><time>2025-12-28T00:11:28.000Z</time></trkpt>
        <trkpt lat="29.303998" lon="103.5172366"><ele>658.98</ele><time>2025-12-28T00:11:34.000Z</time></trkpt>
        <trkpt lat="29.3039242" lon="103.5172062"><ele>656.69</ele><time>2025-12-28T00:11:50.000Z</time></trkpt>
        <trkpt lat="29.3038952" lon="103.5171086"><ele>655.38</ele><time>2025-12-28T00:12:20.000Z</time></trkpt>
        <trkpt lat="29.3038242" lon="103.5170951"><ele>652.33</ele><time>2025-12-28T00:12:34.000Z</time></trkpt>
        <trkpt lat="29.3037457" lon="103.5171496"><ele>651.43</ele><time>2025-12-28T00:12:42.000Z</time></trkpt>
        <trkpt lat="29.3036592" lon="103.5171371"><ele>650.92</ele><time>2025-12-28T00:13:00.000Z</time></trkpt>
        <trkpt lat="29.3035699" lon="103.5171056"><ele>647.2</ele><time>2025-12-28T00:13:20.000Z</time></trkpt>
        <trkpt lat="29.3034829" lon="103.5170599"><ele>642.69</ele><time>2025-12-28T00:13:48.000Z</time></trkpt>
        <trkpt lat="29.3033843" lon="103.5170547"><ele>636.99</ele><time>2025-12-28T00:14:18.000Z</time></trkpt>
        <trkpt lat="29.3033076" lon="103.5171108"><ele>631.17</ele><time>2025-12-28T00:14:38.000Z</time></trkpt>
        <trkpt lat="29.3032312" lon="103.5171851"><ele>625.34</ele><time>2025-12-28T00:15:02.000Z</time></trkpt>
        <trkpt lat="29.3032142" lon="103.5171784"><ele>616.74</ele><time>2025-12-28T00:15:14.000Z</time></trkpt>
        <trkpt lat="29.3031481" lon="103.5171595"><ele>611.07</ele><time>2025-12-28T00:15:48.000Z</time></trkpt>
        <trkpt lat="29.303163" lon="103.5171318"><ele>607.58</ele><time>2025-12-28T00:15:52.000Z</time></trkpt>
        <trkpt lat="29.3031945" lon="103.5170438"><ele>604.11</ele><time>2025-12-28T00:16:02.000Z</time></trkpt>
        <trkpt lat="29.3032131" lon="103.5169289"><ele>603.1</ele><time>2025-12-28T00:16:10.000Z</time></trkpt>
        <trkpt lat="29.303149" lon="103.5168468"><ele>601.52</ele><time>2025-12-28T00:16:16.000Z</time></trkpt>
        <trkpt lat="29.3030548" lon="103.5167747"><ele>600.38</ele><time>2025-12-28T00:16:24.000Z</time></trkpt>
        <trkpt lat="29.3029739" lon="103.5166971"><ele>601.47</ele><time>2025-12-28T00:16:34.000Z</time></trkpt>
        <trkpt lat="29.3029233" lon="103.5165923"><ele>600.48</ele><time>2025-12-28T00:16:46.000Z</time></trkpt>
        <trkpt lat="29.3028666" lon="103.5164897"><ele>599.26</ele><time>2025-12-28T00:16:56.000Z</time></trkpt>
        <trkpt lat="29.30284" lon="103.5163745"><ele>596.99</ele><time>2025-12-28T00:17:06.000Z</time></trkpt>
        <trkpt lat="29.3028145" lon="103.5162675"><ele>595.07</ele><time>2025-12-28T00:17:16.000Z</time></trkpt>
        <trkpt lat="29.3028013" lon="103.516153"><ele>593.47</ele><time>2025-12-28T00:17:24.000Z</time></trkpt>
        <trkpt lat="29.3027966" lon="103.5160452"><ele>592.81</ele><time>2025-12-28T00:17:36.000Z</time></trkpt>
        <trkpt lat="29.3027763" lon="103.5160246"><ele>590.22</ele><time>2025-12-28T00:17:42.000Z</time></trkpt>
        <trkpt lat="29.3026994" lon="103.515979"><ele>588.02</ele><time>2025-12-28T00:18:58.000Z</time></trkpt>
        <trkpt lat="29.3026356" lon="103.5159008"><ele>585.12</ele><time>2025-12-28T00:19:06.000Z</time></trkpt>
        <trkpt lat="29.3025659" lon="103.5158297"><ele>582.54</ele><time>2025-12-28T00:19:18.000Z</time></trkpt>
        <trkpt lat="29.3024828" lon="103.5157549"><ele>579.36</ele><time>2025-12-28T00:19:28.000Z</time></trkpt>
        <trkpt lat="29.3024512" lon="103.5157327"><ele>576.47</ele><time>2025-12-28T00:19:32.000Z</time></trkpt>
        <trkpt lat="29.3024058" lon="103.5156657"><ele>574.19</ele><time>2025-12-28T00:20:04.000Z</time></trkpt>
        <trkpt lat="29.3023363" lon="103.5155754"><ele>572.4</ele><time>2025-12-28T00:20:12.000Z</time></trkpt>
        <trkpt lat="29.3022863" lon="103.5154765"><ele>571.3</ele><time>2025-12-28T00:20:20.000Z</time></trkpt>
        <trkpt lat="29.3022317" lon="103.5153869"><ele>569.57</ele><time>2025-12-28T00:20:28.000Z</time></trkpt>
        <trkpt lat="29.3021564" lon="103.5153185"><ele>568.26</ele><time>2025-12-28T00:20:36.000Z</time></trkpt>
        <trkpt lat="29.3020734" lon="103.5152499"><ele>568.28</ele><time>2025-12-28T00:20:46.000Z</time></trkpt>
        <trkpt lat="29.3020093" lon="103.5151924"><ele>568.27</ele><time>2025-12-28T00:20:56.000Z</time></trkpt>
        <trkpt lat="29.3019396" lon="103.5151156"><ele>567.97</ele><time>2025-12-28T00:21:08.000Z</time></trkpt>
        <trkpt lat="29.3018597" lon="103.515126"><ele>567.26</ele><time>2025-12-28T00:21:16.000Z</time></trkpt>
        <trkpt lat="29.3018404" lon="103.5151661"><ele>567.41</ele><time>2025-12-28T00:21:24.000Z</time></trkpt>
        <trkpt lat="29.3018605" lon="103.5152633"><ele>569</ele><time>2025-12-28T00:21:38.000Z</time></trkpt>
        <trkpt lat="29.3018642" lon="103.5152861"><ele>568.76</ele><time>2025-12-28T00:21:40.000Z</time></trkpt>
        <trkpt lat="29.3018642" lon="103.5152861"><ele>568.76</ele><time>2025-12-28T00:21:58.000Z</time></trkpt>
      </trkseg>
  </trk>
</gpx>